
Distance (Route):
Temperature : -21.4°C
Humidity : 34.3%
Pressure : 462.1hPa| Receiver | Frames | First received | Last received |
|---|---|---|---|
| DL1XH-west | 343 | 2026-09-03 11:47:46 | 2026-09-03 12:50:52 |
| DM0DOS-11 | 212 | 2026-09-03 11:55:51 | 2026-09-03 12:45:42 |
| BIOWL1-15 | 153 | 2026-09-03 12:05:14 | 2026-09-03 12:44:37 |
| DJ2DS-15 | 86 | 2026-09-03 11:42:24 | 2026-09-03 12:51:29 |
| GOEST3-10 | 68 | 2026-09-03 12:24:25 | 2026-09-03 12:41:41 |
| BIOWL9-15 | 20 | 2026-09-03 12:06:43 | 2026-09-03 12:41:54 |
| BIOWL7-15 | 1 | 2026-09-03 12:07:55 | 2026-09-03 12:07:55 |
| AA1-15 | 1 | 2026-09-03 12:38:42 | 2026-09-03 12:38:42 |
| Receiver | Date | Latitude | Longitude | Direction | Speed | Altitude | Climb | Temperature | Humidity | Pressure | Voltage | Killtimer | Uptime | BKT | XDATA |
|---|---|---|---|---|---|---|---|---|---|---|---|---|---|---|---|
| DJ2DS-15 | 2026-09-03 12:51:29 | 56.25250 | 5.43890 | 93° | 91km/h | 6236m | -17.2m/s | -21.4°C | 34.3% | 462.1hPa | 2.5V | 00:00:00 | 02:02:05 | 00:00:00 | |
| DJ2DS-15 | 2026-09-03 12:51:20 | 56.25267 | 5.43587 | 98° | 86km/h | 6385m | -18.6m/s | -21.6°C | 9.4% | 452.9hPa | 2.5V | 00:00:00 | 00:00:00 | 00:00:00 | |
| DJ2DS-15 | 2026-09-03 12:51:09 | 56.25315 | 5.43126 | 103° | 102km/h | 6580m | -18.0m/s | -22.0°C | 5.5% | 441.0hPa | 2.5V | 08:19:00 | 02:01:45 | 00:00:00 | |
| DL1XH-west | 2026-09-03 12:50:52 | 56.25423 | 5.42268 | 102° | 104km/h | 6927m | -19.5m/s | -24.3°C | 6.4% | 420.8hPa | 2.6V | 08:20:39 | 02:01:26 | 00:00:00 | |
| DJ2DS-15 | 2026-09-03 12:50:44 | 56.25458 | 5.41994 | 102° | 102km/h | 7039m | -18.6m/s | -25.3°C | 6.4% | 414.4hPa | 2.5V | 00:00:00 | 00:00:00 | 00:00:00 | |
| DL1XH-west | 2026-09-03 12:50:39 | 56.25487 | 5.41768 | 103° | 104km/h | 7132m | -19.4m/s | -26°C | 6.2% | 409.1hPa | 2.5V | 08:20:39 | 02:01:15 | 00:00:00 | |
| DL1XH-west | 2026-09-03 12:50:28 | 56.25559 | 5.41265 | 105° | 104km/h | 7338m | -20.2m/s | -27.3°C | 5.2% | 397.6hPa | 2.5V | 08:20:39 | 02:01:04 | 00:00:00 | |
| DL1XH-west | 2026-09-03 12:50:18 | 56.25626 | 5.40792 | 103° | 110km/h | 7527m | -20m/s | -29°C | 10.4% | 387.2hPa | 2.5V | 08:20:39 | 02:00:54 | 00:00:00 | |
| DL1XH-west | 2026-09-03 12:50:07 | 56.25691 | 5.40252 | 101° | 113km/h | 7737m | -20.4m/s | -30.7°C | 9.3% | 376.1hPa | 2.5V | 08:20:39 | 02:00:43 | 00:00:00 | |
| DL1XH-west | 2026-09-03 12:49:57 | 56.25747 | 5.39755 | 103° | 113km/h | 7925m | -19m/s | -32.4°C | 14.3% | 366.2hPa | 2.5V | 08:21:30 | 02:00:33 | 00:00:00 | |
| DL1XH-west | 2026-09-03 12:49:47 | 56.25886 | 5.38839 | 109° | 137km/h | 8229m | -19.4m/s | -33.6°C | 16.3% | 350.7hPa | 2.5V | 08:21:30 | 02:00:16 | 00:00:00 | |
| DL1XH-west | 2026-09-03 12:49:36 | 56.25932 | 5.38603 | 110° | 141km/h | 8304m | -19.4m/s | -33.8°C | 17.4% | 346.9hPa | 2.5V | 08:21:30 | 02:00:12 | 00:00:00 | |
| DL1XH-west | 2026-09-03 12:49:25 | 56.26087 | 5.37875 | 112° | 146km/h | 8530m | -18.9m/s | -35.2°C | 17.7% | 335.9hPa | 2.5V | 08:21:30 | 02:00:00 | 00:00:00 | |
| DL1XH-west | 2026-09-03 12:49:14 | 56.26242 | 5.37248 | 116° | 155km/h | 8716m | -20m/s | -36.5°C | 25.3% | 327.1hPa | 2.6V | 08:22:21 | 01:59:50 | 00:00:00 | |
| DL1XH-west | 2026-09-03 12:49:04 | 56.26425 | 5.36590 | 118° | 166km/h | 8905m | -19.9m/s | -37.7°C | 34.7% | 318.2hPa | 2.5V | 08:22:21 | 01:59:40 | 00:00:00 | |
| DL1XH-west | 2026-09-03 12:48:53 | 56.26650 | 5.35825 | 118° | 179km/h | 9111m | -19.1m/s | -39.2°C | 44.8% | 308.8hPa | 2.5V | 08:22:21 | 01:59:29 | 00:00:00 | |
| DL1XH-west | 2026-09-03 12:48:42 | 56.26889 | 5.34996 | 117° | 195km/h | 9310m | -18.7m/s | -40.7°C | 53.8% | 299.8hPa | 2.6V | 08:22:21 | 01:59:18 | 00:00:00 | |
| DL1XH-west | 2026-09-03 12:48:32 | 56.27121 | 5.34149 | 116° | 217km/h | 9492m | -19.6m/s | -41.6°C | 52.2% | 291.9hPa | 2.6V | 08:22:21 | 01:59:08 | 00:00:00 | |
| DL1XH-west | 2026-09-03 12:48:21 | 56.27386 | 5.33180 | 116° | 215km/h | 9705m | -18.7m/s | -43.5°C | 50.6% | 283hPa | 2.5V | 08:23:12 | 01:58:57 | 00:00:00 | |
| DL1XH-west | 2026-09-03 12:48:11 | 56.27626 | 5.32305 | 116° | 215km/h | 9895m | -20m/s | -45.2°C | 53.8% | 275hPa | 2.5V | 08:23:12 | 01:58:47 | 00:00:00 | |
| DL1XH-west | 2026-09-03 12:48:00 | 56.27893 | 5.31345 | 116° | 215km/h | 10114m | -19.6m/s | -47.2°C | 57.2% | 266.2hPa | 2.5V | 08:23:12 | 01:58:36 | 00:00:00 | |
| DL1XH-west | 2026-09-03 12:47:49 | 56.28156 | 5.30382 | 116° | 214km/h | 10332m | -20.5m/s | -49.2°C | 55.7% | 257.5hPa | 2.5V | 08:23:12 | 01:58:25 | 00:00:00 | |
| DJ2DS-15 | 2026-09-03 12:47:44 | 56.28274 | 5.29952 | 116° | 208km/h | 10431m | -20.2m/s | -50.1°C | 40.7% | 253.6hPa | 2.5V | 00:00:00 | 00:00:00 | 00:00:00 | |
| DL1XH-west | 2026-09-03 12:47:39 | 56.28391 | 5.29534 | 117° | 204km/h | 10530m | -20.6m/s | -50.6°C | 43.8% | 249.8hPa | 2.5V | 08:23:12 | 01:58:15 | 00:00:00 | |
| DL1XH-west | 2026-09-03 12:47:28 | 56.28640 | 5.28653 | 117° | 190km/h | 10753m | -20.2m/s | -52.2°C | 36.9% | 241.4hPa | 2.5V | 08:24:03 | 01:58:04 | 00:00:00 | |
| DL1XH-west | 2026-09-03 12:47:17 | 56.28862 | 5.27817 | 114° | 184km/h | 10976m | -21.5m/s | -52.9°C | 27.3% | 233.1hPa | 2.6V | 08:24:03 | 01:57:53 | 00:00:00 | |
| DL1XH-west | 2026-09-03 12:47:07 | 56.29048 | 5.27016 | 111° | 197km/h | 11185m | -21.7m/s | -53.3°C | 22.9% | 225.6hPa | 2.5V | 08:24:03 | 01:57:43 | 00:00:00 | |
| DL1XH-west | 2026-09-03 12:46:56 | 56.29250 | 5.26059 | 111° | 212km/h | 11407m | -21m/s | -54.6°C | 16.1% | 217.9hPa | 2.5V | 08:24:03 | 01:57:32 | 00:00:00 | |
| DL1XH-west | 2026-09-03 12:46:46 | 56.29471 | 5.25113 | 113° | 193km/h | 11636m | -21.6m/s | -54.4°C | 8.5% | 210.3hPa | 2.6V | 08:24:03 | 01:57:21 | 00:00:00 | |
| DL1XH-west | 2026-09-03 12:46:34 | 56.29669 | 5.24277 | 113° | 170km/h | 11872m | -21.3m/s | -53.9°C | 3.2% | 202.6hPa | 2.6V | 08:24:54 | 01:57:10 | 00:00:00 | |
| DL1XH-west | 2026-09-03 12:46:23 | 56.29852 | 5.23578 | 115° | 141km/h | 12113m | -23.6m/s | -52.4°C | 2.1% | 195.3hPa | 2.5V | 08:24:54 | 01:56:59 | 00:00:00 | |
| DL1XH-west | 2026-09-03 12:46:12 | 56.29993 | 5.22965 | 109° | 124km/h | 12372m | -22.7m/s | -53.1°C | 2% | 187.6hPa | 2.5V | 08:24:54 | 01:56:48 | 00:00:00 | |
| DL1XH-west | 2026-09-03 12:46:01 | 56.30095 | 5.22407 | 104° | 111km/h | 12629m | -23.4m/s | -51.7°C | 1.1% | 180.2hPa | 2.5V | 08:24:54 | 01:56:37 | 00:00:00 | |
| DL1XH-west | 2026-09-03 12:45:50 | 56.30164 | 5.21870 | 101° | 113km/h | 12890m | -23.9m/s | -51.3°C | 1% | 173.1hPa | 2.6V | 08:25:45 | 01:56:26 | 00:00:00 | |
| DJ2DS-15 | 2026-09-03 12:45:49 | 56.30170 | 5.21819 | 102° | 113km/h | 12914m | -23.8m/s | -51.3°C | 4.1% | 172.4hPa | 2.5V | 00:00:00 | 01:56:25 | 00:00:00 | |
| DM0DOS-11 | 2026-09-03 12:45:42 | 56.30257 | 5.21202 | 107° | 111km/h | 13205m | -25.4m/s | -51.6°C | 4.1% | 164.9hPa | 2.5V | 08:25:08 | 01:56:13 | 00:00:00 | |
| DL1XH-west | 2026-09-03 12:45:40 | 56.30232 | 5.21352 | 106° | 117km/h | 13131m | -25.2m/s | -51.7°C | 0.9% | 166.7hPa | 2.6V | 08:25:45 | 01:56:16 | 00:00:00 | |
| DL1XH-west | 2026-09-03 12:45:29 | 56.30327 | 5.20837 | 109° | 104km/h | 13405m | -25.2m/s | -52.1°C | 1.1% | 159.8hPa | 2.5V | 08:25:45 | 01:56:05 | 00:00:00 | |
| DJ2DS-15 | 2026-09-03 12:45:29 | 56.30327 | 5.20837 | 109° | 100km/h | 13406m | -25.1m/s | -52.1°C | 4.3% | 159.8hPa | 2.5V | 00:00:00 | 01:56:05 | 00:00:00 | |
| DM0DOS-11 | 2026-09-03 12:45:23 | 56.30413 | 5.20301 | 105° | 102km/h | 13715m | -26.5m/s | -52.1°C | 4.3% | 152.4hPa | 2.5V | 08:25:28 | 01:55:53 | 00:00:00 | |
| DL1XH-west | 2026-09-03 12:45:18 | 56.30420 | 5.20257 | 105° | 100km/h | 13741m | -26.7m/s | -52°C | 1% | 151.8hPa | 2.6V | 08:25:45 | 01:55:52 | 00:00:00 | |
| DM0DOS-11 | 2026-09-03 12:45:11 | 56.30473 | 5.19908 | 103° | 97km/h | 13944m | -23.9m/s | -51.9°C | 4.2% | 147hPa | 2.6V | 08:25:37 | 01:55:44 | 00:00:00 | |
| DL1XH-west | 2026-09-03 12:45:07 | 56.30479 | 5.19865 | 104° | 97km/h | 13968m | -23.9m/s | -51.9°C | 0.9% | 146.5hPa | 2.5V | 08:25:45 | 01:55:43 | 00:00:00 | |
| DL1XH-west | 2026-09-03 12:44:57 | 56.30542 | 5.19479 | 103° | 84km/h | 14225m | -27.3m/s | -51.2°C | 0.7% | 140.9hPa | 2.5V | 08:26:36 | 01:55:33 | 00:00:00 | |
| DL1XH-west | 2026-09-03 12:44:46 | 56.30594 | 5.19063 | 99° | 86km/h | 14522m | -26.8m/s | -50.9°C | 0.7% | 134.6hPa | 2.5V | 08:26:36 | 01:55:22 | 00:00:00 | |
| BIOWL1-15 | 2026-09-03 12:44:37 | 56.30618 | 5.18601 | 95° | 73km/h | 14877m | -29m/s | -49.9°C | 0.5% | 127.4hPa | 2.6V | 08:26:36 | 01:55:09 | 00:00:00 | |
| DL1XH-west | 2026-09-03 12:44:35 | 56.30615 | 5.18668 | 94° | 75km/h | 14821m | -28.1m/s | -49.8°C | 0.5% | 128.5hPa | 2.5V | 08:26:36 | 01:55:11 | 00:00:00 | |
| DL1XH-west | 2026-09-03 12:44:24 | 56.30626 | 5.18300 | 89° | 75km/h | 15141m | -30.1m/s | -49.6°C | 0.4% | 122.3hPa | 2.5V | 08:26:36 | 01:55:00 | 00:00:00 | |
| BIOWL1-15 | 2026-09-03 12:44:23 | 56.30626 | 5.18266 | 90° | 75km/h | 15170m | -29.9m/s | -49.6°C | 0.4% | 121.8hPa | 2.5V | 08:26:36 | 01:54:59 | 00:00:00 | |
| DL1XH-west | 2026-09-03 12:44:14 | 56.30646 | 5.17963 | 103° | 75km/h | 15432m | -28.8m/s | -49.2°C | 0.3% | 117hPa | 2.5V | 08:26:36 | 01:54:50 | 00:00:00 | |
| BIOWL1-15 | 2026-09-03 12:44:12 | 56.30697 | 5.17704 | 107° | 58km/h | 15696m | -30.3m/s | -48.6°C | 0.2% | 112.4hPa | 2.6V | 08:27:27 | 01:54:41 | 00:00:00 | |
| DM0DOS-11 | 2026-09-03 12:44:10 | 56.30697 | 5.17703 | 106° | 58km/h | 15696m | -30.3m/s | -48.6°C | 3.2% | 112.4hPa | 2.6V | 08:26:40 | 01:54:41 | 00:00:00 | |
| DL1XH-west | 2026-09-03 12:44:04 | 56.30707 | 5.17629 | 99° | 55km/h | 15786m | -29.6m/s | -49.1°C | 0.3% | 110.8hPa | 2.5V | 08:27:27 | 01:54:38 | 00:00:00 | |
| BIOWL1-15 | 2026-09-03 12:44:02 | 56.30712 | 5.17554 | 91° | 55km/h | 15873m | -29.2m/s | -49.5°C | 0.4% | 109.4hPa | 2.5V | 08:27:27 | 01:54:35 | 00:00:00 | |
| DL1XH-west | 2026-09-03 12:43:54 | 56.30712 | 5.17426 | 90° | 55km/h | 16021m | -28.8m/s | -49.7°C | 0.4% | 106.9hPa | 2.5V | 08:27:27 | 01:54:30 | 00:00:00 | |
| BIOWL1-15 | 2026-09-03 12:43:45 | 56.30721 | 5.17208 | 89° | 55km/h | 16293m | -31.8m/s | -50°C | 0.4% | 102.6hPa | 2.6V | 08:27:27 | 01:54:21 | 00:00:00 | |
| DL1XH-west | 2026-09-03 12:43:43 | 56.30721 | 5.17158 | 88° | 57km/h | 16358m | -32.5m/s | -49.9°C | 0.4% | 101.5hPa | 2.6V | 08:27:27 | 01:54:19 | 00:00:00 | |
| DM0DOS-11 | 2026-09-03 12:43:37 | 56.30716 | 5.16970 | 88° | 57km/h | 16588m | -34.8m/s | -50.3°C | 3.7% | 98hPa | 2.6V | 08:27:09 | 01:54:12 | 00:00:00 | |
| BIOWL1-15 | 2026-09-03 12:43:36 | 56.30717 | 5.16918 | 90° | 60km/h | 16656m | -34m/s | -50.4°C | 0.4% | 97hPa | 2.6V | 08:27:27 | 01:54:10 | 00:00:00 | |
| DL1XH-west | 2026-09-03 12:43:32 | 56.30717 | 5.16864 | 91° | 60km/h | 16722m | -31.7m/s | -50.7°C | 0.5% | 96hPa | 2.5V | 08:27:27 | 01:54:08 | 00:00:00 | |
| DM0DOS-11 | 2026-09-03 12:43:31 | 56.30721 | 5.16692 | 93° | 66km/h | 16913m | -33.1m/s | -51.1°C | 3.9% | 93.2hPa | 2.5V | 08:27:19 | 01:54:02 | 00:00:00 | |
| BIOWL1-15 | 2026-09-03 12:43:27 | 56.30726 | 5.16602 | 98° | 66km/h | 17012m | -34.3m/s | -50.9°C | 0.6% | 91.8hPa | 2.5V | 08:27:27 | 01:53:59 | 00:00:00 | |
| DL1XH-west | 2026-09-03 12:43:21 | 56.30731 | 5.16545 | 101° | 64km/h | 17081m | -35.4m/s | -50.6°C | 0.5% | 90.8hPa | 2.6V | 08:27:27 | 01:53:57 | 00:00:00 | |
| BIOWL1-15 | 2026-09-03 12:43:12 | 56.30764 | 5.16294 | 104° | 60km/h | 17388m | -35.1m/s | -50°C | 0.4% | 86.6hPa | 2.5V | 08:29:09 | 01:53:48 | 00:00:00 | |
| DL1XH-west | 2026-09-03 12:43:11 | 56.30767 | 5.16268 | 103° | 57km/h | 17423m | -35.4m/s | -50°C | 0.4% | 86.2hPa | 2.5V | 08:28:18 | 01:53:47 | 00:00:00 | |
| BIOWL1-15 | 2026-09-03 12:43:01 | 56.30791 | 5.15947 | 83° | 46km/h | 17989m | -37.1m/s | -50.7°C | 0.4% | 79hPa | 2.6V | 08:29:09 | 01:53:31 | 00:00:00 | |
| DL1XH-west | 2026-09-03 12:43:00 | 56.30792 | 5.16045 | 93° | 42km/h | 17809m | -35.8m/s | -49.9°C | 0.3% | 81.2hPa | 2.6V | 08:28:18 | 01:53:36 | 00:00:00 | |
| DM0DOS-11 | 2026-09-03 12:42:57 | 56.30791 | 5.15968 | 84° | 44km/h | 17952m | -37.3m/s | -50.5°C | 3.5% | 79.5hPa | 2.5V | 08:27:49 | 01:53:32 | 00:00:00 | |
| DL1XH-west | 2026-09-03 12:42:50 | 56.30789 | 5.15840 | 89° | 47km/h | 18174m | -37.4m/s | -50.8°C | 0.5% | 76.8hPa | 2.5V | 08:28:18 | 01:53:26 | 00:00:00 | |
| BIOWL1-15 | 2026-09-03 12:42:48 | 56.30789 | 5.15797 | 91° | 47km/h | 18247m | -37.3m/s | -50.7°C | 0.5% | 75.9hPa | 2.6V | 08:29:09 | 01:53:24 | 00:00:00 | |
| DM0DOS-11 | 2026-09-03 12:42:47 | 56.30791 | 5.15755 | 94° | 42km/h | 18322m | -37.4m/s | -50.7°C | 3.7% | 75hPa | 2.5V | 08:27:59 | 01:53:22 | 00:00:00 | |
| DL1XH-west | 2026-09-03 12:42:39 | 56.30797 | 5.15616 | 90° | 40km/h | 18625m | -37.9m/s | -51.4°C | 0.6% | 71.6hPa | 2.6V | 08:28:18 | 01:53:14 | 00:00:00 | |
| BIOWL1-15 | 2026-09-03 12:42:37 | 56.30796 | 5.15558 | 85° | 44km/h | 18740m | -40m/s | -51.3°C | 0.6% | 70.4hPa | 2.5V | 08:29:09 | 01:53:11 | 00:00:00 | |
| DM0DOS-11 | 2026-09-03 12:42:37 | 56.30796 | 5.15578 | 86° | 44km/h | 18700m | -39.5m/s | -51.3°C | 3.9% | 70.8hPa | 2.6V | 08:28:09 | 01:53:12 | 00:00:00 | |
| DL1XH-west | 2026-09-03 12:42:29 | 56.30796 | 5.15426 | 95° | 49km/h | 18970m | -38.4m/s | -51°C | 0.6% | 67.9hPa | 2.5V | 08:28:18 | 01:53:05 | 00:00:00 | |
| DJ2DS-15 | 2026-09-03 12:42:29 | 56.30796 | 5.15426 | 95° | 37km/h | 18970m | -38.3m/s | -50.9°C | 3.8% | 67.8hPa | 2.6V | 00:00:00 | 01:53:05 | 00:00:00 | |
| DM0DOS-11 | 2026-09-03 12:42:27 | 56.30801 | 5.15361 | 98° | 47km/h | 19085m | -38.4m/s | -50.7°C | 3.7% | 66.7hPa | 2.6V | 08:28:19 | 01:53:02 | 00:00:00 | |
| BIOWL1-15 | 2026-09-03 12:42:26 | 56.30801 | 5.15361 | 99° | 47km/h | 19085m | -38.4m/s | -50.7°C | 0.5% | 66.7hPa | 2.6V | 08:29:09 | 01:53:02 | 00:00:00 | |
| DL1XH-west | 2026-09-03 12:42:19 | 56.30811 | 5.15248 | 88° | 29km/h | 19362m | -40.3m/s | -50.5°C | 0.5% | 63.9hPa | 2.5V | 08:29:09 | 01:52:55 | 00:00:00 | |
| DM0DOS-11 | 2026-09-03 12:42:17 | 56.30810 | 5.15209 | 82° | 29km/h | 19486m | -42.4m/s | -50.2°C | 3.5% | 62.7hPa | 2.6V | 08:28:29 | 01:52:52 | 00:00:00 | |
| DM0DOS-11 | 2026-09-03 12:42:10 | 56.30811 | 5.15054 | 92° | 40km/h | 19909m | -43.7m/s | -51.5°C | 3.9% | 58.7hPa | 2.5V | 08:28:39 | 01:52:42 | 00:00:00 | |
| BIOWL1-15 | 2026-09-03 12:42:08 | 56.30810 | 5.15088 | 91° | 37km/h | 19823m | -42.7m/s | -51.1°C | 0.6% | 59.5hPa | 2.5V | 08:29:09 | 01:52:44 | 00:00:00 | |
| DL1XH-west | 2026-09-03 12:41:58 | 56.30824 | 5.14913 | 104° | 35km/h | 20244m | -42m/s | -51.2°C | 0.7% | 55.8hPa | 2.6V | 08:29:09 | 01:52:34 | 00:00:00 | |
| DM0DOS-11 | 2026-09-03 12:41:57 | 56.30830 | 5.14883 | 108° | 31km/h | 20328m | -41.9m/s | -51.3°C | 4% | 55hPa | 2.5V | 08:28:49 | 01:52:32 | 00:00:00 | |
| BIOWL1-15 | 2026-09-03 12:41:56 | 56.30830 | 5.14883 | 109° | 31km/h | 20328m | -41.9m/s | -51.3°C | 0.7% | 55hPa | 2.5V | 08:29:09 | 01:52:32 | 00:00:00 | |
| BIOWL9-15 | 2026-09-03 12:41:54 | 56.30834 | 5.14857 | 103° | 27km/h | 20411m | -42.9m/s | -51.3°C | 1.2% | 54.3hPa | 2.6V | 00:00:00 | 00:00:00 | 00:00:00 | |
| DM0DOS-11 | 2026-09-03 12:41:50 | 56.30836 | 5.14758 | 75° | 33km/h | 20761m | -44.3m/s | -50.7°C | 3.8% | 51.5hPa | 2.6V | 08:28:59 | 01:52:22 | 00:00:00 | |
| DL1XH-west | 2026-09-03 12:41:47 | 56.30837 | 5.14772 | 81° | 31km/h | 20718m | -44.4m/s | -50.7°C | 0.5% | 51.8hPa | 2.6V | 08:29:09 | 01:52:23 | 00:00:00 | |
| BIOWL1-15 | 2026-09-03 12:41:45 | 56.30827 | 5.14699 | 72° | 35km/h | 20942m | -45.7m/s | -50.3°C | 0.5% | 50hPa | 2.6V | 08:29:09 | 01:52:18 | 00:00:00 | |
| DJ2DS-15 | 2026-09-03 12:41:43 | 56.30830 | 5.14714 | 74° | 35km/h | 20897m | -45.1m/s | -50.5°C | 1.1% | 50.4hPa | 2.6V | 00:00:00 | 00:00:00 | 00:00:00 | |
| GOEST3-10 | 2026-09-03 12:41:41 | 56.30825 | 5.14683 | 76° | 35km/h | 20987m | -45.7m/s | -50.1°C | 3.7% | 49.6hPa | 2.6V | 00:00:00 | 01:52:17 | 00:00:00 | |
| DM0DOS-11 | 2026-09-03 12:41:38 | 56.30821 | 5.14607 | 92° | 31km/h | 21212m | -44.5m/s | -49.9°C | 3.6% | 48hPa | 2.6V | 08:29:09 | 01:52:12 | 00:00:00 | |
| DL1XH-west | 2026-09-03 12:41:36 | 56.30821 | 5.14607 | 92° | 31km/h | 21212m | -44.5m/s | -49.9°C | 0.4% | 48hPa | 2.6V | 08:29:09 | 01:52:12 | 00:00:00 | |
| BIOWL1-15 | 2026-09-03 12:41:35 | 56.30822 | 5.14593 | 94° | 31km/h | 21256m | -44.4m/s | -49.8°C | 0.5% | 47.7hPa | 2.6V | 18:12:15 | 01:52:11 | 00:00:00 | |
| GOEST3-10 | 2026-09-03 12:41:31 | 56.30829 | 5.14545 | 114° | 20km/h | 21433m | -44.0m/s | -49.9°C | 3.6% | 46.3hPa | 2.5V | 00:00:00 | 01:52:07 | 00:00:00 | |
| DJ2DS-15 | 2026-09-03 12:41:29 | 56.30834 | 5.14527 | 116° | 20km/h | 21522m | -45.7m/s | -49.9°C | 3.6% | 45.7hPa | 2.5V | 00:00:00 | 01:52:05 | 00:00:00 | |
| DM0DOS-11 | 2026-09-03 12:41:27 | 56.30840 | 5.14503 | 106° | 18km/h | 21661m | -46.6m/s | -50.3°C | 3.7% | 44.8hPa | 2.5V | 08:30:00 | 01:52:02 | 00:00:00 | |
| DL1XH-west | 2026-09-03 12:41:26 | 56.30840 | 5.14503 | 106° | 20km/h | 21661m | -46.6m/s | -50.3°C | 0.5% | 44.8hPa | 2.5V | 18:12:15 | 01:52:02 | 00:00:00 | |
| DL1XH-west | 2026-09-03 12:41:15 | 56.30865 | 5.14407 | 112° | 20km/h | 22192m | -49.4m/s | -50.3°C | 0.5% | 41.2hPa | 2.6V | 18:12:15 | 01:51:51 | 00:00:00 | |
| GOEST3-10 | 2026-09-03 12:41:11 | 56.30873 | 5.14376 | 119° | 18km/h | 22393m | -50.9m/s | -50.9°C | 4.1% | 39.9hPa | 2.6V | 00:00:00 | 01:51:47 | 00:00:00 | |
| DJ2DS-15 | 2026-09-03 12:41:09 | 56.30877 | 5.14360 | 121° | 16km/h | 22495m | -51.5m/s | -50.7°C | 4.0% | 39.3hPa | 2.6V | 00:00:00 | 01:51:45 | 00:00:00 | |
| DM0DOS-11 | 2026-09-03 12:41:08 | 56.30885 | 5.14340 | 119° | 20km/h | 22645m | -50m/s | -50.3°C | 4% | 38.4hPa | 2.6V | 08:30:00 | 01:51:42 | 00:00:00 | |
| DL1XH-west | 2026-09-03 12:41:04 | 56.30889 | 5.14324 | 117° | 20km/h | 22744m | -50.7m/s | -49.9°C | 0.6% | 37.9hPa | 2.6V | 18:12:15 | 01:51:40 | 00:00:00 | |
| BIOWL1-15 | 2026-09-03 12:41:02 | 56.30897 | 5.14300 | 119° | 15km/h | 22951m | -52.8m/s | -49.2°C | 0.5% | 36.6hPa | 2.6V | 18:12:15 | 01:51:36 | 00:00:00 | |
| DL1XH-west | 2026-09-03 12:40:54 | 56.30904 | 5.14264 | 113° | 15km/h | 23269m | -55.2m/s | -49.1°C | 0.5% | 34.9hPa | 2.5V | 18:12:15 | 01:51:30 | 00:00:00 | |
| BIOWL1-15 | 2026-09-03 12:40:51 | 56.30909 | 5.14245 | 119° | 16km/h | 23434m | -55.8m/s | -49°C | 0.4% | 34hPa | 2.6V | 18:12:15 | 01:51:27 | 00:00:00 | |
| GOEST3-10 | 2026-09-03 12:40:50 | 56.30910 | 5.14238 | 124° | 15km/h | 23489m | -55.7m/s | -49.0°C | 3.6% | 33.7hPa | 2.6V | 00:00:00 | 01:51:26 | 00:00:00 | |
| DJ2DS-15 | 2026-09-03 12:40:49 | 56.30913 | 5.14232 | 127° | 13km/h | 23544m | -55.9m/s | -48.6°C | 3.4% | 33.4hPa | 2.6V | 00:00:00 | 01:51:25 | 00:00:00 | |
| DM0DOS-11 | 2026-09-03 12:40:47 | 56.30920 | 5.14219 | 138° | 13km/h | 23709m | -55.5m/s | -48.1°C | 3.3% | 32.6hPa | 2.6V | 08:30:00 | 01:51:22 | 00:00:00 | |
| DL1XH-west | 2026-09-03 12:40:43 | 56.30924 | 5.14210 | 123° | 7km/h | 23880m | -58.4m/s | -48.2°C | 0.3% | 31.8hPa | 2.5V | 18:12:15 | 01:51:19 | 00:00:00 | |
| DM0DOS-11 | 2026-09-03 12:40:41 | 56.30930 | 5.14181 | 113° | 15km/h | 24281m | -56.9m/s | -49.5°C | 3.7% | 29.8hPa | 2.5V | 08:30:00 | 01:51:12 | 00:00:00 | |
| BIOWL1-15 | 2026-09-03 12:40:40 | 56.30926 | 5.14200 | 117° | 7km/h | 24054m | -58.2m/s | -49.1°C | 0.4% | 30.9hPa | 2.6V | 18:12:15 | 01:51:16 | 00:00:00 | |
| DL1XH-west | 2026-09-03 12:40:33 | 56.30935 | 5.14161 | 116° | 18km/h | 24449m | -55.7m/s | -49.5°C | 0.6% | 29hPa | 2.6V | 18:12:15 | 01:51:09 | 00:00:00 | |
| DM0DOS-11 | 2026-09-03 12:40:30 | 56.30956 | 5.14115 | 145° | 18km/h | 24828m | -51.4m/s | -47.7°C | 3.1% | 27.4hPa | 2.5V | 08:30:00 | 01:51:02 | 00:00:00 | |
| BIOWL1-15 | 2026-09-03 12:40:29 | 56.30945 | 5.14132 | 128° | 20km/h | 24668m | -54.5m/s | -48.4°C | 0.3% | 28.1hPa | 2.6V | 18:12:15 | 01:51:05 | 00:00:00 | |
| DJ2DS-15 | 2026-09-03 12:40:29 | 56.30945 | 5.14132 | 128° | 16km/h | 24669m | -54.5m/s | -48.4°C | 3.3% | 28.0hPa | 2.5V | 00:00:00 | 01:51:05 | 00:00:00 | |
| GOEST3-10 | 2026-09-03 12:40:25 | 56.30959 | 5.14110 | 145° | 18km/h | 24878m | -50.1m/s | -47.6°C | 3.0% | 27.1hPa | 2.5V | 00:00:00 | 00:00:00 | 00:00:00 | |
| DM0DOS-11 | 2026-09-03 12:40:20 | 56.30993 | 5.14081 | 149° | 13km/h | 25195m | -11.4m/s | -48.3°C | 3.5% | 25.8hPa | 2.6V | 08:30:00 | 01:50:52 | 00:00:00 | |
| DL1XH-west | 2026-09-03 12:40:17 | 56.30993 | 5.14081 | 149° | 13km/h | 25195m | -11.4m/s | -48.3°C | 0.5% | 25.8hPa | 2.6V | 18:12:15 | 01:50:52 | 00:00:00 | |
| GOEST3-10 | 2026-09-03 12:40:15 | 56.30995 | 5.14078 | 149° | 13km/h | 25201m | -2.8m/s | -48.1°C | 3.4% | 25.8hPa | 2.6V | 00:00:00 | 00:00:00 | 00:00:00 | |
| GOEST3-10 | 2026-09-03 12:40:10 | 56.31010 | 5.14065 | 154° | 15km/h | 25181m | 4.4m/s | -48.2°C | 3.4% | 25.9hPa | 2.6V | 00:00:00 | 01:50:46 | 00:00:00 | |
| DJ2DS-15 | 2026-09-03 12:40:09 | 56.31012 | 5.14062 | 141° | 15km/h | 25176m | 5.6m/s | -48.3°C | 3.4% | 25.8hPa | 2.5V | 00:00:00 | 01:50:45 | 00:00:00 | |
| DM0DOS-11 | 2026-09-03 12:40:08 | 56.31021 | 5.14049 | 150° | 16km/h | 25162m | 5.6m/s | -48.4°C | 3.5% | 26hPa | 2.6V | 08:30:00 | 01:50:42 | 00:00:00 | |
| DL1XH-west | 2026-09-03 12:40:05 | 56.31041 | 5.14044 | 203° | 9km/h | 25128m | 4m/s | -48.3°C | 0.4% | 26.1hPa | 2.6V | 18:12:15 | 01:50:35 | 00:00:00 | |
| GOEST3-10 | 2026-09-03 12:40:05 | 56.31025 | 5.14046 | 163° | 13km/h | 25157m | 4.5m/s | -48.3°C | 3.5% | 25.9hPa | 2.6V | 00:00:00 | 00:00:00 | 00:00:00 | |
| DM0DOS-11 | 2026-09-03 12:40:01 | 56.31047 | 5.14041 | 134° | 13km/h | 25114m | 4.5m/s | -48.2°C | 3.4% | 26.2hPa | 2.6V | 08:30:00 | 01:50:32 | 00:00:00 | |
| GOEST3-10 | 2026-09-03 12:40:00 | 56.31039 | 5.14042 | 200° | 9km/h | 25133m | 5.5m/s | -48.2°C | 3.4% | 26.0hPa | 2.6V | 00:00:00 | 01:50:36 | 00:00:00 | |
| GOEST3-10 | 2026-09-03 12:39:55 | 56.31050 | 5.14036 | 139° | 22km/h | 25109m | 4.5m/s | -48.3°C | 3.4% | 26.1hPa | 2.6V | 00:00:00 | 00:00:00 | 08:30:00 | |
| DM0DOS-11 | 2026-09-03 12:39:51 | 56.31090 | 5.14001 | 180° | 13km/h | 25065m | 4m/s | -48.4°C | 3.5% | 26.3hPa | 2.6V | 08:30:00 | 01:50:22 | 00:00:00 | |
| DL1XH-west | 2026-09-03 12:39:46 | 56.31090 | 5.14001 | 180° | 13km/h | 25065m | 4m/s | -48.4°C | 0.4% | 26.3hPa | 2.6V | 18:12:15 | 01:50:22 | 00:00:00 | |
| GOEST3-10 | 2026-09-03 12:39:45 | 56.31093 | 5.14001 | 173° | 11km/h | 25060m | 5.4m/s | -48.3°C | 3.4% | 26.3hPa | 2.6V | 00:00:00 | 00:00:00 | 00:00:00 | |
| DM0DOS-11 | 2026-09-03 12:39:41 | 56.31121 | 5.13960 | 142° | 26km/h | 25016m | 5.5m/s | -48.3°C | 3.4% | 26.6hPa | 2.6V | 08:30:00 | 01:50:12 | 00:00:00 | |
| GOEST3-10 | 2026-09-03 12:39:40 | 56.31104 | 5.13986 | 144° | 24km/h | 25036m | 4.4m/s | -48.3°C | 3.5% | 26.4hPa | 2.5V | 00:00:00 | 01:50:16 | 00:00:00 | |
| GOEST3-10 | 2026-09-03 12:39:34 | 56.31132 | 5.13949 | 155° | 18km/h | 25007m | 4.4m/s | -48.2°C | 3.4% | 26.5hPa | 2.5V | 00:00:00 | 00:00:00 | 00:00:00 | |
| DM0DOS-11 | 2026-09-03 12:39:31 | 56.31161 | 5.13914 | 133° | 20km/h | 24967m | 5.8m/s | -48.3°C | 3.4% | 26.7hPa | 2.5V | 08:30:00 | 01:50:02 | 00:00:00 | |
| BIOWL1-15 | 2026-09-03 12:39:23 | 56.31179 | 5.13871 | 134° | 26km/h | 24943m | 3.8m/s | -48.1°C | 0.4% | 26.9hPa | 2.5V | 18:12:15 | 01:49:57 | 00:00:00 | |
| DM0DOS-11 | 2026-09-03 12:39:21 | 56.31194 | 5.13834 | 123° | 16km/h | 24919m | 5.6m/s | -48.2°C | 3.3% | 26.9hPa | 2.5V | 08:30:00 | 01:49:52 | 00:00:00 | |
| GOEST3-10 | 2026-09-03 12:39:19 | 56.31186 | 5.13855 | 130° | 18km/h | 24934m | 5.5m/s | -48.2°C | 3.4% | 26.9hPa | 2.6V | 00:00:00 | 01:49:55 | 00:00:00 | |
| GOEST3-10 | 2026-09-03 12:39:14 | 56.31199 | 5.13825 | 142° | 11km/h | 24909m | 4.3m/s | -48.2°C | 3.3% | 27.0hPa | 2.6V | 00:00:00 | 00:00:00 | 00:00:00 | |
| DM0DOS-11 | 2026-09-03 12:39:09 | 56.31219 | 5.13801 | 134° | 15km/h | 24869m | 5.4m/s | -48.4°C | 3.3% | 27.2hPa | 2.6V | 08:30:00 | 01:49:42 | 00:00:00 | |
| BIOWL1-15 | 2026-09-03 12:39:09 | 56.31209 | 5.13812 | 156° | 13km/h | 24883m | 4.9m/s | -48.4°C | 0.3% | 27.1hPa | 2.5V | 18:12:15 | 01:49:45 | 00:00:00 | |
| BIOWL1-15 | 2026-09-03 12:38:57 | 56.31241 | 5.13739 | 129° | 22km/h | 24824m | 5.5m/s | -48.6°C | 0.4% | 27.3hPa | 2.5V | 18:12:15 | 01:49:33 | 00:00:00 | |
| DM0DOS-11 | 2026-09-03 12:38:57 | 56.31245 | 5.13731 | 137° | 22km/h | 24819m | 4.4m/s | -48.6°C | 3.4% | 27.3hPa | 2.6V | 08:30:00 | 01:49:32 | 00:00:00 | |
| GOEST3-10 | 2026-09-03 12:38:54 | 56.31253 | 5.13718 | 135° | 20km/h | 24809m | 6.1m/s | -48.6°C | 3.4% | 27.3hPa | 2.6V | 00:00:00 | 00:00:00 | 00:00:00 | |
| DM0DOS-11 | 2026-09-03 12:38:51 | 56.31278 | 5.13645 | 109° | 33km/h | 24768m | 3.9m/s | -49.3°C | 3.6% | 27.6hPa | 2.5V | 08:30:00 | 01:49:22 | 00:00:00 | |
| BIOWL1-15 | 2026-09-03 12:38:45 | 56.31281 | 5.13631 | 112° | 33km/h | 24763m | 5.8m/s | -49.4°C | 0.5% | 27.6hPa | 2.6V | 18:12:15 | 01:49:21 | 00:00:00 | |
| AA1-15 | 2026-09-03 12:38:42 | 56.31292 | 5.13595 | 120° | 27km/h | 24748m | 5.7m/s | 0°C | 0% | 0hPa | 2.5V | 18:12:15 | 01:49:18 | 00:00:00 | |
| GOEST3-10 | 2026-09-03 12:38:39 | 56.31302 | 5.13566 | 130° | 26km/h | 24733m | 5.4m/s | -49.4°C | 3.6% | 27.7hPa | 2.6V | 00:00:00 | 01:49:15 | 00:00:00 | |
| DM0DOS-11 | 2026-09-03 12:38:37 | 56.31312 | 5.13540 | 115° | 26km/h | 24718m | 5.8m/s | -49.4°C | 3.6% | 27.8hPa | 2.6V | 08:30:00 | 01:49:12 | 00:00:00 | |
| BIOWL1-15 | 2026-09-03 12:38:34 | 56.31323 | 5.13478 | 109° | 26km/h | 24693m | 4.4m/s | -49.3°C | 0.4% | 27.9hPa | 2.6V | 18:12:15 | 01:49:07 | 00:00:00 | |
| GOEST3-10 | 2026-09-03 12:38:29 | 56.31326 | 5.13455 | 104° | 22km/h | 24683m | 5.1m/s | -49.2°C | 3.5% | 27.9hPa | 2.6V | 00:00:00 | 01:49:05 | 00:00:00 | |
| DJ2DS-15 | 2026-09-03 12:38:28 | 56.31328 | 5.13444 | 105° | 20km/h | 24678m | 4.5m/s | -49.3°C | 3.5% | 27.9hPa | 2.6V | 00:00:00 | 01:49:04 | 00:00:00 | |
| DM0DOS-11 | 2026-09-03 12:38:27 | 56.31331 | 5.13427 | 114° | 18km/h | 24667m | 4.7m/s | -49.3°C | 3.5% | 28hPa | 2.6V | 08:30:00 | 01:49:02 | 00:00:00 | |
| DL1XH-west | 2026-09-03 12:38:25 | 56.31333 | 5.13419 | 117° | 18km/h | 24662m | 4.6m/s | -49.3°C | 0.4% | 28hPa | 2.6V | 18:12:15 | 01:49:01 | 00:00:00 | |
| BIOWL1-15 | 2026-09-03 12:38:21 | 56.31340 | 5.13385 | 109° | 20km/h | 24641m | 6m/s | -49.5°C | 0.4% | 28.2hPa | 2.6V | 18:12:15 | 01:48:57 | 00:00:00 | |
| DL1XH-west | 2026-09-03 12:38:14 | 56.31348 | 5.13311 | 100° | 18km/h | 24599m | 4.6m/s | -49.5°C | 0.4% | 28.3hPa | 2.5V | 18:12:15 | 01:48:49 | 00:00:00 | |
| BIOWL1-15 | 2026-09-03 12:38:11 | 56.31349 | 5.13295 | 91° | 18km/h | 24589m | 4.9m/s | -49.7°C | 0.4% | 28.4hPa | 2.6V | 18:12:15 | 01:48:47 | 00:00:00 | |
| DL1XH-west | 2026-09-03 12:38:01 | 56.31348 | 5.13198 | 72° | 15km/h | 24533m | 5.2m/s | -50.2°C | 0.5% | 28.6hPa | 2.5V | 18:12:15 | 01:48:36 | 00:00:00 | |
| BIOWL1-15 | 2026-09-03 12:38:01 | 56.31346 | 5.13184 | 68° | 16km/h | 24522m | 4.5m/s | -50.2°C | 0.5% | 28.7hPa | 2.6V | 18:12:15 | 01:48:34 | 00:00:00 | |
| GOEST3-10 | 2026-09-03 12:37:59 | 56.31347 | 5.13191 | 69° | 15km/h | 24528m | 5.1m/s | -50.1°C | 3.7% | 28.6hPa | 2.5V | 00:00:00 | 01:48:35 | 00:00:00 | |
| GOEST3-10 | 2026-09-03 12:37:54 | 56.31343 | 5.13160 | 93° | 16km/h | 24501m | 5.2m/s | -50.2°C | 3.7% | 28.7hPa | 2.5V | 00:00:00 | 00:00:00 | 00:00:00 | |
| DM0DOS-11 | 2026-09-03 12:37:53 | 56.31343 | 5.13129 | 91° | 15km/h | 24481m | 5.5m/s | -50.2°C | 3.7% | 28.9hPa | 2.6V | 08:30:00 | 01:48:26 | 00:00:00 | |
| BIOWL1-15 | 2026-09-03 12:37:50 | 56.31343 | 5.13129 | 92° | 15km/h | 24481m | 5.5m/s | -50.2°C | 0.5% | 28.9hPa | 2.6V | 18:12:15 | 01:48:26 | 00:00:00 | |
| BIOWL9-15 | 2026-09-03 12:37:46 | 56.31341 | 5.13108 | 68° | 11km/h | 24460m | 5.0m/s | -50.3°C | 1.0% | 28.9hPa | 2.6V | 00:00:00 | 00:00:00 | 00:00:00 | |
| GOEST3-10 | 2026-09-03 12:37:44 | 56.31340 | 5.13099 | 97° | 13km/h | 24449m | 5.7m/s | -50.3°C | 3.8% | 28.9hPa | 2.6V | 00:00:00 | 00:00:00 | 00:00:00 | |
| DM0DOS-11 | 2026-09-03 12:37:41 | 56.31344 | 5.13079 | 109° | 16km/h | 24428m | 5.1m/s | -50.3°C | 3.7% | 29.1hPa | 2.6V | 08:30:00 | 01:48:16 | 00:00:00 | |
| BIOWL1-15 | 2026-09-03 12:37:40 | 56.31344 | 5.13079 | 110° | 16km/h | 24428m | 5.1m/s | -50.3°C | 0.6% | 29.1hPa | 2.6V | 18:12:15 | 01:48:16 | 00:00:00 | |
| DL1XH-west | 2026-09-03 12:37:29 | 56.31351 | 5.13007 | 97° | 11km/h | 24371m | 5.9m/s | -50.5°C | 0.6% | 29.4hPa | 2.6V | 18:12:15 | 01:48:05 | 00:00:00 | |
| BIOWL1-15 | 2026-09-03 12:37:19 | 56.31350 | 5.12924 | 57° | 15km/h | 24295m | 4m/s | -50°C | 0.6% | 29.7hPa | 2.6V | 18:12:15 | 01:47:50 | 00:00:00 | |
| DL1XH-west | 2026-09-03 12:37:19 | 56.31356 | 5.12941 | 69° | 9km/h | 24315m | 4.3m/s | -50.1°C | 0.6% | 29.6hPa | 2.6V | 18:12:15 | 01:47:54 | 00:00:00 | |
| BIOWL1-15 | 2026-09-03 12:37:08 | 56.31349 | 5.12883 | 72° | 9km/h | 24244m | 5.1m/s | -49.8°C | 0.6% | 29.9hPa | 2.5V | 18:12:15 | 01:47:40 | 00:00:00 | |
| DJ2DS-15 | 2026-09-03 12:37:08 | 56.31348 | 5.12898 | 101° | 7km/h | 24265m | 4.5m/s | -49.9°C | 3.7% | 29.8hPa | 2.6V | 00:00:00 | 01:47:44 | 00:00:00 | |
| GOEST3-10 | 2026-09-03 12:37:04 | 56.31349 | 5.12883 | 72° | 9km/h | 24245m | 5.0m/s | -49.8°C | 3.7% | 29.9hPa | 2.5V | 00:00:00 | 00:00:00 | 00:00:00 | |
| DM0DOS-11 | 2026-09-03 12:37:01 | 56.31343 | 5.12869 | 33° | 7km/h | 24223m | 4.7m/s | -49.7°C | 3.7% | 30hPa | 2.5V | 08:30:00 | 01:47:36 | 00:00:00 | |
| BIOWL1-15 | 2026-09-03 12:36:56 | 56.31337 | 5.12860 | 71° | 9km/h | 24204m | 4.3m/s | -49.8°C | 0.5% | 30.1hPa | 2.6V | 18:12:15 | 01:47:32 | 00:00:00 | |
| DL1XH-west | 2026-09-03 12:36:54 | 56.31337 | 5.12854 | 120° | 5km/h | 24193m | 5.1m/s | -49.8°C | 0.6% | 30.2hPa | 2.5V | 18:12:15 | 01:47:30 | 00:00:00 | |
| GOEST3-10 | 2026-09-03 12:36:54 | 56.31337 | 5.12854 | 120° | 5km/h | 24194m | 5.1m/s | -49.7°C | 3.7% | 30.1hPa | 2.5V | 00:00:00 | 00:00:00 | 08:30:00 | |
| DM0DOS-11 | 2026-09-03 12:36:51 | 56.31340 | 5.12846 | 80° | 5km/h | 24173m | 4.3m/s | -49.6°C | 3.6% | 30.2hPa | 2.6V | 08:30:00 | 01:47:26 | 00:00:00 | |
| GOEST3-10 | 2026-09-03 12:36:49 | 56.31339 | 5.12843 | 90° | 5km/h | 24169m | 5.6m/s | -49.7°C | 3.7% | 30.2hPa | 2.6V | 00:00:00 | 01:47:25 | 00:00:00 | |
| DJ2DS-15 | 2026-09-03 12:36:48 | 56.31339 | 5.12842 | 93° | 5km/h | 24163m | 4.9m/s | -49.6°C | 3.7% | 30.2hPa | 2.6V | 00:00:00 | 01:47:24 | 00:00:00 | |
| DM0DOS-11 | 2026-09-03 12:36:46 | 56.31337 | 5.12831 | 139° | 2km/h | 24121m | 5.5m/s | -49.8°C | 3.7% | 30.5hPa | 2.6V | 08:30:00 | 01:47:16 | 00:00:00 | |
| BIOWL1-15 | 2026-09-03 12:36:45 | 56.31337 | 5.12836 | 47° | 7km/h | 24147m | 4.7m/s | -49.8°C | 0.5% | 30.4hPa | 2.6V | 18:12:15 | 01:47:21 | 00:00:00 | |
| DL1XH-west | 2026-09-03 12:36:43 | 56.31336 | 5.12832 | 139° | 2km/h | 24132m | 4.1m/s | -49.8°C | 0.5% | 30.4hPa | 2.5V | 18:12:15 | 01:47:18 | 00:00:00 | |
| BIOWL1-15 | 2026-09-03 12:36:37 | 56.31340 | 5.12830 | 26° | 0km/h | 24097m | 5.4m/s | -49.7°C | 0.5% | 30.6hPa | 2.6V | 18:12:15 | 01:47:11 | 00:00:00 | |
| DM0DOS-11 | 2026-09-03 12:36:35 | 56.31334 | 5.12817 | 87° | 5km/h | 24072m | 4.1m/s | -49.6°C | 3.7% | 30.7hPa | 2.6V | 08:30:00 | 01:47:06 | 00:00:00 | |
| DL1XH-west | 2026-09-03 12:36:33 | 56.31337 | 5.12827 | 46° | 9km/h | 24087m | 4m/s | -49.7°C | 0.5% | 30.7hPa | 2.6V | 18:12:15 | 01:47:09 | 00:00:00 | |
| GOEST3-10 | 2026-09-03 12:36:29 | 56.31334 | 5.12815 | 107° | 5km/h | 24069m | 4.0m/s | -49.6°C | 3.7% | 30.7hPa | 2.6V | 00:00:00 | 01:47:05 | 00:00:00 | |
| DJ2DS-15 | 2026-09-03 12:36:28 | 56.31334 | 5.12812 | 102° | 5km/h | 24064m | 4.6m/s | -49.6°C | 3.7% | 30.7hPa | 2.6V | 00:00:00 | 01:47:04 | 00:00:00 | |
| DM0DOS-11 | 2026-09-03 12:36:24 | 56.31341 | 5.12793 | 35° | 5km/h | 24015m | 4m/s | -49.4°C | 3.7% | 31hPa | 2.6V | 08:30:00 | 01:46:54 | 00:00:00 | |
| DL1XH-west | 2026-09-03 12:36:23 | 56.31338 | 5.12798 | 166° | 9km/h | 24034m | 3.8m/s | -49.6°C | 0.5% | 30.9hPa | 2.6V | 18:12:15 | 01:46:58 | 00:00:00 | |
| GOEST3-10 | 2026-09-03 12:36:19 | 56.31342 | 5.12795 | 59° | 4km/h | 24020m | 4.2m/s | -49.4°C | 3.7% | 30.9hPa | 2.6V | 00:00:00 | 01:46:55 | 00:00:00 | |
| GOEST3-10 | 2026-09-03 12:36:14 | 56.31338 | 5.12792 | 325° | 4km/h | 23996m | 4.3m/s | -49.3°C | 3.6% | 31.1hPa | 2.6V | 00:00:00 | 00:00:00 | 00:00:00 | |
| DM0DOS-11 | 2026-09-03 12:36:13 | 56.31340 | 5.12786 | 144° | 7km/h | 23966m | 5m/s | -49.2°C | 3.6% | 31.2hPa | 2.6V | 08:30:00 | 01:46:44 | 00:00:00 | |
| BIOWL1-15 | 2026-09-03 12:36:12 | 56.31342 | 5.12780 | 114° | 9km/h | 23955m | 3.8m/s | -49.2°C | 0.5% | 31.3hPa | 2.6V | 18:12:15 | 01:46:42 | 00:00:00 | |
| DL1XH-west | 2026-09-03 12:36:11 | 56.31338 | 5.12787 | 152° | 7km/h | 23970m | 4m/s | -49.3°C | 0.5% | 31.2hPa | 2.5V | 18:12:15 | 01:46:45 | 00:00:00 | |
| BIOWL1-15 | 2026-09-03 12:36:02 | 56.31346 | 5.12773 | 188° | 4km/h | 23937m | 4.6m/s | -49.1°C | 0.5% | 31.4hPa | 2.6V | 18:12:15 | 01:46:38 | 00:00:00 | |
| DL1XH-west | 2026-09-03 12:36:00 | 56.31347 | 5.12772 | 76° | 2km/h | 23926m | 4.5m/s | -49°C | 0.5% | 31.4hPa | 2.6V | 18:12:15 | 01:46:36 | 00:00:00 | |
| DM0DOS-11 | 2026-09-03 12:35:59 | 56.31347 | 5.12769 | 93° | 4km/h | 23916m | 5.1m/s | -48.9°C | 3.6% | 31.5hPa | 2.5V | 08:30:00 | 01:46:34 | 00:00:00 | |
| GOEST3-10 | 2026-09-03 12:35:59 | 56.31347 | 5.12771 | 66° | 5km/h | 23922m | 4.3m/s | -48.8°C | 3.6% | 31.4hPa | 2.5V | 00:00:00 | 01:46:35 | 00:00:00 | |
| GOEST3-10 | 2026-09-03 12:35:54 | 56.31348 | 5.12756 | 97° | 11km/h | 23898m | 4.5m/s | -48.7°C | 3.5% | 31.5hPa | 2.5V | 00:00:00 | 00:00:00 | 00:00:00 | |
| DM0DOS-11 | 2026-09-03 12:35:53 | 56.31359 | 5.12740 | 155° | 7km/h | 23868m | 4.5m/s | -48.8°C | 3.4% | 31.7hPa | 2.5V | 08:30:00 | 01:46:24 | 00:00:00 | |
| BIOWL1-15 | 2026-09-03 12:35:51 | 56.31358 | 5.12741 | 157° | 9km/h | 23873m | 5.5m/s | -48.8°C | 0.4% | 31.7hPa | 2.6V | 18:12:15 | 01:46:25 | 00:00:00 | |
| DL1XH-west | 2026-09-03 12:35:50 | 56.31355 | 5.12743 | 160° | 11km/h | 23878m | 4.3m/s | -48.8°C | 0.4% | 31.6hPa | 2.6V | 18:12:15 | 01:46:26 | 00:00:00 | |
| GOEST3-10 | 2026-09-03 12:35:49 | 56.31358 | 5.12741 | 157° | 7km/h | 23874m | 5.4m/s | -48.8°C | 3.5% | 31.6hPa | 2.6V | 00:00:00 | 01:46:25 | 00:00:00 | |
| DJ2DS-15 | 2026-09-03 12:35:48 | 56.31359 | 5.12740 | 156° | 11km/h | 23869m | 4.4m/s | -48.7°C | 3.4% | 31.7hPa | 2.6V | 00:00:00 | 01:46:24 | 00:00:00 | |
| GOEST3-10 | 2026-09-03 12:35:44 | 56.31367 | 5.12737 | 175° | 7km/h | 23849m | 4.5m/s | -48.7°C | 3.4% | 31.7hPa | 2.6V | 00:00:00 | 00:00:00 | 00:00:00 | |
| DJ2DS-15 | 2026-09-03 12:35:43 | 56.31370 | 5.12735 | 134° | 5km/h | 23840m | 4.4m/s | -48.8°C | 1.0% | 31.9hPa | 2.6V | 00:00:00 | 00:00:00 | 00:00:00 | |
| DM0DOS-11 | 2026-09-03 12:35:42 | 56.31378 | 5.12727 | 167° | 15km/h | 23820m | 4.4m/s | -48.8°C | 3.5% | 31.9hPa | 2.6V | 08:30:00 | 01:46:14 | 00:00:00 | |
| DL1XH-west | 2026-09-03 12:35:40 | 56.31378 | 5.12727 | 168° | 15km/h | 23820m | 4.4m/s | -48.8°C | 0.4% | 32hPa | 2.6V | 18:12:15 | 01:46:14 | 00:00:00 | |
| DL1XH-west | 2026-09-03 12:35:28 | 56.31417 | 5.12698 | 155° | 15km/h | 23766m | 5.5m/s | -48.7°C | 0.4% | 32.2hPa | 2.6V | 18:12:15 | 01:46:03 | 00:00:00 | |
| BIOWL1-15 | 2026-09-03 12:35:27 | 56.31424 | 5.12693 | 157° | 16km/h | 23756m | 4.7m/s | -48.7°C | 0.3% | 32.3hPa | 2.5V | 18:12:15 | 01:46:01 | 00:00:00 | |
| GOEST3-10 | 2026-09-03 12:35:24 | 56.31428 | 5.12690 | 151° | 20km/h | 23751m | 5.2m/s | -48.6°C | 3.4% | 32.2hPa | 2.6V | 00:00:00 | 00:00:00 | 08:30:00 | |
| DM0DOS-11 | 2026-09-03 12:35:22 | 56.31455 | 5.12668 | 146° | 20km/h | 23721m | 5.4m/s | -48.7°C | 3.5% | 32.4hPa | 2.6V | 08:30:00 | 01:45:54 | 00:00:00 | |
| DL1XH-west | 2026-09-03 12:35:17 | 56.31486 | 5.12622 | 148° | 18km/h | 23682m | 4.7m/s | -48.9°C | 0.3% | 32.6hPa | 2.5V | 18:12:15 | 01:45:46 | 00:00:00 | |
| BIOWL1-15 | 2026-09-03 12:35:17 | 56.31478 | 5.12632 | 144° | 18km/h | 23692m | 5.8m/s | -48.8°C | 0.4% | 32.6hPa | 2.6V | 18:12:15 | 01:45:48 | 00:00:00 | |
| GOEST3-10 | 2026-09-03 12:35:14 | 56.31469 | 5.12643 | 143° | 20km/h | 23702m | 4.5m/s | -48.7°C | 3.5% | 32.5hPa | 2.6V | 00:00:00 | 00:00:00 | 00:00:00 | |
| DM0DOS-11 | 2026-09-03 12:35:10 | 56.31494 | 5.12615 | 158° | 18km/h | 23671m | 4m/s | -48.8°C | 3.5% | 32.7hPa | 2.6V | 08:30:00 | 01:45:44 | 00:00:00 | |
| DL1XH-west | 2026-09-03 12:35:07 | 56.31498 | 5.12612 | 152° | 18km/h | 23667m | 5.1m/s | -48.7°C | 0.3% | 32.7hPa | 2.6V | 18:12:15 | 01:45:43 | 00:00:00 | |
| DM0DOS-11 | 2026-09-03 12:35:04 | 56.31541 | 5.12528 | 125° | 26km/h | 23622m | 4.2m/s | -48.9°C | 3.5% | 32.9hPa | 2.6V | 08:30:00 | 01:45:34 | 00:00:00 | |
| DL1XH-west | 2026-09-03 12:34:56 | 56.31548 | 5.12511 | 133° | 20km/h | 23613m | 4.6m/s | -48.9°C | 0.4% | 33hPa | 2.6V | 18:12:15 | 01:45:32 | 00:00:00 | |
| BIOWL1-15 | 2026-09-03 12:34:54 | 56.31555 | 5.12498 | 131° | 20km/h | 23604m | 4.3m/s | -49°C | 0.4% | 33hPa | 2.5V | 18:12:15 | 01:45:30 | 00:00:00 | |
| DM0DOS-11 | 2026-09-03 12:34:53 | 56.31576 | 5.12440 | 133° | 29km/h | 23575m | 4.1m/s | -49.2°C | 3.4% | 33.2hPa | 2.5V | 08:30:00 | 01:45:24 | 00:00:00 | |
| DL1XH-west | 2026-09-03 12:34:45 | 56.31591 | 5.12410 | 125° | 29km/h | 23561m | 5m/s | -49.2°C | 0.4% | 33.2hPa | 2.6V | 18:12:15 | 01:45:21 | 00:00:00 | |
| BIOWL1-15 | 2026-09-03 12:34:45 | 56.31606 | 5.12344 | 107° | 18km/h | 23521m | 5.3m/s | -49.9°C | 0.5% | 33.4hPa | 2.5V | 18:12:15 | 01:45:13 | 00:00:00 | |
| GOEST3-10 | 2026-09-03 12:34:44 | 56.31595 | 5.12399 | 120° | 20km/h | 23557m | 4.4m/s | -49.3°C | 3.5% | 33.2hPa | 2.6V | 00:00:00 | 00:00:00 | 00:00:00 | |
| DM0DOS-11 | 2026-09-03 12:34:42 | 56.31608 | 5.12336 | 121° | 20km/h | 23516m | 5.2m/s | -49.9°C | 3.7% | 33.5hPa | 2.6V | 08:30:00 | 01:45:12 | 00:00:00 | |
| DL1XH-west | 2026-09-03 12:34:34 | 56.31615 | 5.12320 | 130° | 26km/h | 23507m | 4.2m/s | -50°C | 0.6% | 33.5hPa | 2.5V | 18:12:15 | 01:45:10 | 00:00:00 | |
| GOEST3-10 | 2026-09-03 12:34:34 | 56.31615 | 5.12320 | 131° | 26km/h | 23507m | 4.2m/s | -49.9°C | 3.8% | 33.5hPa | 2.6V | 00:00:00 | 00:00:00 | 00:00:00 | |
| DM0DOS-11 | 2026-09-03 12:34:31 | 56.31634 | 5.12238 | 103° | 24km/h | 23467m | 5m/s | -49.8°C | 3.6% | 33.7hPa | 2.6V | 08:30:00 | 01:45:02 | 00:00:00 | |
| BIOWL1-15 | 2026-09-03 12:34:25 | 56.31635 | 5.12228 | 104° | 24km/h | 23462m | 4.5m/s | -49.8°C | 0.5% | 33.7hPa | 2.6V | 18:12:15 | 01:45:01 | 00:00:00 | |
| DL1XH-west | 2026-09-03 12:34:24 | 56.31647 | 5.12158 | 112° | 18km/h | 23425m | 4.7m/s | -49.6°C | 0.5% | 34hPa | 2.5V | 18:12:15 | 01:44:54 | 00:00:00 | |
| GOEST3-10 | 2026-09-03 12:34:24 | 56.31637 | 5.12218 | 105° | 24km/h | 23457m | 6.0m/s | -49.8°C | 3.7% | 33.7hPa | 2.6V | 00:00:00 | 00:00:00 | 00:00:00 | |
| DM0DOS-11 | 2026-09-03 12:34:21 | 56.31650 | 5.12142 | 103° | 18km/h | 23416m | 5.6m/s | -49.6°C | 3.6% | 34hPa | 2.5V | 08:30:00 | 01:44:52 | 00:00:00 | |
| BIOWL1-15 | 2026-09-03 12:34:14 | 56.31652 | 5.12123 | 94° | 22km/h | 23406m | 4.1m/s | -49.7°C | 0.5% | 34hPa | 2.6V | 18:12:15 | 01:44:50 | 00:00:00 | |
| GOEST3-10 | 2026-09-03 12:34:13 | 56.31652 | 5.12114 | 93° | 20km/h | 23401m | 5.4m/s | -49.6°C | 3.6% | 34.0hPa | 2.6V | 00:00:00 | 00:00:00 | 00:00:00 | |
| DM0DOS-11 | 2026-09-03 12:34:11 | 56.31660 | 5.12056 | 104° | 16km/h | 23365m | 3.9m/s | -49.9°C | 3.8% | 34.2hPa | 2.6V | 08:30:00 | 01:44:42 | 00:00:00 | |
| DL1XH-west | 2026-09-03 12:34:08 | 56.31659 | 5.12063 | 109° | 18km/h | 23371m | 5.5m/s | -49.9°C | 0.6% | 34.2hPa | 2.5V | 18:12:15 | 01:44:43 | 00:00:00 | |
| BIOWL1-15 | 2026-09-03 12:34:03 | 56.31663 | 5.12016 | 92° | 16km/h | 23341m | 5.4m/s | -49.9°C | 0.5% | 34.4hPa | 2.5V | 18:12:15 | 01:44:37 | 00:00:00 | |
| DL1XH-west | 2026-09-03 12:33:57 | 56.31667 | 5.11982 | 110° | 18km/h | 23316m | 4.2m/s | -49.7°C | 0.5% | 34.5hPa | 2.5V | 18:12:15 | 01:44:32 | 00:00:00 | |
| BIOWL1-15 | 2026-09-03 12:33:53 | 56.31675 | 5.11950 | 101° | 16km/h | 23291m | 5m/s | -49.7°C | 0.6% | 34.7hPa | 2.5V | 18:12:15 | 01:44:27 | 00:00:00 | |
| GOEST3-10 | 2026-09-03 12:33:52 | 56.31674 | 5.11957 | 110° | 15km/h | 23296m | 5.5m/s | -49.7°C | 3.6% | 34.6hPa | 2.5V | 00:00:00 | 00:00:00 | 08:30:00 | |
| DM0DOS-11 | 2026-09-03 12:33:51 | 56.31674 | 5.11918 | 80° | 13km/h | 23266m | 5.6m/s | -49.7°C | 3.7% | 34.8hPa | 2.5V | 08:30:00 | 01:44:22 | 00:00:00 | |
| DL1XH-west | 2026-09-03 12:33:46 | 56.31673 | 5.11912 | 84° | 15km/h | 23261m | 4.6m/s | -49.8°C | 0.5% | 34.8hPa | 2.5V | 18:12:15 | 01:44:21 | 00:00:00 | |
| BIOWL1-15 | 2026-09-03 12:33:42 | 56.31671 | 5.11883 | 83° | 13km/h | 23236m | 5.6m/s | -49.6°C | 0.5% | 35hPa | 2.6V | 18:12:15 | 01:44:16 | 00:00:00 | |
| DM0DOS-11 | 2026-09-03 12:33:41 | 56.31669 | 5.11863 | 61° | 7km/h | 23215m | 4.6m/s | -49.7°C | 3.6% | 35.1hPa | 2.5V | 08:30:00 | 01:44:12 | 00:00:00 | |
| DL1XH-west | 2026-09-03 12:33:34 | 56.31668 | 5.11857 | 85° | 9km/h | 23206m | 5.7m/s | -49.9°C | 0.5% | 35.1hPa | 2.6V | 18:12:15 | 01:44:10 | 00:00:00 | |
| GOEST3-10 | 2026-09-03 12:33:32 | 56.31668 | 5.11847 | 106° | 15km/h | 23196m | 4.4m/s | -49.8°C | 3.6% | 35.1hPa | 2.5V | 00:00:00 | 00:00:00 | 00:00:00 | |
| DM0DOS-11 | 2026-09-03 12:33:31 | 56.31678 | 5.11813 | 104° | 15km/h | 23164m | 5.6m/s | -49.9°C | 3.6% | 35.3hPa | 2.5V | 08:30:00 | 01:44:02 | 00:00:00 | |
| BIOWL1-15 | 2026-09-03 12:33:29 | 56.31673 | 5.11831 | 124° | 15km/h | 23180m | 4.4m/s | -49.9°C | 0.5% | 35.2hPa | 2.6V | 18:12:15 | 01:44:05 | 00:00:00 | |
| DL1XH-west | 2026-09-03 12:33:24 | 56.31679 | 5.11802 | 92° | 11km/h | 23155m | 3.8m/s | -50°C | 0.4% | 35.4hPa | 2.5V | 18:12:15 | 01:44:00 | 00:00:00 | |
| GOEST3-10 | 2026-09-03 12:33:22 | 56.31679 | 5.11792 | 92° | 15km/h | 23145m | 5.0m/s | -49.9°C | 3.6% | 35.4hPa | 2.6V | 00:00:00 | 00:00:00 | 00:00:00 | |
| DM0DOS-11 | 2026-09-03 12:33:21 | 56.31688 | 5.11753 | 118° | 20km/h | 23115m | 4.6m/s | -50°C | 3.7% | 35.6hPa | 2.5V | 08:30:00 | 01:43:52 | 00:00:00 | |
| BIOWL1-15 | 2026-09-03 12:33:18 | 56.31683 | 5.11767 | 127° | 15km/h | 23125m | 4.4m/s | -50.1°C | 0.6% | 35.6hPa | 2.6V | 18:12:15 | 01:43:54 | 00:00:00 | |
| DL1XH-west | 2026-09-03 12:33:14 | 56.31693 | 5.11737 | 121° | 20km/h | 23104m | 5.9m/s | -49.9°C | 0.5% | 35.7hPa | 2.6V | 18:12:15 | 01:43:50 | 00:00:00 | |
| GOEST3-10 | 2026-09-03 12:33:12 | 56.31697 | 5.11724 | 117° | 20km/h | 23095m | 4.3m/s | -49.9°C | 3.7% | 35.7hPa | 2.6V | 00:00:00 | 00:00:00 | 00:00:00 | |
| DM0DOS-11 | 2026-09-03 12:33:11 | 56.31702 | 5.11673 | 110° | 16km/h | 23065m | 4.3m/s | -50°C | 3.7% | 35.9hPa | 2.6V | 08:30:00 | 01:43:42 | 00:00:00 | |
| DL1XH-west | 2026-09-03 12:33:04 | 56.31707 | 5.11659 | 124° | 20km/h | 23056m | 4.9m/s | -50.1°C | 0.5% | 36hPa | 2.5V | 18:12:15 | 01:43:40 | 00:00:00 | |
| BIOWL1-15 | 2026-09-03 12:32:55 | 56.31735 | 5.11594 | 124° | 18km/h | 23012m | 5m/s | -50.2°C | 0.6% | 36.2hPa | 2.6V | 18:12:15 | 01:43:31 | 00:00:00 | |
| DL1XH-west | 2026-09-03 12:32:54 | 56.31741 | 5.11582 | 142° | 18km/h | 23002m | 4.2m/s | -50.2°C | 0.6% | 36.2hPa | 2.5V | 18:12:15 | 01:43:29 | 00:00:00 | |
| DM0DOS-11 | 2026-09-03 12:32:51 | 56.31762 | 5.11549 | 149° | 13km/h | 22970m | 4m/s | -50.1°C | 3.7% | 36.4hPa | 2.5V | 08:30:00 | 01:43:22 | 00:00:00 | |
| BIOWL1-15 | 2026-09-03 12:32:45 | 56.31780 | 5.11516 | 142° | 22km/h | 22941m | 4m/s | -50.3°C | 0.6% | 36.6hPa | 2.5V | 18:12:15 | 01:43:16 | 00:00:00 | |
| DL1XH-west | 2026-09-03 12:32:43 | 56.31772 | 5.11529 | 129° | 18km/h | 22951m | 4.7m/s | -50.2°C | 0.5% | 36.5hPa | 2.6V | 18:12:15 | 01:43:18 | 00:00:00 | |
| DL1XH-west | 2026-09-03 12:32:32 | 56.31812 | 5.11455 | 132° | 24km/h | 22899m | 4.1m/s | -50.4°C | 0.5% | 36.8hPa | 2.6V | 18:12:15 | 01:43:07 | 00:00:00 | |
| DM0DOS-11 | 2026-09-03 12:32:31 | 56.31836 | 5.11415 | 132° | 27km/h | 22876m | 5.8m/s | -50.6°C | 3.7% | 37hPa | 2.5V | 08:30:00 | 01:43:02 | 00:00:00 | |
| BIOWL1-15 | 2026-09-03 12:32:29 | 56.31821 | 5.11439 | 138° | 26km/h | 22890m | 5.5m/s | -50.5°C | 0.6% | 36.9hPa | 2.6V | 18:12:15 | 01:43:05 | 00:00:00 | |
| DJ2DS-15 | 2026-09-03 12:32:28 | 56.31826 | 5.11432 | 142° | 27km/h | 22886m | 4.6m/s | -50.5°C | 3.7% | 36.9hPa | 2.5V | 00:00:00 | 01:43:04 | 00:00:00 | |
| GOEST3-10 | 2026-09-03 12:32:26 | 56.31836 | 5.11415 | 133° | 27km/h | 22877m | 5.8m/s | -50.5°C | 3.7% | 36.9hPa | 2.5V | 00:00:00 | 01:43:02 | 00:00:00 | |
| DM0DOS-11 | 2026-09-03 12:32:21 | 56.31868 | 5.11306 | 123° | 26km/h | 22827m | 4m/s | -50.8°C | 3.8% | 37.2hPa | 2.5V | 08:30:00 | 01:42:52 | 00:00:00 | |
| DL1XH-west | 2026-09-03 12:32:20 | 56.31856 | 5.11350 | 112° | 29km/h | 22846m | 5.3m/s | -50.7°C | 0.6% | 37.1hPa | 2.6V | 18:12:15 | 01:42:56 | 00:00:00 | |
| BIOWL1-15 | 2026-09-03 12:32:18 | 56.31881 | 5.11263 | 115° | 27km/h | 22807m | 5.5m/s | -50.9°C | 0.6% | 37.3hPa | 2.6V | 18:12:15 | 01:42:48 | 00:00:00 | |
| GOEST3-10 | 2026-09-03 12:32:14 | 56.31875 | 5.11285 | 117° | 27km/h | 22817m | 4.4m/s | -50.8°C | 3.8% | 37.3hPa | 2.5V | 00:00:00 | 01:42:50 | 00:00:00 | |
| DM0DOS-11 | 2026-09-03 12:32:11 | 56.31894 | 5.11193 | 104° | 29km/h | 22778m | 5.3m/s | -51°C | 3.8% | 37.5hPa | 2.5V | 08:30:00 | 01:42:42 | 00:00:00 | |
| DL1XH-west | 2026-09-03 12:32:09 | 56.31889 | 5.11231 | 108° | 26km/h | 22793m | 5.5m/s | -51°C | 0.6% | 37.4hPa | 2.6V | 18:12:15 | 01:42:45 | 00:00:00 | |
| BIOWL1-15 | 2026-09-03 12:32:08 | 56.31892 | 5.11206 | 102° | 29km/h | 22783m | 4.4m/s | -51.1°C | 0.6% | 37.5hPa | 2.5V | 18:12:15 | 01:42:43 | 00:00:00 | |
| DJ2DS-15 | 2026-09-03 12:32:08 | 56.31890 | 5.11219 | 103° | 27km/h | 22788m | 4.6m/s | -50.9°C | 3.8% | 37.4hPa | 2.6V | 00:00:00 | 01:42:44 | 00:00:00 | |
| BIOWL9-15 | 2026-09-03 12:32:05 | 56.31898 | 5.11168 | 104° | 29km/h | 22768m | 5.5m/s | -51.0°C | 1.1% | 37.6hPa | 2.6V | 00:00:00 | 00:00:00 | 00:00:00 | |
| GOEST3-10 | 2026-09-03 12:32:04 | 56.31898 | 5.11168 | 105° | 31km/h | 22768m | 5.5m/s | -51.0°C | 3.8% | 37.5hPa | 2.6V | 00:00:00 | 01:42:40 | 00:00:00 | |
| DM0DOS-11 | 2026-09-03 12:32:01 | 56.31913 | 5.11064 | 101° | 27km/h | 22730m | 4.9m/s | -51.1°C | 3.9% | 37.8hPa | 2.5V | 08:30:00 | 01:42:32 | 00:00:00 | |
| DL1XH-west | 2026-09-03 12:31:59 | 56.31910 | 5.11090 | 102° | 29km/h | 22738m | 4.6m/s | -51.1°C | 0.6% | 37.7hPa | 2.6V | 18:12:15 | 01:42:34 | 00:00:00 | |
| BIOWL1-15 | 2026-09-03 12:31:57 | 56.31913 | 5.11064 | 102° | 27km/h | 22730m | 4.9m/s | -51.1°C | 0.7% | 37.8hPa | 2.5V | 18:12:15 | 01:42:32 | 00:00:00 | |
| GOEST3-10 | 2026-09-03 12:31:54 | 56.31916 | 5.11042 | 109° | 22km/h | 22720m | 4.2m/s | -51.1°C | 3.9% | 37.8hPa | 2.6V | 00:00:00 | 01:42:30 | 00:00:00 | |
| DM0DOS-11 | 2026-09-03 12:31:51 | 56.31924 | 5.10973 | 96° | 15km/h | 22683m | 4.9m/s | -51.3°C | 3.9% | 38.1hPa | 2.6V | 08:30:00 | 01:42:22 | 00:00:00 | |
| DL1XH-west | 2026-09-03 12:31:48 | 56.31923 | 5.10979 | 101° | 13km/h | 22688m | 4.1m/s | -51.2°C | 0.6% | 38.1hPa | 2.6V | 18:12:15 | 01:42:23 | 00:00:00 | |
| BIOWL1-15 | 2026-09-03 12:31:47 | 56.31925 | 5.10916 | 105° | 18km/h | 22651m | 5.1m/s | -51.5°C | 0.6% | 38.3hPa | 2.6V | 18:12:15 | 01:42:15 | 00:00:00 | |
| GOEST3-10 | 2026-09-03 12:31:44 | 56.31924 | 5.10958 | 88° | 18km/h | 22674m | 3.5m/s | -51.3°C | 3.9% | 38.1hPa | 2.5V | 00:00:00 | 01:42:20 | 00:00:00 | |
| DM0DOS-11 | 2026-09-03 12:31:41 | 56.31931 | 5.10895 | 123° | 15km/h | 22637m | 5m/s | -51.5°C | 3.9% | 38.4hPa | 2.5V | 08:30:00 | 01:42:12 | 00:00:00 | |
| DL1XH-west | 2026-09-03 12:31:37 | 56.31931 | 5.10895 | 124° | 15km/h | 22637m | 5m/s | -51.5°C | 0.7% | 38.4hPa | 2.5V | 18:12:15 | 01:42:12 | 00:00:00 | |
| BIOWL1-15 | 2026-09-03 12:31:33 | 56.31938 | 5.10878 | 124° | 16km/h | 22622m | 3.9m/s | -51.5°C | 0.7% | 38.5hPa | 2.6V | 18:12:15 | 01:42:09 | 00:00:00 | |
| BIOWL9-15 | 2026-09-03 12:31:33 | 56.31938 | 5.10878 | 123° | 15km/h | 22622m | 3.9m/s | -51.5°C | 1.1% | 38.5hPa | 2.5V | 00:00:00 | 00:00:00 | 00:00:00 | |
| DJ2DS-15 | 2026-09-03 12:31:30 | 56.31943 | 5.10862 | 113° | 11km/h | 22609m | 3.9m/s | -51.5°C | 1.1% | 38.5hPa | 2.5V | 00:00:00 | 00:00:00 | 00:00:00 | |
| GOEST3-10 | 2026-09-03 12:31:29 | 56.31944 | 5.10856 | 114° | 16km/h | 22604m | 4.3m/s | -51.5°C | 4.0% | 38.5hPa | 2.5V | 00:00:00 | 00:00:00 | 00:00:00 | |
| DJ2DS-15 | 2026-09-03 12:31:28 | 56.31946 | 5.10850 | 114° | 16km/h | 22600m | 5.2m/s | -51.5°C | 4.0% | 38.5hPa | 2.5V | 00:00:00 | 01:42:04 | 00:00:00 | |
| DM0DOS-11 | 2026-09-03 12:31:27 | 56.31950 | 5.10835 | 117° | 18km/h | 22590m | 5m/s | -51.5°C | 4% | 38.6hPa | 2.5V | 08:30:00 | 01:42:02 | 00:00:00 | |
| BIOWL1-15 | 2026-09-03 12:31:27 | 56.31973 | 5.10773 | 129° | 15km/h | 22549m | 4.8m/s | 0°C | 0% | 38.9hPa | 2.6V | 18:12:15 | 01:41:53 | 00:00:00 | |
| DL1XH-west | 2026-09-03 12:31:25 | 56.31956 | 5.10816 | 124° | 18km/h | 22577m | 5.4m/s | -51.5°C | 0.6% | 38.7hPa | 2.6V | 18:12:15 | 01:41:59 | 00:00:00 | |
| GOEST3-10 | 2026-09-03 12:31:24 | 56.31954 | 5.10823 | 123° | 20km/h | 22581m | 3.3m/s | -51.4°C | 3.9% | 38.7hPa | 2.6V | 00:00:00 | 01:42:00 | 00:00:00 | |
| DM0DOS-11 | 2026-09-03 12:31:22 | 56.31975 | 5.10768 | 123° | 16km/h | 22544m | 5.4m/s | -51.6°C | 4% | 38.9hPa | 2.6V | 08:30:00 | 01:41:52 | 00:00:00 | |
| DL1XH-west | 2026-09-03 12:31:15 | 56.31978 | 5.10755 | 109° | 15km/h | 22536m | 3.5m/s | -51.6°C | 0.8% | 39hPa | 2.5V | 18:12:15 | 01:41:50 | 00:00:00 | |
| GOEST3-10 | 2026-09-03 12:31:14 | 56.31978 | 5.10755 | 109° | 13km/h | 22536m | 3.4m/s | -51.6°C | 4.0% | 38.9hPa | 2.5V | 00:00:00 | 01:41:50 | 00:00:00 | |
| DM0DOS-11 | 2026-09-03 12:31:11 | 56.31983 | 5.10698 | 100° | 22km/h | 22499m | 4.2m/s | -51.5°C | 3.9% | 39.2hPa | 2.5V | 08:30:00 | 01:41:42 | 00:00:00 | |
| BIOWL1-15 | 2026-09-03 12:31:08 | 56.31982 | 5.10708 | 100° | 24km/h | 22504m | 4.9m/s | 0°C | 0% | 0hPa | 2.5V | 18:12:15 | 01:41:43 | 00:00:00 | |
| DL1XH-west | 2026-09-03 12:31:03 | 56.31984 | 5.10673 | 86° | 18km/h | 22486m | 5.2m/s | -51.6°C | 0.7% | 39.2hPa | 2.6V | 18:12:15 | 01:41:39 | 00:00:00 | |
| BIOWL9-15 | 2026-09-03 12:31:02 | 56.31984 | 5.10665 | 82° | 16km/h | 22482m | 4.6m/s | -51.6°C | 1.1% | 39.3hPa | 2.5V | 00:00:00 | 00:00:00 | 00:00:00 | |
| DM0DOS-11 | 2026-09-03 12:31:01 | 56.31987 | 5.10629 | 107° | 18km/h | 22454m | 4m/s | -51.8°C | 4% | 39.4hPa | 2.5V | 08:30:00 | 01:41:32 | 00:00:00 | |
| BIOWL1-15 | 2026-09-03 12:30:58 | 56.31984 | 5.10643 | 111° | 13km/h | 22463m | 4.9m/s | 0°C | 0% | 0hPa | 2.6V | 18:12:15 | 01:41:34 | 00:00:00 | |
| DL1XH-west | 2026-09-03 12:30:52 | 56.31994 | 5.10595 | 111° | 24km/h | 22434m | 5.5m/s | -51.8°C | 0.7% | 39.6hPa | 2.6V | 18:12:15 | 01:41:28 | 00:00:00 | |
| DM0DOS-11 | 2026-09-03 12:30:50 | 56.32011 | 5.10534 | 120° | 22km/h | 22400m | 4.3m/s | -51.9°C | 4.1% | 39.8hPa | 2.5V | 08:30:00 | 01:41:21 | 00:00:00 | |
| BIOWL1-15 | 2026-09-03 12:30:48 | 56.32006 | 5.10551 | 122° | 20km/h | 22410m | 5.6m/s | 0°C | 0% | 0hPa | 2.6V | 18:12:15 | 01:41:23 | 00:00:00 | |
| DL1XH-west | 2026-09-03 12:30:42 | 56.32018 | 5.10509 | 105° | 22km/h | 22386m | 4.6m/s | -51.9°C | 0.8% | 39.9hPa | 2.6V | 18:12:15 | 01:41:18 | 00:00:00 | |
| DL1XH-west | 2026-09-03 12:30:32 | 56.32034 | 5.10386 | 115° | 24km/h | 22333m | 4.2m/s | -51.8°C | 0.8% | 40.2hPa | 2.5V | 18:12:15 | 01:41:07 | 00:00:00 | |
| BIOWL9-15 | 2026-09-03 12:30:31 | 56.32034 | 5.10386 | 114° | 22km/h | 22333m | 4.2m/s | -51.8°C | 1.2% | 40.2hPa | 2.5V | 00:00:00 | 00:00:00 | 00:00:00 | |
| DM0DOS-11 | 2026-09-03 12:30:30 | 56.32045 | 5.10316 | 92° | 26km/h | 22305m | 5.1m/s | -51.6°C | 4% | 40.4hPa | 2.5V | 08:30:00 | 01:41:01 | 00:00:00 | |
| GOEST3-10 | 2026-09-03 12:30:29 | 56.32039 | 5.10364 | 110° | 27km/h | 22324m | 4.2m/s | -51.8°C | 4.1% | 40.2hPa | 2.6V | 00:00:00 | 00:00:00 | 00:00:00 | |
| DJ2DS-15 | 2026-09-03 12:30:28 | 56.32042 | 5.10351 | 105° | 20km/h | 22319m | 4.7m/s | -51.7°C | 4.0% | 40.2hPa | 2.6V | 00:00:00 | 01:41:04 | 00:00:00 | |
| BIOWL1-15 | 2026-09-03 12:30:26 | 56.32066 | 5.10168 | 112° | 16km/h | 22216m | 4.1m/s | 0°C | 0% | 0hPa | 2.6V | 18:12:15 | 01:40:43 | 00:00:00 | |
| DL1XH-west | 2026-09-03 12:30:21 | 56.32049 | 5.10261 | 107° | 16km/h | 22275m | 5.4m/s | -51.3°C | 0.7% | 40.6hPa | 2.5V | 18:12:15 | 01:40:55 | 00:00:00 | |
| BIOWL1-15 | 2026-09-03 12:30:18 | 56.32068 | 5.10160 | 110° | 18km/h | 22211m | 4.3m/s | 0°C | 0% | 0hPa | 2.6V | 18:12:15 | 01:40:42 | 00:00:00 | |
| DM0DOS-11 | 2026-09-03 12:30:18 | 56.32054 | 5.10229 | 108° | 18km/h | 22256m | 4.8m/s | -51.2°C | 3.9% | 40.7hPa | 2.5V | 08:30:00 | 01:40:51 | 00:00:00 | |
| GOEST3-10 | 2026-09-03 12:30:13 | 56.32058 | 5.10211 | 109° | 18km/h | 22246m | 4.6m/s | -51.1°C | 3.9% | 40.7hPa | 2.6V | 00:00:00 | 01:40:49 | 00:00:00 | |
| DM0DOS-11 | 2026-09-03 12:30:10 | 56.32069 | 5.10153 | 108° | 16km/h | 22206m | 5.8m/s | -50.9°C | 3.8% | 41hPa | 2.6V | 08:30:00 | 01:40:41 | 00:00:00 | |
| DL1XH-west | 2026-09-03 12:30:08 | 56.32065 | 5.10174 | 111° | 15km/h | 22221m | 5.5m/s | -50.9°C | 0.6% | 40.9hPa | 2.5V | 18:12:15 | 01:40:44 | 00:00:00 | |
| BIOWL1-15 | 2026-09-03 12:30:00 | 56.32077 | 5.10118 | 118° | 15km/h | 22180m | 6m/s | 0°C | 0% | 0hPa | 2.6V | 18:12:15 | 01:40:36 | 00:00:00 | |
| DL1XH-west | 2026-09-03 12:29:58 | 56.32083 | 5.10103 | 126° | 15km/h | 22165m | 4.9m/s | -50.9°C | 0.7% | 41.3hPa | 2.5V | 18:12:15 | 01:40:33 | 00:00:00 | |
| DM0DOS-11 | 2026-09-03 12:29:58 | 56.32087 | 5.10093 | 126° | 11km/h | 22155m | 5.7m/s | -51°C | 3.8% | 41.3hPa | 2.6V | 08:30:00 | 01:40:31 | 00:00:00 | |
| BIOWL1-15 | 2026-09-03 12:29:48 | 56.32101 | 5.10069 | 155° | 13km/h | 22120m | 4.1m/s | 0°C | 0% | 0hPa | 2.6V | 18:12:15 | 01:40:24 | 00:00:00 | |
| DJ2DS-15 | 2026-09-03 12:29:48 | 56.32101 | 5.10069 | 155° | 22km/h | 22120m | 4.0m/s | -50.9°C | 3.8% | 41.5hPa | 2.5V | 00:00:00 | 01:40:24 | 00:00:00 | |
| DM0DOS-11 | 2026-09-03 12:29:47 | 56.32111 | 5.10055 | 131° | 20km/h | 22105m | 4.7m/s | -51°C | 3.8% | 41.7hPa | 2.5V | 08:30:00 | 01:40:21 | 00:00:00 | |
| DL1XH-west | 2026-09-03 12:29:47 | 56.32108 | 5.10061 | 141° | 18km/h | 22110m | 5.6m/s | -51°C | 0.6% | 41.6hPa | 2.5V | 18:12:15 | 01:40:22 | 00:00:00 | |
| BIOWL1-15 | 2026-09-03 12:29:37 | 56.32137 | 5.09993 | 137° | 20km/h | 22065m | 4.3m/s | 0°C | 0% | 0hPa | 2.6V | 18:12:15 | 01:40:13 | 00:00:00 | |
| DM0DOS-11 | 2026-09-03 12:29:37 | 56.32145 | 5.09980 | 136° | 22km/h | 22056m | 5.7m/s | -51.3°C | 4% | 42hPa | 2.6V | 08:30:00 | 01:40:11 | 00:00:00 | |
| DL1XH-west | 2026-09-03 12:29:36 | 56.32145 | 5.09980 | 137° | 22km/h | 22056m | 5.7m/s | -51.3°C | 0.7% | 42hPa | 2.6V | 18:12:15 | 01:40:11 | 00:00:00 | |
| GOEST3-10 | 2026-09-03 12:29:33 | 56.32152 | 5.09964 | 120° | 24km/h | 22046m | 3.9m/s | -51.2°C | 4.0% | 42.0hPa | 2.5V | 00:00:00 | 01:40:09 | 00:00:00 | |
| GOEST3-10 | 2026-09-03 12:29:28 | 56.32165 | 5.09916 | 115° | 29km/h | 22021m | 5.3m/s | -51.2°C | 3.9% | 42.2hPa | 2.6V | 00:00:00 | 00:00:00 | 00:00:00 | |
| DM0DOS-11 | 2026-09-03 12:29:26 | 56.32175 | 5.09880 | 117° | 27km/h | 22005m | 4.6m/s | -51.1°C | 3.9% | 42.3hPa | 2.6V | 08:30:00 | 01:40:01 | 00:00:00 | |
| DL1XH-west | 2026-09-03 12:29:24 | 56.32178 | 5.09869 | 115° | 27km/h | 22001m | 3.7m/s | -51.1°C | 0.7% | 42.3hPa | 2.6V | 18:12:15 | 01:40:00 | 00:00:00 | |
| GOEST3-10 | 2026-09-03 12:29:23 | 56.32180 | 5.09858 | 115° | 27km/h | 21997m | 5.1m/s | -51.1°C | 3.9% | 42.3hPa | 2.6V | 00:00:00 | 01:39:59 | 00:00:00 | |
| DM0DOS-11 | 2026-09-03 12:29:21 | 56.32195 | 5.09743 | 93° | 31km/h | 21951m | 4.6m/s | -51°C | 3.9% | 42.6hPa | 2.6V | 08:30:00 | 01:39:50 | 00:00:00 | |
| DL1XH-west | 2026-09-03 12:29:14 | 56.32196 | 5.09728 | 93° | 33km/h | 21946m | 5.8m/s | -51.1°C | 0.7% | 42.7hPa | 2.6V | 18:12:15 | 01:39:49 | 00:00:00 | |
| GOEST3-10 | 2026-09-03 12:29:13 | 56.32196 | 5.09728 | 94° | 35km/h | 21946m | 5.7m/s | -51.0°C | 3.9% | 42.6hPa | 2.5V | 00:00:00 | 01:39:49 | 00:00:00 | |
| DM0DOS-11 | 2026-09-03 12:29:09 | 56.32211 | 5.09588 | 96° | 33km/h | 21901m | 5.6m/s | -50.9°C | 3.8% | 43hPa | 2.5V | 08:30:00 | 01:39:40 | 00:00:00 | |
| DJ2DS-15 | 2026-09-03 12:29:08 | 56.32203 | 5.09650 | 107° | 33km/h | 21921m | 4.1m/s | -50.9°C | 3.8% | 42.8hPa | 2.6V | 00:00:00 | 01:39:44 | 00:00:00 | |
| GOEST3-10 | 2026-09-03 12:29:03 | 56.32212 | 5.09574 | 94° | 31km/h | 21897m | 4.2m/s | -50.8°C | 3.8% | 43.0hPa | 2.6V | 00:00:00 | 01:39:39 | 00:00:00 | |
| DL1XH-west | 2026-09-03 12:29:03 | 56.32212 | 5.09574 | 94° | 31km/h | 21896m | 4.2m/s | -50.8°C | 0.6% | 43hPa | 2.6V | 18:12:15 | 01:39:39 | 00:00:00 | |
| GOEST3-10 | 2026-09-03 12:28:58 | 56.32215 | 5.09504 | 101° | 29km/h | 21871m | 5.1m/s | -51.0°C | 3.9% | 43.1hPa | 2.6V | 00:00:00 | 00:00:00 | 00:00:00 | |
| DM0DOS-11 | 2026-09-03 12:28:54 | 56.32224 | 5.09424 | 98° | 31km/h | 21840m | 4.8m/s | -51.3°C | 4% | 43.4hPa | 2.6V | 08:30:00 | 01:39:28 | 00:00:00 | |
| DL1XH-west | 2026-09-03 12:28:53 | 56.32222 | 5.09438 | 100° | 31km/h | 21845m | 5m/s | -51.2°C | 0.7% | 43.4hPa | 2.6V | 18:12:15 | 01:39:29 | 00:00:00 | |
| DJ2DS-15 | 2026-09-03 12:28:48 | 56.32225 | 5.09364 | 91° | 26km/h | 21821m | 5.7m/s | -51.1°C | 3.9% | 43.5hPa | 2.6V | 00:00:00 | 01:39:24 | 00:00:00 | |
| DM0DOS-11 | 2026-09-03 12:28:47 | 56.32226 | 5.09284 | 92° | 27km/h | 21790m | 5.9m/s | -51.2°C | 4% | 43.7hPa | 2.6V | 08:30:00 | 01:39:18 | 00:00:00 | |
| DL1XH-west | 2026-09-03 12:28:43 | 56.32226 | 5.09297 | 91° | 29km/h | 21796m | 4.6m/s | -51.2°C | 0.7% | 43.7hPa | 2.6V | 18:12:15 | 01:39:19 | 00:00:00 | |
| GOEST3-10 | 2026-09-03 12:28:38 | 56.32227 | 5.09236 | 93° | 26km/h | 21770m | 4.4m/s | -51.1°C | 3.9% | 43.8hPa | 2.6V | 00:00:00 | 00:00:00 | 00:00:00 | |
| DM0DOS-11 | 2026-09-03 12:28:34 | 56.32230 | 5.09166 | 95° | 24km/h | 21740m | 4.3m/s | -51°C | 3.9% | 44.1hPa | 2.6V | 08:30:00 | 01:39:08 | 00:00:00 | |
| DL1XH-west | 2026-09-03 12:28:32 | 56.32230 | 5.09166 | 95° | 24km/h | 21740m | 4.3m/s | -51°C | 0.7% | 44.1hPa | 2.6V | 18:12:15 | 01:39:08 | 00:00:00 | |
| DJ2DS-15 | 2026-09-03 12:28:30 | 56.32232 | 5.09139 | 102° | 16km/h | 21725m | 4.7m/s | -50.8°C | 1.1% | 44.2hPa | 2.5V | 00:00:00 | 00:00:00 | 00:00:00 | |
| DM0DOS-11 | 2026-09-03 12:28:28 | 56.32241 | 5.09086 | 101° | 16km/h | 21688m | 5.1m/s | -50.8°C | 3.9% | 44.4hPa | 2.5V | 08:30:00 | 01:38:58 | 00:00:00 | |
| DL1XH-west | 2026-09-03 12:28:22 | 56.32241 | 5.09086 | 101° | 16km/h | 21688m | 5.1m/s | -50.8°C | 0.6% | 44.5hPa | 2.5V | 18:12:15 | 01:38:58 | 00:00:00 | |
| GOEST3-10 | 2026-09-03 12:28:18 | 56.32243 | 5.09058 | 97° | 16km/h | 21669m | 5.0m/s | -50.5°C | 3.8% | 44.5hPa | 2.5V | 00:00:00 | 00:00:00 | 00:00:00 | |
| DM0DOS-11 | 2026-09-03 12:28:14 | 56.32248 | 5.09017 | 122° | 16km/h | 21638m | 5.4m/s | -50.5°C | 3.9% | 44.8hPa | 2.5V | 08:30:00 | 01:38:48 | 00:00:00 | |
| DL1XH-west | 2026-09-03 12:28:12 | 56.32250 | 5.09011 | 125° | 16km/h | 21633m | 4.4m/s | -50.4°C | 0.6% | 44.9hPa | 2.5V | 18:12:15 | 01:38:47 | 00:00:00 | |
| DJ2DS-15 | 2026-09-03 12:28:08 | 56.32258 | 5.08996 | 138° | 20km/h | 21618m | 3.8m/s | -50.3°C | 3.8% | 44.9hPa | 2.6V | 00:00:00 | 01:38:44 | 00:00:00 | |
| DM0DOS-11 | 2026-09-03 12:28:07 | 56.32269 | 5.08945 | 107° | 22km/h | 21583m | 5.8m/s | -50.6°C | 3.8% | 45.2hPa | 2.5V | 08:30:00 | 01:38:37 | 00:00:00 | |
| DL1XH-west | 2026-09-03 12:28:02 | 56.32271 | 5.08936 | 114° | 22km/h | 21578m | 4.3m/s | -50.4°C | 0.6% | 45.2hPa | 2.5V | 18:12:15 | 01:38:36 | 00:00:00 | |
| BIOWL9-15 | 2026-09-03 12:27:56 | 56.32285 | 5.08911 | 149° | 22km/h | 21558m | 5.7m/s | -50.5°C | 1.1% | 45.4hPa | 2.6V | 00:00:00 | 00:00:00 | 00:00:00 | |
| DM0DOS-11 | 2026-09-03 12:27:54 | 56.32304 | 5.08890 | 141° | 20km/h | 21537m | 4.6m/s | -50.4°C | 3.8% | 45.5hPa | 2.6V | 08:30:00 | 01:38:28 | 00:00:00 | |
| DL1XH-west | 2026-09-03 12:27:49 | 56.32315 | 5.08865 | 120° | 27km/h | 21522m | 4.3m/s | -50.3°C | 0.6% | 45.6hPa | 2.6V | 18:12:15 | 01:38:25 | 00:00:00 | |
| DJ2DS-15 | 2026-09-03 12:27:48 | 56.32318 | 5.08854 | 118° | 29km/h | 21517m | 5.6m/s | -50.2°C | 3.8% | 45.6hPa | 2.6V | 00:00:00 | 01:38:24 | 00:00:00 | |
| DM0DOS-11 | 2026-09-03 12:27:47 | 56.32345 | 5.08786 | 138° | 24km/h | 21481m | 4.4m/s | -50.2°C | 3.7% | 45.9hPa | 2.6V | 08:30:00 | 01:38:17 | 00:00:00 | |
| DL1XH-west | 2026-09-03 12:27:38 | 56.32358 | 5.08759 | 121° | 27km/h | 21465m | 5m/s | -50.3°C | 0.5% | 46hPa | 2.5V | 18:12:15 | 01:38:14 | 00:00:00 | |
| GOEST3-10 | 2026-09-03 12:27:37 | 56.32361 | 5.08748 | 116° | 31km/h | 21460m | 5.3m/s | 0°C | 0% | 0hPa | 2.6V | 00:00:00 | 00:00:00 | 00:00:00 | |
| DM0DOS-11 | 2026-09-03 12:27:36 | 56.32378 | 5.08668 | 111° | 33km/h | 21430m | 3.9m/s | -50.2°C | 3.7% | 46.2hPa | 2.6V | 08:30:00 | 01:38:07 | 00:00:00 | |
| DL1XH-west | 2026-09-03 12:27:27 | 56.32394 | 5.08607 | 119° | 38km/h | 21410m | 3.9m/s | -50.3°C | 0.6% | 46.4hPa | 2.5V | 18:12:15 | 01:38:03 | 00:00:00 | |
| DL1XH-west | 2026-09-03 12:27:16 | 56.32418 | 5.08439 | 106° | 40km/h | 21356m | 4.5m/s | -50.4°C | 0.6% | 46.8hPa | 2.5V | 18:12:15 | 01:37:52 | 00:00:00 | |
| DL1XH-west | 2026-09-03 12:27:06 | 56.32426 | 5.08257 | 78° | 42km/h | 21304m | 5.1m/s | -50.3°C | 0.6% | 47.1hPa | 2.6V | 18:12:15 | 01:37:41 | 00:00:00 | |
| DL1XH-west | 2026-09-03 12:26:55 | 56.32414 | 5.08062 | 79° | 35km/h | 21255m | 4.8m/s | -50.5°C | 0.6% | 47.5hPa | 2.5V | 18:12:15 | 01:37:31 | 00:00:00 | |
| DM0DOS-11 | 2026-09-03 12:26:52 | 56.32407 | 5.08000 | 83° | 37km/h | 21236m | 5.4m/s | -50.6°C | 3.8% | 47.7hPa | 2.5V | 08:30:00 | 01:37:27 | 00:00:00 | |
| DL1XH-west | 2026-09-03 12:26:45 | 56.32411 | 5.07892 | 93° | 40km/h | 21207m | 3.9m/s | -50.6°C | 0.6% | 47.9hPa | 2.5V | 18:12:15 | 01:37:21 | 00:00:00 | |
| DL1XH-west | 2026-09-03 12:26:35 | 56.32382 | 5.07686 | 86° | 37km/h | 21150m | 4.7m/s | -50.7°C | 0.5% | 48.3hPa | 2.6V | 18:12:15 | 01:37:09 | 00:00:00 | |
| DM0DOS-11 | 2026-09-03 12:26:31 | 56.32380 | 5.07634 | 79° | 38km/h | 21136m | 3.7m/s | -50.7°C | 3.7% | 48.4hPa | 2.5V | 08:30:00 | 01:37:06 | 00:00:00 | |
| DL1XH-west | 2026-09-03 12:26:24 | 56.32361 | 5.07541 | 70° | 38km/h | 21110m | 3.4m/s | -51°C | 0.6% | 48.6hPa | 2.5V | 18:12:15 | 01:37:00 | 00:00:00 | |
| DM0DOS-11 | 2026-09-03 12:26:21 | 56.32351 | 5.07475 | 77° | 38km/h | 21091m | 5.5m/s | -51.2°C | 3.9% | 48.7hPa | 2.5V | 08:30:00 | 01:36:56 | 00:00:00 | |
| DL1XH-west | 2026-09-03 12:26:13 | 56.32325 | 5.07363 | 55° | 42km/h | 21059m | 3.2m/s | -51.4°C | 0.7% | 49hPa | 2.5V | 18:12:15 | 01:36:49 | 00:00:00 | |
| DM0DOS-11 | 2026-09-03 12:26:11 | 56.32309 | 5.07321 | 59° | 33km/h | 21045m | 3.5m/s | -51.4°C | 3.9% | 49.1hPa | 2.5V | 08:30:00 | 01:36:46 | 00:00:00 | |
| DL1XH-west | 2026-09-03 12:26:02 | 56.32284 | 5.07203 | 75° | 38km/h | 21008m | 3.9m/s | -51.5°C | 0.7% | 49.4hPa | 2.6V | 18:12:15 | 01:36:38 | 00:00:00 | |
| DM0DOS-11 | 2026-09-03 12:26:01 | 56.32279 | 5.07171 | 73° | 35km/h | 20999m | 4.5m/s | -51.4°C | 3.9% | 49.5hPa | 2.6V | 08:30:00 | 01:36:36 | 00:00:00 | |
| DL1XH-west | 2026-09-03 12:25:52 | 56.32263 | 5.07017 | 75° | 38km/h | 20954m | 4.6m/s | -51.5°C | 0.7% | 49.8hPa | 2.6V | 18:12:15 | 01:36:26 | 00:00:00 | |
| DM0DOS-11 | 2026-09-03 12:25:51 | 56.32264 | 5.07017 | 74° | 38km/h | 20954m | 4.6m/s | -51.5°C | 4% | 49.8hPa | 2.6V | 08:30:00 | 01:36:26 | 00:00:00 | |
| GOEST3-10 | 2026-09-03 12:25:50 | 56.32263 | 5.07017 | 75° | 35km/h | 20954m | 4.6m/s | 0°C | 0% | 0hPa | 2.6V | 00:00:00 | 01:36:26 | 00:00:00 | |
| DJ2DS-15 | 2026-09-03 12:25:48 | 56.32258 | 5.06987 | 72° | 31km/h | 20945m | 4.3m/s | -51.4°C | 3.9% | 49.8hPa | 2.6V | 00:00:00 | 01:36:24 | 00:00:00 | |
| GOEST3-10 | 2026-09-03 12:25:44 | 56.32249 | 5.06927 | 78° | 33km/h | 20926m | 4.3m/s | 0°C | 0% | 0hPa | 2.6V | 00:00:00 | 00:00:00 | 00:00:00 | |
| DM0DOS-11 | 2026-09-03 12:25:42 | 56.32242 | 5.06870 | 76° | 33km/h | 20907m | 5.2m/s | -51.6°C | 3.9% | 50.1hPa | 2.6V | 08:30:00 | 01:36:16 | 00:00:00 | |
| DL1XH-west | 2026-09-03 12:25:40 | 56.32240 | 5.06855 | 74° | 35km/h | 20903m | 4.2m/s | -51.7°C | 0.8% | 50.2hPa | 2.6V | 18:12:15 | 01:36:15 | 00:00:00 | |
| GOEST3-10 | 2026-09-03 12:25:35 | 56.32227 | 5.06803 | 60° | 29km/h | 20884m | 5.4m/s | 0°C | 0% | 0hPa | 2.6V | 00:00:00 | 01:36:11 | 00:00:00 | |
| DM0DOS-11 | 2026-09-03 12:25:31 | 56.32207 | 5.06746 | 66° | 26km/h | 20861m | 4.2m/s | -51.6°C | 4% | 50.5hPa | 2.6V | 08:30:00 | 01:36:06 | 00:00:00 | |
| DL1XH-west | 2026-09-03 12:25:29 | 56.32203 | 5.06722 | 75° | 29km/h | 20852m | 4.1m/s | -51.7°C | 0.7% | 50.6hPa | 2.5V | 18:12:15 | 01:36:04 | 00:00:00 | |
| GOEST3-10 | 2026-09-03 12:25:29 | 56.32205 | 5.06735 | 72° | 27km/h | 20857m | 4.9m/s | 0°C | 0% | 0hPa | 2.6V | 00:00:00 | 00:00:00 | 00:00:00 | |
| DJ2DS-15 | 2026-09-03 12:25:28 | 56.32203 | 5.06722 | 76° | 26km/h | 20852m | 4.1m/s | -51.6°C | 4.0% | 50.5hPa | 2.6V | 00:00:00 | 01:36:04 | 00:00:00 | |
| DM0DOS-11 | 2026-09-03 12:25:25 | 56.32193 | 5.06619 | 72° | 22km/h | 20809m | 4m/s | -51.8°C | 4.1% | 50.9hPa | 2.6V | 08:30:00 | 01:35:55 | 00:00:00 | |
| DL1XH-west | 2026-09-03 12:25:18 | 56.32191 | 5.06609 | 72° | 24km/h | 20805m | 5.4m/s | -51.6°C | 0.8% | 51hPa | 2.6V | 18:12:15 | 01:35:54 | 00:00:00 | |
| GOEST3-10 | 2026-09-03 12:25:14 | 56.32186 | 5.06567 | 88° | 27km/h | 20787m | 4.1m/s | 0°C | 0% | 0hPa | 2.6V | 00:00:00 | 01:35:50 | 00:00:00 | |
| DM0DOS-11 | 2026-09-03 12:25:11 | 56.32190 | 5.06506 | 99° | 26km/h | 20763m | 3.8m/s | -51.5°C | 3.9% | 51.3hPa | 2.6V | 08:30:00 | 01:35:45 | 00:00:00 | |
| DL1XH-west | 2026-09-03 12:25:08 | 56.32191 | 5.06494 | 97° | 27km/h | 20758m | 5.3m/s | -51.6°C | 0.7% | 51.3hPa | 2.6V | 18:12:15 | 01:35:44 | 00:00:00 | |
| DJ2DS-15 | 2026-09-03 12:25:08 | 56.32191 | 5.06494 | 98° | 26km/h | 20759m | 5.3m/s | -51.6°C | 3.9% | 51.3hPa | 2.6V | 00:00:00 | 01:35:44 | 00:00:00 | |
| DM0DOS-11 | 2026-09-03 12:25:01 | 56.32200 | 5.06407 | 113° | 26km/h | 20717m | 4.8m/s | -51.7°C | 3.9% | 51.6hPa | 2.6V | 08:30:00 | 01:35:35 | 00:00:00 | |
| DL1XH-west | 2026-09-03 12:24:58 | 56.32206 | 5.06387 | 124° | 27km/h | 20707m | 4.7m/s | -51.7°C | 0.7% | 51.7hPa | 2.6V | 18:12:15 | 01:35:33 | 00:00:00 | |
| GOEST3-10 | 2026-09-03 12:24:56 | 56.32210 | 5.06375 | 122° | 27km/h | 20702m | 5.4m/s | 0°C | 0% | 0hPa | 2.5V | 00:00:00 | 00:00:00 | 00:00:00 | |
| DM0DOS-11 | 2026-09-03 12:24:53 | 56.32233 | 5.06300 | 106° | 26km/h | 20669m | 3.9m/s | -51.7°C | 3.9% | 52hPa | 2.5V | 08:30:00 | 01:35:25 | 00:00:00 | |
| DL1XH-west | 2026-09-03 12:24:47 | 56.32236 | 5.06278 | 105° | 24km/h | 20660m | 5.2m/s | -51.7°C | 0.8% | 52.1hPa | 2.6V | 18:12:15 | 01:35:23 | 00:00:00 | |
| GOEST3-10 | 2026-09-03 12:24:45 | 56.32239 | 5.06256 | 100° | 26km/h | 20652m | 4.2m/s | 0°C | 0% | 0hPa | 2.5V | 00:00:00 | 00:00:00 | 00:00:00 | |
| DM0DOS-11 | 2026-09-03 12:24:43 | 56.32244 | 5.06179 | 98° | 31km/h | 20622m | 5m/s | -52°C | 4% | 52.4hPa | 2.5V | 08:30:00 | 01:35:15 | 00:00:00 | |
| BIOWL1-15 | 2026-09-03 12:24:40 | 56.32252 | 5.06116 | 100° | 27km/h | 20598m | 5.1m/s | -52.2°C | 0.7% | 52.6hPa | 2.5V | 18:12:15 | 01:35:10 | 00:00:00 | |
| DL1XH-west | 2026-09-03 12:24:37 | 56.32247 | 5.06152 | 105° | 29km/h | 20612m | 5.4m/s | -52.2°C | 0.8% | 52.5hPa | 2.6V | 18:12:15 | 01:35:13 | 00:00:00 | |
| DM0DOS-11 | 2026-09-03 12:24:33 | 56.32253 | 5.06062 | 90° | 20km/h | 20575m | 4.2m/s | -52.2°C | 4.1% | 52.8hPa | 2.5V | 08:30:00 | 01:35:05 | 00:00:00 | |
| DL1XH-west | 2026-09-03 12:24:27 | 56.32253 | 5.06042 | 89° | 24km/h | 20565m | 4.5m/s | -52.2°C | 0.8% | 52.9hPa | 2.6V | 18:12:15 | 01:35:03 | 00:00:00 | |
| GOEST3-10 | 2026-09-03 12:24:25 | 56.32254 | 5.06021 | 98° | 22km/h | 20555m | 4.0m/s | 0°C | 0% | 0hPa | 2.5V | 00:00:00 | 00:00:00 | 00:00:00 | |
| DM0DOS-11 | 2026-09-03 12:24:23 | 56.32258 | 5.05964 | 102° | 18km/h | 20526m | 4.2m/s | -52.1°C | 4% | 53.2hPa | 2.5V | 08:30:00 | 01:34:55 | 00:00:00 | |
| BIOWL1-15 | 2026-09-03 12:24:19 | 56.32260 | 5.05947 | 107° | 22km/h | 20517m | 3.7m/s | -52.1°C | 0.8% | 53.3hPa | 2.6V | 18:12:15 | 01:34:53 | 00:00:00 | |
| DL1XH-west | 2026-09-03 12:24:16 | 56.32267 | 5.05919 | 117° | 24km/h | 20503m | 4.4m/s | -52.1°C | 0.7% | 53.4hPa | 2.5V | 18:12:15 | 01:34:50 | 00:00:00 | |
| DM0DOS-11 | 2026-09-03 12:24:11 | 56.32278 | 5.05859 | 111° | 27km/h | 20480m | 4.4m/s | -51.9°C | 4.1% | 53.6hPa | 2.6V | 08:30:00 | 01:34:45 | 00:00:00 | |
| BIOWL1-15 | 2026-09-03 12:24:08 | 56.32281 | 5.05848 | 116° | 27km/h | 20476m | 3.8m/s | -52°C | 0.8% | 53.6hPa | 2.5V | 18:12:15 | 01:34:44 | 00:00:00 | |
| DL1XH-west | 2026-09-03 12:24:06 | 56.32286 | 5.05825 | 112° | 27km/h | 20465m | 4.5m/s | -51.9°C | 0.8% | 53.7hPa | 2.6V | 18:12:15 | 01:34:42 | 00:00:00 | |
| DM0DOS-11 | 2026-09-03 12:24:00 | 56.32310 | 5.05744 | 121° | 31km/h | 20432m | 4.6m/s | -51.9°C | 4% | 54hPa | 2.6V | 08:30:00 | 01:34:35 | 00:00:00 | |
| DL1XH-west | 2026-09-03 12:23:55 | 56.32327 | 5.05690 | 117° | 37km/h | 20413m | 5.4m/s | -52°C | 0.7% | 54.1hPa | 2.5V | 18:12:15 | 01:34:31 | 00:00:00 | |
| DM0DOS-11 | 2026-09-03 12:23:53 | 56.32347 | 5.05605 | 109° | 35km/h | 20384m | 5m/s | -52°C | 4% | 54.4hPa | 2.5V | 08:30:00 | 01:34:25 | 00:00:00 | |
| BIOWL1-15 | 2026-09-03 12:23:50 | 56.32347 | 5.05605 | 110° | 35km/h | 20384m | 5.1m/s | -52°C | 0.7% | 54.4hPa | 2.5V | 18:12:15 | 01:34:25 | 00:00:00 | |
| DL1XH-west | 2026-09-03 12:23:45 | 56.32361 | 5.05542 | 110° | 42km/h | 20366m | 4m/s | -52°C | 0.8% | 54.6hPa | 2.5V | 18:12:15 | 01:34:21 | 00:00:00 | |
| DL1XH-west | 2026-09-03 12:23:34 | 56.32395 | 5.05340 | 98° | 47km/h | 20314m | 4.2m/s | -51.9°C | 0.8% | 55hPa | 2.5V | 18:12:15 | 01:34:10 | 00:00:00 | |
| BIOWL1-15 | 2026-09-03 12:23:25 | 56.32416 | 5.05162 | 99° | 46km/h | 20270m | 4.4m/s | -51.8°C | 0.8% | 55.4hPa | 2.6V | 18:12:15 | 01:34:01 | 00:00:00 | |
| DL1XH-west | 2026-09-03 12:23:24 | 56.32419 | 5.05122 | 96° | 44km/h | 20261m | 5.2m/s | -51.8°C | 0.7% | 55.4hPa | 2.5V | 18:12:15 | 01:33:59 | 00:00:00 | |
| DM0DOS-11 | 2026-09-03 12:23:23 | 56.32422 | 5.05039 | 92° | 46km/h | 20241m | 3.8m/s | -51.7°C | 3.9% | 55.6hPa | 2.5V | 08:30:00 | 01:33:55 | 00:00:00 | |
| BIOWL1-15 | 2026-09-03 12:23:14 | 56.32428 | 5.04939 | 96° | 46km/h | 20218m | 4m/s | -51.7°C | 0.7% | 55.8hPa | 2.5V | 18:12:15 | 01:33:50 | 00:00:00 | |
| DL1XH-west | 2026-09-03 12:23:13 | 56.32429 | 5.04919 | 97° | 44km/h | 20213m | 5.2m/s | -51.8°C | 0.6% | 55.8hPa | 2.5V | 18:12:15 | 01:33:49 | 00:00:00 | |
| DM0DOS-11 | 2026-09-03 12:23:11 | 56.32431 | 5.04839 | 88° | 46km/h | 20194m | 4.8m/s | -51.9°C | 4% | 56hPa | 2.5V | 08:30:00 | 01:33:45 | 00:00:00 | |
| BIOWL1-15 | 2026-09-03 12:23:03 | 56.32430 | 5.04684 | 96° | 38km/h | 20156m | 4.2m/s | -51.9°C | 0.7% | 56.4hPa | 2.6V | 18:12:15 | 01:33:37 | 00:00:00 | |
| DL1XH-west | 2026-09-03 12:23:02 | 56.32429 | 5.04701 | 94° | 40km/h | 20161m | 4.5m/s | -52°C | 0.7% | 56.3hPa | 2.5V | 18:12:15 | 01:33:38 | 00:00:00 | |
| DM0DOS-11 | 2026-09-03 12:23:00 | 56.32431 | 5.04648 | 91° | 40km/h | 20147m | 4m/s | -51.9°C | 4% | 56.4hPa | 2.5V | 08:30:00 | 01:33:35 | 00:00:00 | |
| BIOWL1-15 | 2026-09-03 12:22:52 | 56.32421 | 5.04526 | 72° | 35km/h | 20114m | 4.7m/s | -52°C | 0.8% | 56.7hPa | 2.5V | 18:12:15 | 01:33:28 | 00:00:00 | |
| DL1XH-west | 2026-09-03 12:22:51 | 56.32418 | 5.04512 | 74° | 33km/h | 20109m | 4.1m/s | -52°C | 0.7% | 56.8hPa | 2.6V | 18:12:15 | 01:33:27 | 00:00:00 | |
| DM0DOS-11 | 2026-09-03 12:22:49 | 56.32415 | 5.04469 | 89° | 31km/h | 20095m | 4.9m/s | -52°C | 4% | 56.9hPa | 2.5V | 08:30:00 | 01:33:24 | 00:00:00 | |
| BIOWL9-15 | 2026-09-03 12:22:45 | 56.32417 | 5.04425 | 95° | 33km/h | 20081m | 5.4m/s | -52.0°C | 1.2% | 57.0hPa | 2.5V | 00:00:00 | 00:00:00 | 00:00:00 | |
| DM0DOS-11 | 2026-09-03 12:22:43 | 56.32407 | 5.04297 | 75° | 38km/h | 20044m | 3.9m/s | -52°C | 4% | 57.3hPa | 2.5V | 08:30:00 | 01:33:13 | 00:00:00 | |
| BIOWL1-15 | 2026-09-03 12:22:42 | 56.32412 | 5.04330 | 76° | 37km/h | 20053m | 5.4m/s | -52°C | 0.7% | 57.2hPa | 2.6V | 18:12:15 | 01:33:15 | 00:00:00 | |
| DL1XH-west | 2026-09-03 12:22:40 | 56.32410 | 5.04314 | 75° | 38km/h | 20049m | 4.1m/s | -52°C | 0.9% | 57.3hPa | 2.5V | 18:12:15 | 01:33:14 | 00:00:00 | |
| BIOWL1-15 | 2026-09-03 12:22:31 | 56.32397 | 5.04205 | 88° | 31km/h | 20015m | 4.8m/s | -52.2°C | 0.8% | 57.6hPa | 2.5V | 18:12:15 | 01:33:07 | 00:00:00 | |
| DL1XH-west | 2026-09-03 12:22:30 | 56.32397 | 5.04192 | 89° | 29km/h | 20011m | 3.8m/s | -52.2°C | 0.8% | 57.7hPa | 2.6V | 18:12:15 | 01:33:06 | 00:00:00 | |
| DJ2DS-15 | 2026-09-03 12:22:29 | 56.32396 | 5.04178 | 90° | 29km/h | 20006m | 5.5m/s | -52.2°C | 1.2% | 57.7hPa | 2.6V | 00:00:00 | 00:00:00 | 00:00:00 | |
| DJ2DS-15 | 2026-09-03 12:22:28 | 56.32396 | 5.04164 | 90° | 37km/h | 20001m | 4.6m/s | -52.1°C | 4.2% | 57.7hPa | 2.6V | 00:00:00 | 01:33:04 | 00:00:00 | |
| DM0DOS-11 | 2026-09-03 12:22:22 | 56.32385 | 5.04000 | 82° | 33km/h | 19957m | 4.2m/s | -52°C | 4.1% | 58.1hPa | 2.6V | 08:30:00 | 01:32:54 | 00:00:00 | |
| BIOWL1-15 | 2026-09-03 12:22:20 | 56.32375 | 5.03907 | 80° | 35km/h | 19927m | 4.2m/s | -51.9°C | 0.7% | 58.4hPa | 2.5V | 18:12:15 | 01:32:48 | 00:00:00 | |
| DL1XH-west | 2026-09-03 12:22:20 | 56.32386 | 5.04016 | 82° | 37km/h | 19961m | 5m/s | -52.1°C | 0.8% | 58.1hPa | 2.6V | 18:12:15 | 01:32:55 | 00:00:00 | |
| BIOWL9-15 | 2026-09-03 12:22:14 | 56.32378 | 5.03937 | 79° | 33km/h | 19937m | 5.6m/s | -52.0°C | 1.2% | 58.3hPa | 2.6V | 00:00:00 | 00:00:00 | 00:00:00 | |
| DM0DOS-11 | 2026-09-03 12:22:11 | 56.32368 | 5.03844 | 82° | 35km/h | 19909m | 4.3m/s | -51.9°C | 4.1% | 58.5hPa | 2.6V | 08:30:00 | 01:32:44 | 00:00:00 | |
| DL1XH-west | 2026-09-03 12:22:09 | 56.32367 | 5.03828 | 83° | 35km/h | 19904m | 4.7m/s | -51.8°C | 0.8% | 58.6hPa | 2.6V | 18:12:15 | 01:32:43 | 00:00:00 | |
| BIOWL1-15 | 2026-09-03 12:22:08 | 56.32364 | 5.03780 | 82° | 35km/h | 19890m | 4.7m/s | -51.7°C | 0.7% | 58.7hPa | 2.5V | 18:12:15 | 01:32:40 | 00:00:00 | |
| DL1XH-west | 2026-09-03 12:21:58 | 56.32356 | 5.03691 | 84° | 31km/h | 19861m | 5.3m/s | -51.6°C | 0.7% | 59hPa | 2.5V | 18:12:15 | 01:32:34 | 00:00:00 | |
| BIOWL1-15 | 2026-09-03 12:21:57 | 56.32355 | 5.03677 | 87° | 31km/h | 19856m | 4.6m/s | -51.6°C | 0.7% | 59hPa | 2.6V | 18:12:15 | 01:32:33 | 00:00:00 | |
| DJ2DS-15 | 2026-09-03 12:21:53 | 56.32354 | 5.03617 | 87° | 31km/h | 19837m | 5.7m/s | -51.5°C | 1.2% | 59.2hPa | 2.6V | 00:00:00 | 00:00:00 | 00:00:00 | |
| BIOWL1-15 | 2026-09-03 12:21:49 | 56.32344 | 5.03471 | 86° | 29km/h | 19786m | 5.2m/s | -51.4°C | 0.7% | 59.7hPa | 2.6V | 18:12:15 | 01:32:18 | 00:00:00 | |
| DL1XH-west | 2026-09-03 12:21:48 | 56.32350 | 5.03550 | 80° | 31km/h | 19814m | 3.8m/s | -51.4°C | 0.5% | 59.4hPa | 2.6V | 18:12:15 | 01:32:24 | 00:00:00 | |
| DJ2DS-15 | 2026-09-03 12:21:48 | 56.32350 | 5.03550 | 81° | 31km/h | 19814m | 3.8m/s | -51.3°C | 3.8% | 59.4hPa | 2.5V | 00:00:00 | 01:32:24 | 00:00:00 | |
| BIOWL9-15 | 2026-09-03 12:21:43 | 56.32344 | 5.03484 | 84° | 29km/h | 19791m | 3.9m/s | -51.4°C | 1.2% | 59.7hPa | 2.5V | 00:00:00 | 00:00:00 | 00:00:00 | |
| DM0DOS-11 | 2026-09-03 12:21:39 | 56.32341 | 5.03417 | 84° | 31km/h | 19767m | 4m/s | -51.4°C | 3.9% | 59.9hPa | 2.5V | 08:30:00 | 01:32:14 | 00:00:00 | |
| DL1XH-west | 2026-09-03 12:21:38 | 56.32341 | 5.03417 | 84° | 31km/h | 19767m | 4m/s | -51.4°C | 0.7% | 59.9hPa | 2.5V | 18:12:15 | 01:32:14 | 00:00:00 | |
| BIOWL1-15 | 2026-09-03 12:21:33 | 56.32339 | 5.03334 | 90° | 29km/h | 19738m | 5.5m/s | -51.3°C | 0.7% | 60.1hPa | 2.5V | 18:12:15 | 01:32:08 | 00:00:00 | |
| DL1XH-west | 2026-09-03 12:21:27 | 56.32335 | 5.03261 | 81° | 35km/h | 19716m | 5m/s | -51.3°C | 0.7% | 60.3hPa | 2.5V | 18:12:15 | 01:32:03 | 00:00:00 | |
| BIOWL1-15 | 2026-09-03 12:21:21 | 56.32316 | 5.03062 | 81° | 33km/h | 19654m | 4.4m/s | -51.3°C | 0.6% | 60.9hPa | 2.6V | 18:12:15 | 01:31:50 | 00:00:00 | |
| DL1XH-west | 2026-09-03 12:21:17 | 56.32321 | 5.03104 | 75° | 35km/h | 19668m | 4.2m/s | -51.3°C | 0.8% | 60.8hPa | 2.5V | 18:12:15 | 01:31:53 | 00:00:00 | |
| DL1XH-west | 2026-09-03 12:21:07 | 56.32300 | 5.02948 | 72° | 40km/h | 19623m | 5.2m/s | -51.2°C | 0.7% | 61.2hPa | 2.6V | 18:12:15 | 01:31:43 | 00:00:00 | |
| BIOWL1-15 | 2026-09-03 12:21:05 | 56.32287 | 5.02881 | 67° | 35km/h | 19605m | 3.9m/s | -51.1°C | 0.7% | 61.4hPa | 2.6V | 18:12:15 | 01:31:39 | 00:00:00 | |
| DM0DOS-11 | 2026-09-03 12:21:02 | 56.32273 | 5.02825 | 60° | 33km/h | 19588m | 4.6m/s | -51.1°C | 3.9% | 61.5hPa | 2.5V | 08:30:00 | 01:31:35 | 00:00:00 | |
| DL1XH-west | 2026-09-03 12:20:57 | 56.32265 | 5.02799 | 65° | 31km/h | 19579m | 4.4m/s | -51°C | 0.7% | 61.6hPa | 2.6V | 18:12:15 | 01:31:33 | 00:00:00 | |
| BIOWL1-15 | 2026-09-03 12:20:54 | 56.32256 | 5.02757 | 77° | 33km/h | 19564m | 4.4m/s | -50.8°C | 0.7% | 61.8hPa | 2.6V | 18:12:15 | 01:31:30 | 00:00:00 | |
| DM0DOS-11 | 2026-09-03 12:20:49 | 56.32246 | 5.02677 | 71° | 27km/h | 19536m | 5.3m/s | -50.8°C | 3.8% | 62hPa | 2.6V | 08:30:00 | 01:31:24 | 00:00:00 | |
| DL1XH-west | 2026-09-03 12:20:47 | 56.32243 | 5.02666 | 67° | 27km/h | 19531m | 4m/s | -50.8°C | 0.6% | 62.1hPa | 2.6V | 18:12:15 | 01:31:23 | 00:00:00 | |
| BIOWL1-15 | 2026-09-03 12:20:44 | 56.32230 | 5.02582 | 80° | 26km/h | 19499m | 5.3m/s | -50.7°C | 0.6% | 62.4hPa | 2.6V | 18:12:15 | 01:31:16 | 00:00:00 | |
| DM0DOS-11 | 2026-09-03 12:20:43 | 56.32228 | 5.02558 | 79° | 26km/h | 19490m | 3.5m/s | -50.7°C | 3.8% | 62.5hPa | 2.5V | 08:30:00 | 01:31:14 | 00:00:00 | |
| DL1XH-west | 2026-09-03 12:20:37 | 56.32227 | 5.02547 | 77° | 24km/h | 19486m | 5.2m/s | -50.8°C | 0.6% | 62.5hPa | 2.5V | 18:12:15 | 01:31:13 | 00:00:00 | |
| DM0DOS-11 | 2026-09-03 12:20:29 | 56.32219 | 5.02445 | 92° | 29km/h | 19444m | 4.2m/s | -50.8°C | 3.8% | 62.9hPa | 2.5V | 08:30:00 | 01:31:04 | 00:00:00 | |
| DL1XH-west | 2026-09-03 12:20:27 | 56.32219 | 5.02431 | 91° | 29km/h | 19440m | 3.9m/s | -50.8°C | 0.6% | 63hPa | 2.6V | 18:12:15 | 01:31:03 | 00:00:00 | |
| BIOWL1-15 | 2026-09-03 12:20:26 | 56.32220 | 5.02289 | 104° | 26km/h | 19383m | 4.4m/s | -50.8°C | 0.6% | 63.5hPa | 2.6V | 18:12:15 | 01:30:51 | 00:00:00 | |
| DM0DOS-11 | 2026-09-03 12:20:22 | 56.32218 | 5.02329 | 89° | 29km/h | 19397m | 4.2m/s | -50.9°C | 3.8% | 63.4hPa | 2.5V | 08:30:00 | 01:30:54 | 00:00:00 | |
| DL1XH-west | 2026-09-03 12:20:17 | 56.32219 | 5.02302 | 97° | 29km/h | 19388m | 5.1m/s | -50.8°C | 0.6% | 63.5hPa | 2.6V | 18:12:15 | 01:30:52 | 00:00:00 | |
| BIOWL1-15 | 2026-09-03 12:20:10 | 56.32234 | 5.02158 | 104° | 29km/h | 19332m | 3.7m/s | -50.8°C | 0.6% | 64hPa | 2.6V | 18:12:15 | 01:30:40 | 00:00:00 | |
| DM0DOS-11 | 2026-09-03 12:20:10 | 56.32228 | 5.02212 | 97° | 27km/h | 19350m | 5.5m/s | -50.8°C | 3.8% | 63.8hPa | 2.5V | 08:30:00 | 01:30:44 | 00:00:00 | |
| DL1XH-west | 2026-09-03 12:20:06 | 56.32231 | 5.02185 | 100° | 31km/h | 19341m | 4.5m/s | -50.7°C | 0.6% | 63.9hPa | 2.5V | 18:12:15 | 01:30:42 | 00:00:00 | |
| DM0DOS-11 | 2026-09-03 12:20:02 | 56.32241 | 5.02092 | 110° | 22km/h | 19305m | 3.6m/s | -50.8°C | 3.8% | 64.3hPa | 2.5V | 08:30:00 | 01:30:34 | 00:00:00 | |
| DL1XH-west | 2026-09-03 12:19:55 | 56.32248 | 5.02058 | 110° | 31km/h | 19291m | 5.5m/s | -50.8°C | 0.6% | 64.4hPa | 2.6V | 18:12:15 | 01:30:31 | 00:00:00 | |
| BIOWL1-15 | 2026-09-03 12:19:53 | 56.32253 | 5.02030 | 111° | 33km/h | 19282m | 3.4m/s | -50.8°C | 0.6% | 64.5hPa | 2.5V | 18:12:15 | 01:30:29 | 00:00:00 | |
| DM0DOS-11 | 2026-09-03 12:19:49 | 56.32262 | 5.01958 | 106° | 29km/h | 19259m | 5m/s | -50.7°C | 3.8% | 64.7hPa | 2.6V | 08:30:00 | 01:30:24 | 00:00:00 | |
| BIOWL1-15 | 2026-09-03 12:19:47 | 56.32285 | 5.01856 | 106° | 40km/h | 19225m | 4.5m/s | -50.6°C | 0.6% | 65.1hPa | 2.5V | 18:12:15 | 01:30:17 | 00:00:00 | |
| DL1XH-west | 2026-09-03 12:19:45 | 56.32272 | 5.01918 | 116° | 35km/h | 19244m | 4.6m/s | -50.7°C | 0.5% | 64.9hPa | 2.5V | 18:12:15 | 01:30:21 | 00:00:00 | |
| DM0DOS-11 | 2026-09-03 12:19:42 | 56.32293 | 5.01799 | 104° | 44km/h | 19209m | 5.1m/s | -50.7°C | 3.8% | 65.2hPa | 2.6V | 08:30:00 | 01:30:14 | 00:00:00 | |
| DL1XH-west | 2026-09-03 12:19:35 | 56.32301 | 5.01744 | 106° | 42km/h | 19194m | 5m/s | -50.7°C | 0.6% | 65.4hPa | 2.5V | 18:12:15 | 01:30:11 | 00:00:00 | |
| BIOWL1-15 | 2026-09-03 12:19:32 | 56.32311 | 5.01672 | 101° | 40km/h | 19174m | 4.2m/s | -50.6°C | 0.6% | 65.6hPa | 2.5V | 18:12:15 | 01:30:07 | 00:00:00 | |
| DM0DOS-11 | 2026-09-03 12:19:29 | 56.32317 | 5.01616 | 98° | 42km/h | 19159m | 5.9m/s | -50.6°C | 3.7% | 65.8hPa | 2.6V | 08:30:00 | 01:30:04 | 00:00:00 | |
| DL1XH-west | 2026-09-03 12:19:24 | 56.32324 | 5.01535 | 102° | 49km/h | 19140m | 3.9m/s | -50.6°C | 0.6% | 66hPa | 2.5V | 18:12:15 | 01:30:00 | 00:00:00 | |
| DM0DOS-11 | 2026-09-03 12:19:23 | 56.32341 | 5.01402 | 101° | 51km/h | 19109m | 5.7m/s | -50.7°C | 3.7% | 66.2hPa | 2.5V | 08:30:00 | 01:29:54 | 00:00:00 | |
| BIOWL1-15 | 2026-09-03 12:19:18 | 56.32343 | 5.01380 | 98° | 49km/h | 19104m | 4.6m/s | -50.7°C | 0.6% | 66.3hPa | 2.6V | 18:12:15 | 01:29:53 | 00:00:00 | |
| DL1XH-west | 2026-09-03 12:19:13 | 56.32349 | 5.01286 | 96° | 55km/h | 19084m | 4.3m/s | -50.7°C | 0.6% | 66.5hPa | 2.5V | 18:12:15 | 01:29:49 | 00:00:00 | |
| DL1XH-west | 2026-09-03 12:19:03 | 56.32363 | 5.01032 | 94° | 55km/h | 19034m | 4.9m/s | -50.6°C | 0.6% | 67hPa | 2.5V | 18:12:15 | 01:29:39 | 00:00:00 | |
| DL1XH-west | 2026-09-03 12:18:53 | 56.32361 | 5.00744 | 86° | 62km/h | 18981m | 5.4m/s | -50.9°C | 0.6% | 67.6hPa | 2.6V | 18:12:15 | 01:29:28 | 00:00:00 | |
| DJ2DS-15 | 2026-09-03 12:18:52 | 56.32361 | 5.00744 | 85° | 60km/h | 18981m | 5.4m/s | -50.9°C | 1.1% | 67.6hPa | 2.5V | 00:00:00 | 00:00:00 | 00:00:00 | |
| DM0DOS-11 | 2026-09-03 12:18:49 | 56.32356 | 5.00635 | 86° | 58km/h | 18962m | 4m/s | -50.8°C | 3.7% | 67.8hPa | 2.5V | 08:30:00 | 01:29:24 | 00:00:00 | |
| DL1XH-west | 2026-09-03 12:18:42 | 56.32354 | 5.00482 | 90° | 51km/h | 18934m | 5.5m/s | -50.8°C | 0.6% | 68.1hPa | 2.5V | 18:12:15 | 01:29:18 | 00:00:00 | |
| DM0DOS-11 | 2026-09-03 12:18:39 | 56.32351 | 5.00387 | 84° | 55km/h | 18913m | 4.2m/s | -50.8°C | 3.7% | 68.3hPa | 2.6V | 08:30:00 | 01:29:14 | 00:00:00 | |
| DL1XH-west | 2026-09-03 12:18:31 | 56.32339 | 5.00215 | 85° | 51km/h | 18880m | 5.6m/s | -51.4°C | 0.7% | 68.7hPa | 2.6V | 18:12:15 | 01:29:07 | 00:00:00 | |
| DM0DOS-11 | 2026-09-03 12:18:29 | 56.32336 | 5.00151 | 86° | 46km/h | 18866m | 5m/s | -51.4°C | 3.9% | 68.8hPa | 2.5V | 08:30:00 | 01:29:04 | 00:00:00 | |
| BIOWL1-15 | 2026-09-03 12:18:26 | 56.32315 | 4.99890 | 78° | 47km/h | 18810m | 4m/s | -51.4°C | 0.7% | 69.4hPa | 2.5V | 18:12:15 | 01:28:52 | 00:00:00 | |
| DM0DOS-11 | 2026-09-03 12:18:22 | 56.32320 | 4.99932 | 77° | 47km/h | 18819m | 4.9m/s | -51.4°C | 3.9% | 69.3hPa | 2.5V | 08:30:00 | 01:28:54 | 00:00:00 | |
| DL1XH-west | 2026-09-03 12:18:20 | 56.32326 | 4.99974 | 79° | 49km/h | 18829m | 5.2m/s | -51.4°C | 0.7% | 69.2hPa | 2.6V | 18:12:15 | 01:28:56 | 00:00:00 | |
| DL1XH-west | 2026-09-03 12:18:10 | 56.32298 | 4.99744 | 77° | 46km/h | 18777m | 5.2m/s | -51.2°C | 0.7% | 69.8hPa | 2.6V | 18:12:15 | 01:28:45 | 00:00:00 | |
| DM0DOS-11 | 2026-09-03 12:18:09 | 56.32296 | 4.99724 | 74° | 46km/h | 18772m | 3.8m/s | -51.2°C | 3.9% | 69.8hPa | 2.6V | 08:30:00 | 01:28:44 | 00:00:00 | |
| BIOWL1-15 | 2026-09-03 12:18:08 | 56.32287 | 4.99665 | 78° | 44km/h | 18759m | 4.2m/s | -51.3°C | 0.6% | 70hPa | 2.5V | 18:12:15 | 01:28:41 | 00:00:00 | |
| DJ2DS-15 | 2026-09-03 12:18:08 | 56.32295 | 4.99724 | 75° | 42km/h | 18772m | 3.7m/s | -51.2°C | 3.9% | 69.8hPa | 2.6V | 00:00:00 | 01:28:44 | 08:30:00 | |
| BIOWL9-15 | 2026-09-03 12:18:06 | 56.32287 | 4.99665 | 78° | 44km/h | 18759m | 4.2m/s | -51.3°C | 1.2% | 70.0hPa | 2.5V | 00:00:00 | 00:00:00 | 00:00:00 | |
| DM0DOS-11 | 2026-09-03 12:18:01 | 56.32267 | 4.99533 | 76° | 46km/h | 18727m | 3.4m/s | -51.2°C | 3.9% | 70.3hPa | 2.5V | 08:30:00 | 01:28:34 | 00:00:00 | |
| DL1XH-west | 2026-09-03 12:17:59 | 56.32270 | 4.99553 | 76° | 46km/h | 18731m | 3.9m/s | -51.2°C | 0.7% | 70.3hPa | 2.6V | 18:12:15 | 01:28:35 | 00:00:00 | |
| BIOWL1-15 | 2026-09-03 12:17:55 | 56.32259 | 4.99458 | 83° | 42km/h | 18708m | 5.5m/s | -51.2°C | 0.6% | 70.5hPa | 2.6V | 18:12:15 | 01:28:30 | 00:00:00 | |
| DM0DOS-11 | 2026-09-03 12:17:50 | 56.32249 | 4.99348 | 80° | 42km/h | 18678m | 3.8m/s | -51.4°C | 3.9% | 70.8hPa | 2.6V | 08:30:00 | 01:28:24 | 00:00:00 | |
| DL1XH-west | 2026-09-03 12:17:48 | 56.32249 | 4.99348 | 80° | 42km/h | 18678m | 3.8m/s | -51.4°C | 0.6% | 70.8hPa | 2.6V | 18:12:15 | 01:28:24 | 00:00:00 | |
| BIOWL1-15 | 2026-09-03 12:17:44 | 56.32240 | 4.99218 | 87° | 38km/h | 18642m | 3.7m/s | -51.4°C | 0.7% | 71.2hPa | 2.5V | 18:12:15 | 01:28:16 | 00:00:00 | |
| DM0DOS-11 | 2026-09-03 12:17:43 | 56.32240 | 4.99182 | 89° | 42km/h | 18633m | 3.8m/s | -51.4°C | 3.9% | 71.3hPa | 2.6V | 08:30:00 | 01:28:14 | 00:00:00 | |
| DL1XH-west | 2026-09-03 12:17:38 | 56.32240 | 4.99182 | 89° | 42km/h | 18633m | 3.8m/s | -51.4°C | 0.6% | 71.3hPa | 2.6V | 18:12:15 | 01:28:14 | 00:00:00 | |
| BIOWL1-15 | 2026-09-03 12:17:34 | 56.32237 | 4.99111 | 84° | 35km/h | 18616m | 4.2m/s | -51.4°C | 0.7% | 71.5hPa | 2.5V | 18:12:15 | 01:28:10 | 00:00:00 | |
| DM0DOS-11 | 2026-09-03 12:17:33 | 56.32235 | 4.99023 | 91° | 35km/h | 18587m | 4.9m/s | -51.4°C | 3.9% | 71.8hPa | 2.6V | 08:30:00 | 01:28:04 | 00:00:00 | |
| DL1XH-west | 2026-09-03 12:17:28 | 56.32236 | 4.98991 | 97° | 37km/h | 18577m | 4.7m/s | -51.5°C | 0.6% | 71.9hPa | 2.5V | 18:12:15 | 01:28:02 | 00:00:00 | |
| DM0DOS-11 | 2026-09-03 12:17:23 | 56.32251 | 4.98869 | 106° | 29km/h | 18540m | 4.2m/s | -51.5°C | 4% | 72.3hPa | 2.6V | 08:30:00 | 01:27:54 | 00:00:00 | |
| BIOWL1-15 | 2026-09-03 12:17:21 | 56.32245 | 4.98909 | 104° | 33km/h | 18554m | 4.7m/s | -51.6°C | 0.7% | 72.2hPa | 2.5V | 18:12:15 | 01:27:57 | 00:00:00 | |
| DL1XH-west | 2026-09-03 12:17:17 | 56.32253 | 4.98856 | 104° | 31km/h | 18535m | 4.3m/s | -51.5°C | 0.7% | 72.4hPa | 2.6V | 18:12:15 | 01:27:53 | 00:00:00 | |
| DM0DOS-11 | 2026-09-03 12:17:13 | 56.32264 | 4.98718 | 100° | 38km/h | 18495m | 4.2m/s | -51.3°C | 3.8% | 72.9hPa | 2.5V | 08:30:00 | 01:27:44 | 00:00:00 | |
| BIOWL1-15 | 2026-09-03 12:17:11 | 56.32261 | 4.98767 | 95° | 37km/h | 18508m | 5.1m/s | -51.3°C | 0.7% | 72.7hPa | 2.6V | 18:12:15 | 01:27:47 | 00:00:00 | |
| DL1XH-west | 2026-09-03 12:17:06 | 56.32268 | 4.98685 | 99° | 35km/h | 18486m | 5m/s | -51.3°C | 0.6% | 73hPa | 2.6V | 18:12:15 | 01:27:42 | 00:00:00 | |
| BIOWL9-15 | 2026-09-03 12:17:04 | 56.32271 | 4.98639 | 100° | 35km/h | 18474m | 5.2m/s | -51.4°C | 1.2% | 73.1hPa | 2.6V | 00:00:00 | 00:00:00 | 00:00:00 | |
| DM0DOS-11 | 2026-09-03 12:17:01 | 56.32285 | 4.98555 | 109° | 42km/h | 18449m | 4.4m/s | -51.5°C | 3.9% | 73.4hPa | 2.6V | 08:30:00 | 01:27:34 | 00:00:00 | |
| BIOWL1-15 | 2026-09-03 12:17:01 | 56.32285 | 4.98555 | 109° | 42km/h | 18449m | 4.4m/s | -51.5°C | 0.6% | 73.4hPa | 2.6V | 18:12:15 | 01:27:34 | 00:00:00 | |
| DL1XH-west | 2026-09-03 12:16:55 | 56.32299 | 4.98479 | 107° | 44km/h | 18431m | 3.4m/s | -51.4°C | 0.7% | 73.6hPa | 2.6V | 18:12:15 | 01:27:30 | 00:00:00 | |
| BIOWL1-15 | 2026-09-03 12:16:50 | 56.32311 | 4.98402 | 104° | 40km/h | 18413m | 3.5m/s | -51.4°C | 0.7% | 73.8hPa | 2.5V | 18:12:15 | 01:27:26 | 00:00:00 | |
| DM0DOS-11 | 2026-09-03 12:16:49 | 56.32318 | 4.98348 | 98° | 42km/h | 18400m | 3.1m/s | -51.3°C | 4% | 73.9hPa | 2.6V | 08:30:00 | 01:27:23 | 00:00:00 | |
| DL1XH-west | 2026-09-03 12:16:45 | 56.32321 | 4.98310 | 97° | 40km/h | 18392m | 4.3m/s | -51.3°C | 0.8% | 74hPa | 2.5V | 18:12:15 | 01:27:21 | 00:00:00 | |
| DM0DOS-11 | 2026-09-03 12:16:41 | 56.32333 | 4.98163 | 100° | 42km/h | 18358m | 3.9m/s | -51°C | 3.9% | 74.5hPa | 2.5V | 08:30:00 | 01:27:13 | 00:00:00 | |
| BIOWL1-15 | 2026-09-03 12:16:41 | 56.32329 | 4.98199 | 102° | 40km/h | 18366m | 4m/s | -51.1°C | 0.7% | 0hPa | 2.5V | 18:12:15 | 01:27:15 | 00:00:00 | |
| DL1XH-west | 2026-09-03 12:16:35 | 56.32339 | 4.98090 | 93° | 40km/h | 18340m | 3.9m/s | -50.9°C | 0.7% | 74.7hPa | 2.5V | 18:12:15 | 01:27:09 | 00:00:00 | |
| BIOWL1-15 | 2026-09-03 12:16:29 | 56.32338 | 4.98011 | 88° | 44km/h | 18323m | 4m/s | -50.7°C | 0.6% | 0hPa | 2.6V | 18:12:15 | 01:27:05 | 00:00:00 | |
| DM0DOS-11 | 2026-09-03 12:16:28 | 56.32338 | 4.97971 | 93° | 46km/h | 18314m | 4.1m/s | -50.6°C | 3.8% | 75hPa | 2.5V | 08:30:00 | 01:27:03 | 00:00:00 | |
| DL1XH-west | 2026-09-03 12:16:22 | 56.32343 | 4.97872 | 93° | 46km/h | 18291m | 3.7m/s | -50.5°C | 0.6% | 75.2hPa | 2.5V | 18:12:15 | 01:26:58 | 00:00:00 | |
| BIOWL1-15 | 2026-09-03 12:16:17 | 56.32346 | 4.97735 | 96° | 46km/h | 18261m | 3.9m/s | -50.3°C | 0.6% | 0hPa | 2.6V | 18:12:15 | 01:26:51 | 00:00:00 | |
| DL1XH-west | 2026-09-03 12:16:12 | 56.32348 | 4.97674 | 89° | 47km/h | 18248m | 4.6m/s | -50.3°C | 0.5% | 75.7hPa | 2.5V | 18:12:15 | 01:26:48 | 00:00:00 | |
| BIOWL1-15 | 2026-09-03 12:16:07 | 56.32336 | 4.97485 | 85° | 46km/h | 18208m | 4.2m/s | -50.4°C | 0.6% | 0hPa | 2.6V | 18:12:15 | 01:26:39 | 00:00:00 | |
| DL1XH-west | 2026-09-03 12:16:02 | 56.32335 | 4.97442 | 86° | 51km/h | 18199m | 3.1m/s | -50.3°C | 0.6% | 76.3hPa | 2.5V | 18:12:15 | 01:26:37 | 00:00:00 | |
| DM0DOS-11 | 2026-09-03 12:16:01 | 56.32331 | 4.97349 | 85° | 53km/h | 18182m | 5.3m/s | -50.3°C | 3.7% | 76.5hPa | 2.6V | 08:30:00 | 01:26:33 | 00:00:00 | |
| BIOWL1-15 | 2026-09-03 12:15:51 | 56.32324 | 4.97204 | 84° | 55km/h | 18154m | 4m/s | -50.1°C | 0.5% | 0hPa | 2.6V | 18:12:15 | 01:26:27 | 00:00:00 | |
| DL1XH-west | 2026-09-03 12:15:50 | 56.32323 | 4.97180 | 83° | 51km/h | 18150m | 5.1m/s | -50.1°C | 0.5% | 76.8hPa | 2.5V | 18:12:15 | 01:26:26 | 00:00:00 | |
| DM0DOS-11 | 2026-09-03 12:15:50 | 56.32318 | 4.97113 | 82° | 51km/h | 18136m | 4.7m/s | -50°C | 3.6% | 77hPa | 2.6V | 08:30:00 | 01:26:23 | 00:00:00 | |
| DL1XH-west | 2026-09-03 12:15:40 | 56.32310 | 4.96958 | 87° | 49km/h | 18104m | 5m/s | -50.2°C | 0.5% | 77.4hPa | 2.6V | 18:12:15 | 01:26:16 | 00:00:00 | |
| DM0DOS-11 | 2026-09-03 12:15:38 | 56.32307 | 4.96893 | 84° | 49km/h | 18089m | 4m/s | -50.3°C | 3.7% | 77.5hPa | 2.5V | 08:30:00 | 01:26:13 | 00:00:00 | |
| DM0DOS-11 | 2026-09-03 12:15:31 | 56.32300 | 4.96688 | 92° | 46km/h | 18044m | 3.8m/s | -50.5°C | 3.8% | 78.1hPa | 2.6V | 08:30:00 | 01:26:03 | 00:00:00 | |
| DL1XH-west | 2026-09-03 12:15:29 | 56.32300 | 4.96728 | 88° | 44km/h | 18053m | 3.4m/s | -50.4°C | 0.5% | 78hPa | 2.5V | 18:12:15 | 01:26:05 | 00:00:00 | |
| BIOWL1-15 | 2026-09-03 12:15:29 | 56.32302 | 4.96647 | 94° | 44km/h | 18036m | 4.9m/s | -50.5°C | 0.6% | 0hPa | 2.5V | 18:12:15 | 01:26:01 | 00:00:00 | |
| DJ2DS-15 | 2026-09-03 12:15:28 | 56.32300 | 4.96708 | 92° | 40km/h | 18049m | 4.6m/s | -50.4°C | 3.8% | 78.0hPa | 2.6V | 00:00:00 | 01:26:04 | 00:00:00 | |
| DM0DOS-11 | 2026-09-03 12:15:20 | 56.32307 | 4.96504 | 88° | 38km/h | 18000m | 4.1m/s | -50.5°C | 3.8% | 78.6hPa | 2.6V | 08:30:00 | 01:25:53 | 00:00:00 | |
| DL1XH-west | 2026-09-03 12:15:18 | 56.32307 | 4.96504 | 89° | 38km/h | 18000m | 4.1m/s | -50.5°C | 0.6% | 78.6hPa | 2.6V | 18:12:15 | 01:25:53 | 00:00:00 | |
| BIOWL1-15 | 2026-09-03 12:15:15 | 56.32305 | 4.96447 | 84° | 42km/h | 17986m | 5.1m/s | -50.5°C | 0.6% | 0hPa | 2.6V | 18:12:15 | 01:25:50 | 00:00:00 | |
| DL1XH-west | 2026-09-03 12:15:09 | 56.32302 | 4.96322 | 90° | 37km/h | 17952m | 5.2m/s | -50.5°C | 0.6% | 79.2hPa | 2.6V | 18:12:15 | 01:25:43 | 00:00:00 | |
| BIOWL1-15 | 2026-09-03 12:15:03 | 56.32298 | 4.96187 | 87° | 31km/h | 17914m | 3.7m/s | -50.3°C | 0.6% | 0hPa | 2.5V | 18:12:15 | 01:25:35 | 00:00:00 | |
| DM0DOS-11 | 2026-09-03 12:15:03 | 56.32300 | 4.96145 | 101° | 29km/h | 17900m | 3.8m/s | -50.2°C | 3.7% | 79.8hPa | 2.6V | 08:30:00 | 01:25:32 | 00:00:00 | |
| DL1XH-west | 2026-09-03 12:14:59 | 56.32300 | 4.96145 | 102° | 29km/h | 17900m | 3.8m/s | -50.3°C | 0.5% | 79.8hPa | 2.6V | 18:12:15 | 01:25:32 | 00:00:00 | |
| BIOWL1-15 | 2026-09-03 12:14:51 | 56.32307 | 4.96074 | 95° | 35km/h | 17877m | 4.8m/s | -50.2°C | 0.5% | 0hPa | 2.6V | 18:12:15 | 01:25:27 | 00:00:00 | |
| DJ2DS-15 | 2026-09-03 12:14:48 | 56.32309 | 4.96028 | 97° | 33km/h | 17863m | 5.3m/s | -50.0°C | 3.7% | 80.2hPa | 2.6V | 00:00:00 | 01:25:24 | 00:00:00 | |
| DM0DOS-11 | 2026-09-03 12:14:47 | 56.32312 | 4.95997 | 99° | 33km/h | 17853m | 5m/s | -50.1°C | 3.6% | 80.4hPa | 2.6V | 08:30:00 | 01:25:22 | 00:00:00 | |
| DL1XH-west | 2026-09-03 12:14:46 | 56.32312 | 4.95997 | 100° | 33km/h | 17853m | 5m/s | -50.1°C | 0.5% | 80.4hPa | 2.6V | 18:12:15 | 01:25:22 | 00:00:00 | |
| DM0DOS-11 | 2026-09-03 12:14:41 | 56.32332 | 4.95841 | 107° | 33km/h | 17800m | 3.9m/s | -50.3°C | 3.7% | 81hPa | 2.5V | 08:30:00 | 01:25:11 | 00:00:00 | |
| BIOWL1-15 | 2026-09-03 12:14:41 | 56.32323 | 4.95900 | 103° | 31km/h | 17820m | 3.7m/s | -50.1°C | 0.6% | 0hPa | 2.7V | 18:12:15 | 01:25:15 | 00:00:00 | |
| DL1XH-west | 2026-09-03 12:14:37 | 56.32332 | 4.95841 | 107° | 33km/h | 17800m | 3.9m/s | -50.3°C | 0.6% | 81.1hPa | 2.5V | 18:12:15 | 01:25:11 | 00:00:00 | |
| DM0DOS-11 | 2026-09-03 12:14:30 | 56.32360 | 4.95711 | 111° | 35km/h | 17756m | 3.8m/s | -50.5°C | 3.7% | 81.6hPa | 2.5V | 08:30:00 | 01:25:02 | 00:00:00 | |
| BIOWL1-15 | 2026-09-03 12:14:29 | 56.32350 | 4.95755 | 114° | 35km/h | 17771m | 5.2m/s | 0°C | 0% | 0hPa | 2.6V | 18:12:15 | 01:25:05 | 00:00:00 | |
| DL1XH-west | 2026-09-03 12:14:26 | 56.32364 | 4.95696 | 112° | 37km/h | 17751m | 5.2m/s | -50.6°C | 0.6% | 81.7hPa | 2.5V | 18:12:15 | 01:25:01 | 00:00:00 | |
| BIOWL1-15 | 2026-09-03 12:14:18 | 56.32390 | 4.95579 | 111° | 44km/h | 17719m | 4.8m/s | 0°C | 0% | 0hPa | 2.6V | 18:12:15 | 01:24:54 | 00:00:00 | |
| DL1XH-west | 2026-09-03 12:14:15 | 56.32403 | 4.95523 | 113° | 44km/h | 17704m | 4.2m/s | -50.8°C | 0.6% | 82.3hPa | 2.6V | 18:12:15 | 01:24:51 | 00:00:00 | |
| BIOWL1-15 | 2026-09-03 12:14:08 | 56.32441 | 4.95336 | 110° | 51km/h | 17661m | 4.9m/s | 0°C | 0% | 0hPa | 2.6V | 18:12:15 | 01:24:42 | 00:00:00 | |
| DL1XH-west | 2026-09-03 12:14:05 | 56.32450 | 4.95292 | 108° | 51km/h | 17651m | 5.5m/s | -51.1°C | 0.7% | 83hPa | 2.5V | 18:12:15 | 01:24:40 | 00:00:00 | |
| BIOWL1-15 | 2026-09-03 12:13:58 | 56.32475 | 4.95124 | 106° | 46km/h | 17612m | 4.9m/s | 0°C | 0% | 0hPa | 2.7V | 18:12:15 | 01:24:32 | 00:00:00 | |
| DL1XH-west | 2026-09-03 12:13:53 | 56.32486 | 4.95064 | 111° | 47km/h | 17597m | 3.8m/s | -50.7°C | 0.6% | 83.7hPa | 2.5V | 18:12:15 | 01:24:29 | 00:00:00 | |
| DL1XH-west | 2026-09-03 12:13:42 | 56.32532 | 4.94820 | 107° | 55km/h | 17540m | 4.8m/s | -50.3°C | 0.5% | 84.4hPa | 2.6V | 18:12:15 | 01:24:18 | 00:00:00 | |
| DM0DOS-11 | 2026-09-03 12:13:42 | 56.32553 | 4.94711 | 112° | 51km/h | 17515m | 4m/s | -50.6°C | 3.7% | 84.8hPa | 2.6V | 08:30:00 | 01:24:13 | 00:00:00 | |
| DL1XH-west | 2026-09-03 12:13:32 | 56.32574 | 4.94599 | 104° | 58km/h | 17490m | 4.5m/s | -50.9°C | 0.6% | 85hPa | 2.6V | 18:12:15 | 01:24:08 | 00:00:00 | |
| DL1XH-west | 2026-09-03 12:13:22 | 56.32613 | 4.94338 | 108° | 60km/h | 17441m | 3.4m/s | -50.8°C | 0.6% | 85.7hPa | 2.5V | 18:12:15 | 01:23:58 | 00:00:00 | |
| DL1XH-west | 2026-09-03 12:13:11 | 56.32651 | 4.94037 | 109° | 60km/h | 17389m | 5.4m/s | -51°C | 0.7% | 86.3hPa | 2.6V | 18:12:15 | 01:23:47 | 00:00:00 | |
| DJ2DS-15 | 2026-09-03 12:13:08 | 56.32665 | 4.93959 | 110° | 68km/h | 17375m | 4.8m/s | -50.8°C | 3.9% | 86.5hPa | 2.5V | 00:00:00 | 01:23:44 | 00:00:00 | |
| DM0DOS-11 | 2026-09-03 12:13:02 | 56.32708 | 4.93624 | 107° | 64km/h | 17324m | 5.3m/s | -50.4°C | 3.8% | 87.3hPa | 2.5V | 08:30:00 | 01:23:33 | 00:00:00 | |
| DL1XH-west | 2026-09-03 12:13:01 | 56.32694 | 4.93712 | 102° | 69km/h | 17338m | 3.8m/s | -50.5°C | 0.7% | 87.1hPa | 2.7V | 18:12:15 | 01:23:36 | 00:00:00 | |
| DM0DOS-11 | 2026-09-03 12:12:52 | 56.32741 | 4.93327 | 100° | 68km/h | 17276m | 4.4m/s | -50°C | 3.7% | 87.9hPa | 2.7V | 08:30:00 | 01:23:23 | 00:00:00 | |
| DL1XH-west | 2026-09-03 12:12:49 | 56.32735 | 4.93391 | 98° | 71km/h | 17286m | 4.9m/s | -50.1°C | 0.6% | 87.8hPa | 2.6V | 18:12:15 | 01:23:25 | 00:00:00 | |
| DJ2DS-15 | 2026-09-03 12:12:48 | 56.32738 | 4.93358 | 100° | 64km/h | 17281m | 3.6m/s | -49.9°C | 3.7% | 87.8hPa | 2.7V | 00:00:00 | 01:23:24 | 00:00:00 | |
| DM0DOS-11 | 2026-09-03 12:12:42 | 56.32774 | 4.93045 | 99° | 69km/h | 17230m | 3.7m/s | -49.7°C | 3.6% | 88.5hPa | 2.7V | 08:30:00 | 01:23:13 | 00:00:00 | |
| DL1XH-west | 2026-09-03 12:12:39 | 56.32771 | 4.93076 | 99° | 68km/h | 17234m | 5.2m/s | -49.7°C | 0.5% | 88.5hPa | 2.6V | 18:12:15 | 01:23:14 | 00:00:00 | |
| DM0DOS-11 | 2026-09-03 12:12:32 | 56.32805 | 4.92760 | 103° | 62km/h | 17182m | 4m/s | -50.1°C | 3.8% | 89.2hPa | 2.6V | 08:30:00 | 01:23:03 | 00:00:00 | |
| DL1XH-west | 2026-09-03 12:12:28 | 56.32801 | 4.92787 | 106° | 62km/h | 17187m | 4.3m/s | -50.2°C | 0.6% | 89.1hPa | 2.6V | 18:12:15 | 01:23:04 | 00:00:00 | |
| BIOWL1-15 | 2026-09-03 12:12:28 | 56.32808 | 4.92733 | 101° | 62km/h | 17178m | 4.6m/s | -50.1°C | 0.6% | 89.3hPa | 2.5V | 18:12:15 | 01:23:02 | 00:00:00 | |
| DJ2DS-15 | 2026-09-03 12:12:28 | 56.32801 | 4.92787 | 106° | 64km/h | 17187m | 4.3m/s | -50.1°C | 3.8% | 89.1hPa | 2.7V | 00:00:00 | 01:23:04 | 00:00:00 | |
| BIOWL9-15 | 2026-09-03 12:12:24 | 56.32813 | 4.92677 | 98° | 62km/h | 17169m | 4.5m/s | -50.2°C | 1.3% | 89.4hPa | 2.7V | 00:00:00 | 00:00:00 | 00:00:00 | |
| DM0DOS-11 | 2026-09-03 12:12:22 | 56.32821 | 4.92474 | 93° | 64km/h | 17135m | 4m/s | -50.1°C | 3.7% | 89.8hPa | 2.7V | 08:30:00 | 01:22:53 | 00:00:00 | |
| BIOWL1-15 | 2026-09-03 12:12:19 | 56.32822 | 4.92417 | 91° | 62km/h | 17125m | 3.8m/s | -50°C | 0.5% | 90hPa | 2.6V | 18:12:15 | 01:22:51 | 00:00:00 | |
| DL1XH-west | 2026-09-03 12:12:17 | 56.32821 | 4.92474 | 94° | 64km/h | 17135m | 4m/s | -50.1°C | 0.6% | 89.8hPa | 2.7V | 18:12:15 | 01:22:53 | 00:00:00 | |
| DM0DOS-11 | 2026-09-03 12:12:12 | 56.32837 | 4.92184 | 99° | 66km/h | 17090m | 3.7m/s | -49.7°C | 3.6% | 90.5hPa | 2.6V | 08:30:00 | 01:22:43 | 00:00:00 | |
| DL1XH-west | 2026-09-03 12:12:06 | 56.32840 | 4.92155 | 100° | 64km/h | 17085m | 4.9m/s | -49.7°C | 0.5% | 90.5hPa | 2.6V | 18:12:15 | 01:22:42 | 00:00:00 | |
| DM0DOS-11 | 2026-09-03 12:12:02 | 56.32867 | 4.91914 | 105° | 60km/h | 17044m | 3.6m/s | -50.1°C | 3.7% | 91.1hPa | 2.7V | 08:30:00 | 01:22:33 | 00:00:00 | |
| BIOWL1-15 | 2026-09-03 12:12:00 | 56.32857 | 4.91993 | 102° | 58km/h | 17057m | 3.7m/s | -50.1°C | 0.6% | 90.9hPa | 2.6V | 18:12:15 | 01:22:36 | 00:00:00 | |
| DL1XH-west | 2026-09-03 12:11:56 | 56.32871 | 4.91888 | 104° | 58km/h | 17039m | 5.1m/s | -50.2°C | 0.6% | 91.2hPa | 2.6V | 18:12:15 | 01:22:32 | 00:00:00 | |
| BIOWL1-15 | 2026-09-03 12:11:49 | 56.32895 | 4.91704 | 101° | 62km/h | 17008m | 3.9m/s | -50.3°C | 0.6% | 91.6hPa | 2.7V | 18:12:15 | 01:22:25 | 00:00:00 | |
| DJ2DS-15 | 2026-09-03 12:11:48 | 56.32898 | 4.91676 | 102° | 64km/h | 17004m | 5.0m/s | -50.4°C | 3.7% | 91.6hPa | 2.7V | 00:00:00 | 01:22:24 | 00:00:00 | |
| DM0DOS-11 | 2026-09-03 12:11:47 | 56.32905 | 4.91619 | 101° | 66km/h | 16995m | 3.6m/s | -50.5°C | 3.8% | 91.8hPa | 2.7V | 08:30:00 | 01:22:22 | 00:00:00 | |
| DL1XH-west | 2026-09-03 12:11:46 | 56.32908 | 4.91590 | 100° | 66km/h | 16990m | 5.2m/s | -50.5°C | 0.6% | 91.9hPa | 2.7V | 18:12:15 | 01:22:21 | 00:00:00 | |
| BIOWL1-15 | 2026-09-03 12:11:38 | 56.32928 | 4.91330 | 96° | 64km/h | 16951m | 3.8m/s | -50.7°C | 0.7% | 92.5hPa | 2.6V | 18:12:15 | 01:22:12 | 00:00:00 | |
| DM0DOS-11 | 2026-09-03 12:11:37 | 56.32928 | 4.91330 | 96° | 64km/h | 16951m | 3.8m/s | -50.7°C | 3.8% | 92.4hPa | 2.6V | 08:30:00 | 01:22:12 | 00:00:00 | |
| DL1XH-west | 2026-09-03 12:11:35 | 56.32930 | 4.91272 | 92° | 64km/h | 16941m | 3.9m/s | -50.8°C | 0.7% | 92.5hPa | 2.7V | 18:12:15 | 01:22:10 | 00:00:00 | |
| DM0DOS-11 | 2026-09-03 12:11:31 | 56.32936 | 4.91033 | 90° | 69km/h | 16905m | 4.8m/s | -50.8°C | 3.9% | 93.1hPa | 2.6V | 08:30:00 | 01:22:02 | 00:00:00 | |
| BIOWL1-15 | 2026-09-03 12:11:26 | 56.32936 | 4.91033 | 91° | 69km/h | 16905m | 4.8m/s | -50.8°C | 0.7% | 93.1hPa | 2.6V | 18:12:15 | 01:22:02 | 00:00:00 | |
| DL1XH-west | 2026-09-03 12:11:25 | 56.32936 | 4.90969 | 89° | 71km/h | 16895m | 4.3m/s | -50.7°C | 0.7% | 93.2hPa | 2.6V | 18:12:15 | 01:22:00 | 00:00:00 | |
| BIOWL9-15 | 2026-09-03 12:11:22 | 56.32935 | 4.90903 | 88° | 71km/h | 16886m | 4.0m/s | -50.7°C | 1.3% | 93.3hPa | 2.7V | 00:00:00 | 00:00:00 | 00:00:00 | |
| DM0DOS-11 | 2026-09-03 12:11:20 | 56.32931 | 4.90709 | 86° | 69km/h | 16858m | 3.5m/s | -50.7°C | 3.9% | 93.7hPa | 2.7V | 08:30:00 | 01:21:52 | 00:00:00 | |
| BIOWL1-15 | 2026-09-03 12:11:16 | 56.32931 | 4.90709 | 86° | 69km/h | 16858m | 3.5m/s | -50.7°C | 0.7% | 93.7hPa | 2.7V | 18:12:15 | 01:21:52 | 00:00:00 | |
| DL1XH-west | 2026-09-03 12:11:14 | 56.32929 | 4.90617 | 88° | 66km/h | 16845m | 2.9m/s | -50.7°C | 0.7% | 93.9hPa | 2.6V | 18:12:15 | 01:21:49 | 00:00:00 | |
| DM0DOS-11 | 2026-09-03 12:11:10 | 56.32919 | 4.90407 | 81° | 66km/h | 16814m | 3.2m/s | -50.5°C | 3.9% | 94.4hPa | 2.7V | 08:30:00 | 01:21:42 | 00:00:00 | |
| BIOWL1-15 | 2026-09-03 12:11:05 | 56.32917 | 4.90378 | 83° | 64km/h | 16810m | 3.7m/s | -50.5°C | 0.6% | 94.5hPa | 2.6V | 18:12:15 | 01:21:41 | 00:00:00 | |
| DL1XH-west | 2026-09-03 12:11:03 | 56.32914 | 4.90295 | 87° | 60km/h | 16797m | 5m/s | -50.4°C | 0.7% | 94.6hPa | 2.7V | 18:12:15 | 01:21:38 | 00:00:00 | |
| DM0DOS-11 | 2026-09-03 12:11:00 | 56.32912 | 4.90130 | 84° | 62km/h | 16771m | 3.2m/s | -50.2°C | 3.8% | 95hPa | 2.6V | 08:30:00 | 01:21:32 | 00:00:00 | |
| BIOWL1-15 | 2026-09-03 12:10:55 | 56.32903 | 4.89864 | 88° | 53km/h | 16727m | 3.6m/s | -50°C | 0.7% | 95.7hPa | 2.7V | 18:12:15 | 01:21:22 | 00:00:00 | |
| DL1XH-west | 2026-09-03 12:10:53 | 56.32908 | 4.90018 | 86° | 62km/h | 16754m | 4.3m/s | -50.1°C | 0.6% | 95.2hPa | 2.7V | 18:12:15 | 01:21:28 | 00:00:00 | |
| BIOWL1-15 | 2026-09-03 12:10:44 | 56.32903 | 4.89815 | 91° | 55km/h | 16719m | 4.1m/s | -49.9°C | 0.7% | 95.8hPa | 2.5V | 18:12:15 | 01:21:20 | 00:00:00 | |
| DL1XH-west | 2026-09-03 12:10:42 | 56.32901 | 4.89737 | 86° | 58km/h | 16707m | 2.7m/s | -49.9°C | 0.6% | 96hPa | 2.7V | 18:12:15 | 01:21:17 | 00:00:00 | |
| DM0DOS-11 | 2026-09-03 12:10:35 | 56.32890 | 4.89509 | 83° | 51km/h | 16670m | 3.5m/s | -49.9°C | 3.8% | 96.5hPa | 2.6V | 08:30:00 | 01:21:08 | 00:00:00 | |
| BIOWL1-15 | 2026-09-03 12:10:34 | 56.32892 | 4.89557 | 86° | 55km/h | 16679m | 3.2m/s | -49.9°C | 0.7% | 96.3hPa | 2.7V | 18:12:15 | 01:21:10 | 00:00:00 | |
| DL1XH-west | 2026-09-03 12:10:32 | 56.32889 | 4.89485 | 85° | 53km/h | 16667m | 2.9m/s | -50°C | 0.6% | 96.5hPa | 2.6V | 18:12:15 | 01:21:07 | 00:00:00 | |
| BIOWL1-15 | 2026-09-03 12:10:27 | 56.32882 | 4.89289 | 89° | 53km/h | 16633m | 4.4m/s | -50.1°C | 0.7% | 97hPa | 2.7V | 18:12:15 | 01:20:59 | 00:00:00 | |
| DJ2DS-15 | 2026-09-03 12:10:26 | 56.32884 | 4.89364 | 86° | 51km/h | 16645m | 4.2m/s | -49.9°C | 3.8% | 96.8hPa | 2.7V | 00:00:00 | 01:21:02 | 00:00:00 | |
| DM0DOS-11 | 2026-09-03 12:10:24 | 56.32882 | 4.89266 | 88° | 49km/h | 16629m | 3.5m/s | -50°C | 3.8% | 97.1hPa | 2.7V | 08:30:00 | 01:20:58 | 00:00:00 | |
| DL1XH-west | 2026-09-03 12:10:21 | 56.32882 | 4.89244 | 92° | 47km/h | 16625m | 3.8m/s | -50.1°C | 0.7% | 97.2hPa | 2.7V | 18:12:15 | 01:20:57 | 00:00:00 | |
| BIOWL9-15 | 2026-09-03 12:10:20 | 56.32883 | 4.89199 | 95° | 51km/h | 16616m | 3.2m/s | -50.0°C | 1.3% | 97.3hPa | 2.7V | 00:00:00 | 00:00:00 | 00:00:00 | |
| DM0DOS-11 | 2026-09-03 12:10:15 | 56.32886 | 4.88987 | 89° | 53km/h | 16579m | 3.3m/s | -49.9°C | 3.7% | 97.9hPa | 2.7V | 08:30:00 | 01:20:46 | 00:00:00 | |
| BIOWL1-15 | 2026-09-03 12:10:13 | 56.32888 | 4.89057 | 89° | 51km/h | 16591m | 4.7m/s | -49.9°C | 0.7% | 97.7hPa | 2.7V | 18:12:15 | 01:20:49 | 00:00:00 | |
| DL1XH-west | 2026-09-03 12:10:11 | 56.32887 | 4.89011 | 87° | 51km/h | 16583m | 4m/s | -49.9°C | 0.6% | 97.8hPa | 2.6V | 18:12:15 | 01:20:47 | 00:00:00 | |
| DJ2DS-15 | 2026-09-03 12:10:06 | 56.32888 | 4.88894 | 93° | 47km/h | 16563m | 4.9m/s | -49.8°C | 3.8% | 98.1hPa | 2.7V | 00:00:00 | 01:20:42 | 00:00:00 | |
| DM0DOS-11 | 2026-09-03 12:10:05 | 56.32891 | 4.88763 | 89° | 46km/h | 16536m | 4.2m/s | -49.7°C | 3.7% | 98.5hPa | 2.7V | 08:30:00 | 01:20:36 | 00:00:00 | |
| BIOWL1-15 | 2026-09-03 12:10:04 | 56.32890 | 4.88806 | 92° | 47km/h | 16544m | 4.7m/s | -49.7°C | 0.5% | 98.4hPa | 2.6V | 18:12:15 | 01:20:38 | 00:00:00 | |
| DL1XH-west | 2026-09-03 12:10:00 | 56.32891 | 4.88763 | 90° | 46km/h | 16536m | 4.2m/s | -49.7°C | 0.6% | 98.5hPa | 2.7V | 18:12:15 | 01:20:36 | 00:00:00 | |
| DM0DOS-11 | 2026-09-03 12:09:55 | 56.32888 | 4.88549 | 88° | 47km/h | 16493m | 4.6m/s | -49.5°C | 3.6% | 99.2hPa | 2.6V | 08:30:00 | 01:20:26 | 00:00:00 | |
| BIOWL1-15 | 2026-09-03 12:09:52 | 56.32888 | 4.88594 | 90° | 49km/h | 16502m | 4.7m/s | -49.5°C | 0.6% | 99hPa | 2.7V | 18:12:15 | 01:20:28 | 00:00:00 | |
| DL1XH-west | 2026-09-03 12:09:50 | 56.32888 | 4.88549 | 88° | 47km/h | 16493m | 4.6m/s | -49.5°C | 0.5% | 99.2hPa | 2.6V | 18:12:15 | 01:20:26 | 00:00:00 | |
| BIOWL9-15 | 2026-09-03 12:09:49 | 56.32887 | 4.88506 | 86° | 47km/h | 16485m | 4.6m/s | -49.5°C | 1.2% | 99.3hPa | 2.6V | 00:00:00 | 00:00:00 | 00:00:00 | |
| DJ2DS-15 | 2026-09-03 12:09:46 | 56.32886 | 4.88462 | 91° | 51km/h | 16476m | 4.8m/s | -49.5°C | 3.6% | 99.4hPa | 2.6V | 00:00:00 | 01:20:22 | 00:00:00 | |
| DM0DOS-11 | 2026-09-03 12:09:43 | 56.32888 | 4.88305 | 91° | 51km/h | 16445m | 4.2m/s | -49.7°C | 3.6% | 99.9hPa | 2.6V | 08:30:00 | 01:20:15 | 00:00:00 | |
| BIOWL1-15 | 2026-09-03 12:09:41 | 56.32888 | 4.88350 | 91° | 51km/h | 16454m | 4.5m/s | -49.7°C | 0.6% | 99.8hPa | 2.7V | 18:12:15 | 01:20:17 | 00:00:00 | |
| DL1XH-west | 2026-09-03 12:09:40 | 56.32888 | 4.88327 | 92° | 49km/h | 16450m | 4m/s | -49.7°C | 0.6% | 99.8hPa | 2.7V | 18:12:15 | 01:20:16 | 00:00:00 | |
| DM0DOS-11 | 2026-09-03 12:09:33 | 56.32898 | 4.88052 | 92° | 57km/h | 16397m | 3.9m/s | -50°C | 3.7% | 100.6hPa | 2.7V | 08:30:00 | 01:20:04 | 00:00:00 | |
| BIOWL1-15 | 2026-09-03 12:09:32 | 56.32896 | 4.88102 | 94° | 51km/h | 16406m | 3.1m/s | -50°C | 0.7% | 100.5hPa | 2.7V | 18:12:15 | 01:20:06 | 00:00:00 | |
| DL1XH-west | 2026-09-03 12:09:29 | 56.32897 | 4.88077 | 94° | 55km/h | 16402m | 4.5m/s | -50.1°C | 0.6% | 100.5hPa | 2.7V | 18:12:15 | 01:20:05 | 00:00:00 | |
| DJ2DS-15 | 2026-09-03 12:09:26 | 56.32899 | 4.88003 | 93° | 53km/h | 16389m | 3.1m/s | -50.0°C | 3.7% | 100.7hPa | 2.6V | 00:00:00 | 01:20:02 | 00:00:00 | |
| DM0DOS-11 | 2026-09-03 12:09:23 | 56.32901 | 4.87786 | 92° | 51km/h | 16350m | 4.5m/s | -50.5°C | 3.9% | 101.4hPa | 2.6V | 08:30:00 | 01:19:53 | 00:00:00 | |
| BIOWL1-15 | 2026-09-03 12:09:19 | 56.32901 | 4.87834 | 89° | 53km/h | 16359m | 4.2m/s | -50.5°C | 0.7% | 101.2hPa | 2.7V | 18:12:15 | 01:19:55 | 00:00:00 | |
| DL1XH-west | 2026-09-03 12:09:18 | 56.32900 | 4.87810 | 90° | 53km/h | 16354m | 4.2m/s | -50.6°C | 0.7% | 101.3hPa | 2.7V | 18:12:15 | 01:19:54 | 00:00:00 | |
| BIOWL9-15 | 2026-09-03 12:09:18 | 56.32901 | 4.87786 | 92° | 51km/h | 16350m | 4.5m/s | -50.5°C | 1.3% | 101.4hPa | 2.7V | 00:00:00 | 00:00:00 | 00:00:00 | |
| DJ2DS-15 | 2026-09-03 12:09:16 | 56.32903 | 4.87739 | 95° | 53km/h | 16342m | 4.5m/s | -50.5°C | 1.3% | 101.5hPa | 2.7V | 00:00:00 | 00:00:00 | 00:00:00 | |
| DM0DOS-11 | 2026-09-03 12:09:12 | 56.32907 | 4.87552 | 95° | 49km/h | 16306m | 4.3m/s | -50.4°C | 3.8% | 102.1hPa | 2.7V | 08:30:00 | 01:19:43 | 00:00:00 | |
| BIOWL1-15 | 2026-09-03 12:09:08 | 56.32918 | 4.87373 | 95° | 49km/h | 16270m | 3.7m/s | -50.3°C | 0.7% | 102.6hPa | 2.7V | 18:12:15 | 01:19:35 | 00:00:00 | |
| DL1XH-west | 2026-09-03 12:09:08 | 56.32907 | 4.87575 | 92° | 49km/h | 16310m | 3.8m/s | -50.4°C | 0.6% | 102hPa | 2.6V | 18:12:15 | 01:19:44 | 00:00:00 | |
| DJ2DS-15 | 2026-09-03 12:09:06 | 56.32908 | 4.87530 | 96° | 49km/h | 16301m | 3.7m/s | -50.3°C | 3.8% | 102.1hPa | 2.7V | 00:00:00 | 01:19:42 | 08:30:00 | |
| DM0DOS-11 | 2026-09-03 12:09:02 | 56.32921 | 4.87330 | 99° | 46km/h | 16260m | 3.7m/s | -50.4°C | 3.8% | 102.8hPa | 2.6V | 08:30:00 | 01:19:33 | 00:00:00 | |
| DL1XH-west | 2026-09-03 12:08:57 | 56.32921 | 4.87330 | 99° | 46km/h | 16260m | 3.7m/s | -50.4°C | 0.7% | 102.8hPa | 2.6V | 18:12:15 | 01:19:33 | 00:00:00 | |
| BIOWL1-15 | 2026-09-03 12:08:54 | 56.32925 | 4.87266 | 96° | 49km/h | 16247m | 3.5m/s | -50.7°C | 0.8% | 103hPa | 2.7V | 18:12:15 | 01:19:30 | 00:00:00 | |
| DM0DOS-11 | 2026-09-03 12:08:52 | 56.32945 | 4.87108 | 106° | 49km/h | 16215m | 4.3m/s | -50.5°C | 3.9% | 103.5hPa | 2.7V | 08:30:00 | 01:19:23 | 00:00:00 | |
| DL1XH-west | 2026-09-03 12:08:47 | 56.32949 | 4.87086 | 107° | 51km/h | 16210m | 4.8m/s | -50.5°C | 0.7% | 103.6hPa | 2.5V | 18:12:15 | 01:19:22 | 00:00:00 | |
| BIOWL1-15 | 2026-09-03 12:08:44 | 56.32956 | 4.87042 | 107° | 49km/h | 16202m | 4.8m/s | -50.4°C | 0.7% | 103.7hPa | 2.6V | 18:12:15 | 01:19:20 | 00:00:00 | |
| DM0DOS-11 | 2026-09-03 12:08:40 | 56.32980 | 4.86879 | 104° | 57km/h | 16169m | 4.4m/s | -50.2°C | 3.9% | 104.2hPa | 2.7V | 08:30:00 | 01:19:13 | 00:00:00 | |
| BIOWL1-15 | 2026-09-03 12:08:37 | 56.32994 | 4.86780 | 104° | 55km/h | 16151m | 3.3m/s | -50.2°C | 0.7% | 104.5hPa | 2.6V | 18:12:15 | 01:19:09 | 00:00:00 | |
| DL1XH-west | 2026-09-03 12:08:36 | 56.32986 | 4.86829 | 104° | 57km/h | 16160m | 4m/s | -50.2°C | 0.7% | 104.3hPa | 2.7V | 18:12:15 | 01:19:11 | 00:00:00 | |
| DM0DOS-11 | 2026-09-03 12:08:30 | 56.33011 | 4.86636 | 101° | 51km/h | 16124m | 4.6m/s | -50°C | 3.8% | 105hPa | 2.6V | 08:30:00 | 01:19:03 | 00:00:00 | |
| DL1XH-west | 2026-09-03 12:08:24 | 56.33020 | 4.86566 | 103° | 55km/h | 16110m | 3.2m/s | -50.1°C | 0.7% | 105.2hPa | 2.7V | 18:12:15 | 01:19:00 | 00:00:00 | |
| BIOWL1-15 | 2026-09-03 12:08:23 | 56.33022 | 4.86541 | 100° | 57km/h | 16106m | 4.1m/s | -50.1°C | 0.7% | 105.2hPa | 2.7V | 18:12:15 | 01:18:59 | 00:00:00 | |
| DM0DOS-11 | 2026-09-03 12:08:18 | 56.33034 | 4.86389 | 95° | 53km/h | 16079m | 4.3m/s | -50°C | 3.8% | 105.7hPa | 2.7V | 08:30:00 | 01:18:53 | 00:00:00 | |
| DL1XH-west | 2026-09-03 12:08:13 | 56.33039 | 4.86288 | 95° | 58km/h | 16061m | 4.3m/s | -50.1°C | 0.6% | 106hPa | 2.7V | 18:12:15 | 01:18:49 | 00:00:00 | |
| BIOWL1-15 | 2026-09-03 12:08:12 | 56.33041 | 4.86262 | 93° | 57km/h | 16056m | 5m/s | -50.1°C | 0.7% | 106.1hPa | 2.6V | 18:12:15 | 01:18:48 | 00:00:00 | |
| BIOWL1-15 | 2026-09-03 12:08:02 | 56.33047 | 4.86008 | 88° | 57km/h | 16009m | 4.2m/s | -50.1°C | 0.6% | 106.8hPa | 2.7V | 18:12:15 | 01:18:38 | 00:00:00 | |
| BIOWL7-15 | 2026-09-03 12:07:55 | 56.33041 | 4.85851 | 88° | 55km/h | 15982m | 4.1m/s | 0°C | 0% | 0hPa | 2.6V | 00:00:00 | 00:00:00 | 00:00:00 | |
| DM0DOS-11 | 2026-09-03 12:07:52 | 56.33039 | 4.85625 | 90° | 53km/h | 15938m | 3.9m/s | -50°C | 3.8% | 108hPa | 2.6V | 08:30:00 | 01:18:23 | 00:00:00 | |
| DL1XH-west | 2026-09-03 12:07:51 | 56.33039 | 4.85725 | 89° | 57km/h | 15957m | 4.6m/s | -50°C | 0.6% | 107.6hPa | 2.6V | 18:12:15 | 01:18:27 | 00:00:00 | |
| BIOWL9-15 | 2026-09-03 12:07:45 | 56.33040 | 4.85552 | 91° | 53km/h | 15925m | 4.2m/s | -50.0°C | 1.3% | 108.2hPa | 2.7V | 00:00:00 | 00:00:00 | 00:00:00 | |
| DM0DOS-11 | 2026-09-03 12:07:42 | 56.33045 | 4.85385 | 95° | 57km/h | 15896m | 3.4m/s | -49.8°C | 3.7% | 108.7hPa | 2.7V | 08:30:00 | 01:18:13 | 00:00:00 | |
| DL1XH-west | 2026-09-03 12:07:41 | 56.33041 | 4.85482 | 93° | 51km/h | 15913m | 4.2m/s | -49.9°C | 0.7% | 108.4hPa | 2.6V | 18:12:15 | 01:18:17 | 00:00:00 | |
| BIOWL1-15 | 2026-09-03 12:07:40 | 56.33041 | 4.85458 | 94° | 51km/h | 15909m | 3.8m/s | -49.9°C | 0.6% | 108.5hPa | 2.6V | 18:12:15 | 01:18:16 | 00:00:00 | |
| DM0DOS-11 | 2026-09-03 12:07:32 | 56.33068 | 4.85119 | 104° | 55km/h | 15847m | 4.1m/s | -49.6°C | 3.8% | 109.5hPa | 2.7V | 08:30:00 | 01:18:02 | 00:00:00 | |
| DL1XH-west | 2026-09-03 12:07:30 | 56.33058 | 4.85213 | 102° | 51km/h | 15865m | 3.7m/s | -49.7°C | 0.6% | 109.2hPa | 2.7V | 18:12:15 | 01:18:06 | 00:00:00 | |
| BIOWL1-15 | 2026-09-03 12:07:30 | 56.33068 | 4.85119 | 104° | 55km/h | 15847m | 4.1m/s | -49.6°C | 0.7% | 109.5hPa | 2.7V | 18:12:15 | 01:18:02 | 00:00:00 | |
| DJ2DS-15 | 2026-09-03 12:07:27 | 56.33065 | 4.85143 | 102° | 53km/h | 15851m | 4.1m/s | -49.6°C | 1.3% | 109.4hPa | 2.6V | 00:00:00 | 00:00:00 | 00:00:00 | |
| DJ2DS-15 | 2026-09-03 12:07:26 | 56.33068 | 4.85119 | 105° | 57km/h | 15847m | 4.1m/s | -49.5°C | 3.8% | 109.5hPa | 2.6V | 00:00:00 | 01:18:02 | 00:00:00 | |
| DM0DOS-11 | 2026-09-03 12:07:21 | 56.33099 | 4.84900 | 105° | 58km/h | 15804m | 4m/s | -49.5°C | 3.7% | 110.2hPa | 2.6V | 08:30:00 | 01:17:53 | 00:00:00 | |
| DL1XH-west | 2026-09-03 12:07:20 | 56.33090 | 4.84976 | 104° | 57km/h | 15818m | 5.2m/s | -49.5°C | 0.6% | 110hPa | 2.7V | 18:12:15 | 01:17:56 | 00:00:00 | |
| BIOWL1-15 | 2026-09-03 12:07:16 | 56.33103 | 4.84874 | 106° | 58km/h | 15801m | 4m/s | -49.5°C | 0.6% | 110.3hPa | 2.6V | 18:12:15 | 01:17:52 | 00:00:00 | |
| BIOWL9-15 | 2026-09-03 12:07:14 | 56.33114 | 4.84800 | 105° | 55km/h | 15787m | 4.8m/s | -49.4°C | 1.3% | 110.5hPa | 2.7V | 00:00:00 | 00:00:00 | 00:00:00 | |
| DM0DOS-11 | 2026-09-03 12:07:11 | 56.33143 | 4.84654 | 111° | 58km/h | 15760m | 4.3m/s | -49.3°C | 3.7% | 111hPa | 2.7V | 08:30:00 | 01:17:43 | 00:00:00 | |
| DL1XH-west | 2026-09-03 12:07:09 | 56.33133 | 4.84703 | 109° | 57km/h | 15769m | 3m/s | -49.3°C | 0.6% | 110.9hPa | 2.6V | 18:12:15 | 01:17:45 | 00:00:00 | |
| BIOWL1-15 | 2026-09-03 12:07:06 | 56.33149 | 4.84629 | 111° | 57km/h | 15756m | 4.5m/s | -49.3°C | 0.6% | 111.1hPa | 2.7V | 18:12:15 | 01:17:42 | 00:00:00 | |
| DJ2DS-15 | 2026-09-03 12:07:06 | 56.33149 | 4.84629 | 112° | 64km/h | 15756m | 4.5m/s | -49.2°C | 3.7% | 111.0hPa | 2.7V | 00:00:00 | 01:17:42 | 00:00:00 | |
| DM0DOS-11 | 2026-09-03 12:07:01 | 56.33198 | 4.84397 | 112° | 64km/h | 15716m | 4.8m/s | -49.2°C | 3.6% | 111.7hPa | 2.6V | 08:30:00 | 01:17:33 | 00:00:00 | |
| DL1XH-west | 2026-09-03 12:06:58 | 56.33192 | 4.84424 | 110° | 64km/h | 15721m | 3.4m/s | -49.2°C | 0.6% | 111.7hPa | 2.6V | 18:12:15 | 01:17:34 | 00:00:00 | |
| BIOWL1-15 | 2026-09-03 12:06:55 | 56.33211 | 4.84341 | 112° | 66km/h | 15707m | 5m/s | -49.1°C | 0.5% | 111.9hPa | 2.7V | 18:12:15 | 01:17:31 | 00:00:00 | |
| DM0DOS-11 | 2026-09-03 12:06:51 | 56.33265 | 4.84123 | 115° | 69km/h | 15670m | 3.6m/s | -48.9°C | 3.5% | 112.5hPa | 2.7V | 08:30:00 | 01:17:23 | 00:00:00 | |
| DL1XH-west | 2026-09-03 12:06:48 | 56.33258 | 4.84151 | 115° | 68km/h | 15675m | 5.1m/s | -48.9°C | 0.5% | 112.4hPa | 2.6V | 18:12:15 | 01:17:24 | 00:00:00 | |
| BIOWL1-15 | 2026-09-03 12:06:47 | 56.33294 | 4.84003 | 114° | 73km/h | 15652m | 4.7m/s | 0°C | 0% | 112.8hPa | 2.7V | 18:12:15 | 01:17:19 | 00:00:00 | |
| DJ2DS-15 | 2026-09-03 12:06:46 | 56.33273 | 4.84093 | 114° | 73km/h | 15666m | 5.2m/s | -48.8°C | 3.5% | 112.6hPa | 2.6V | 00:00:00 | 01:17:22 | 00:00:00 | |
| BIOWL9-15 | 2026-09-03 12:06:43 | 56.33302 | 4.83973 | 113° | 71km/h | 15648m | 3.6m/s | -48.9°C | 1.2% | 112.9hPa | 2.6V | 00:00:00 | 00:00:00 | 00:00:00 | |
| DM0DOS-11 | 2026-09-03 12:06:41 | 56.33337 | 4.83824 | 115° | 71km/h | 15626m | 3.6m/s | -49°C | 3.5% | 113.3hPa | 2.6V | 08:30:00 | 01:17:13 | 00:00:00 | |
| DL1XH-west | 2026-09-03 12:06:37 | 56.33338 | 4.83824 | 116° | 71km/h | 15626m | 3.6m/s | -49°C | 0.5% | 113.3hPa | 2.6V | 18:12:15 | 01:17:13 | 00:00:00 | |
| BIOWL1-15 | 2026-09-03 12:06:33 | 56.33366 | 4.83704 | 112° | 71km/h | 15608m | 4.6m/s | 0°C | 0% | 113.6hPa | 2.7V | 18:12:15 | 01:17:09 | 00:00:00 | |
| DM0DOS-11 | 2026-09-03 12:06:31 | 56.33407 | 4.83514 | 112° | 77km/h | 15581m | 4.8m/s | -49.8°C | 3.7% | 114.1hPa | 2.7V | 08:30:00 | 01:17:03 | 00:00:00 | |
| DL1XH-west | 2026-09-03 12:06:26 | 56.33414 | 4.83482 | 111° | 77km/h | 15576m | 4.5m/s | -49.8°C | 0.6% | 114.1hPa | 2.6V | 18:12:15 | 01:17:02 | 00:00:00 | |
| BIOWL1-15 | 2026-09-03 12:06:22 | 56.33442 | 4.83343 | 108° | 84km/h | 15559m | 3.9m/s | 0°C | 0% | 114.4hPa | 2.7V | 18:12:15 | 01:16:58 | 00:00:00 | |
| DM0DOS-11 | 2026-09-03 12:06:21 | 56.33471 | 4.83158 | 104° | 86km/h | 15536m | 4.4m/s | -50.2°C | 3.8% | 114.8hPa | 2.7V | 08:30:00 | 01:16:53 | 00:00:00 | |
| DL1XH-west | 2026-09-03 12:06:15 | 56.33482 | 4.83082 | 104° | 88km/h | 15526m | 5m/s | -50.3°C | 0.7% | 115hPa | 2.7V | 18:12:15 | 01:16:51 | 00:00:00 | |
| BIOWL1-15 | 2026-09-03 12:06:12 | 56.33504 | 4.82893 | 102° | 80km/h | 15503m | 4m/s | 0°C | 0% | 115.4hPa | 2.7V | 18:12:15 | 01:16:46 | 00:00:00 | |
| DM0DOS-11 | 2026-09-03 12:06:11 | 56.33514 | 4.82786 | 98° | 78km/h | 15490m | 3.5m/s | -50.2°C | 3.8% | 115.6hPa | 2.6V | 08:30:00 | 01:16:43 | 00:00:00 | |
| DL1XH-west | 2026-09-03 12:06:04 | 56.33523 | 4.82681 | 97° | 80km/h | 15476m | 4.9m/s | -50.3°C | 0.7% | 115.9hPa | 2.7V | 18:12:15 | 01:16:40 | 00:00:00 | |
| DM0DOS-11 | 2026-09-03 12:06:01 | 56.33538 | 4.82430 | 94° | 75km/h | 15447m | 4m/s | -50.2°C | 3.8% | 116.4hPa | 2.7V | 08:30:00 | 01:16:33 | 00:00:00 | |
| BIOWL1-15 | 2026-09-03 12:05:59 | 56.33535 | 4.82499 | 95° | 77km/h | 15456m | 3.8m/s | 0°C | 0% | 116.2hPa | 2.7V | 18:12:15 | 01:16:35 | 00:00:00 | |
| DL1XH-west | 2026-09-03 12:05:53 | 56.33543 | 4.82294 | 92° | 77km/h | 15431m | 3.6m/s | -50.1°C | 0.7% | 116.8hPa | 2.7V | 18:12:15 | 01:16:29 | 00:00:00 | |
| BIOWL1-15 | 2026-09-03 12:05:48 | 56.33546 | 4.82125 | 90° | 75km/h | 15409m | 3.8m/s | 0°C | 0% | 117.1hPa | 2.6V | 18:12:15 | 01:16:24 | 00:00:00 | |
| DL1XH-west | 2026-09-03 12:05:42 | 56.33548 | 4.81919 | 92° | 77km/h | 15383m | 3.7m/s | -50°C | 0.6% | 117.6hPa | 2.6V | 18:12:15 | 01:16:18 | 00:00:00 | |
| BIOWL1-15 | 2026-09-03 12:05:37 | 56.33543 | 4.81610 | 86° | 71km/h | 15347m | 3.6m/s | 0°C | 0% | 0hPa | 2.7V | 18:12:15 | 01:16:09 | 00:00:00 | |
| DL1XH-west | 2026-09-03 12:05:31 | 56.33541 | 4.81545 | 86° | 73km/h | 15339m | 3.3m/s | -50.1°C | 0.7% | 118.4hPa | 2.6V | 18:12:15 | 01:16:07 | 00:00:00 | |
| BIOWL1-15 | 2026-09-03 12:05:27 | 56.33532 | 4.81284 | 89° | 71km/h | 15305m | 3.8m/s | 0°C | 0% | 0hPa | 2.6V | 18:12:15 | 01:15:59 | 00:00:00 | |
| DL1XH-west | 2026-09-03 12:05:21 | 56.33530 | 4.81219 | 86° | 73km/h | 15297m | 4.4m/s | -50.4°C | 0.8% | 119.1hPa | 2.7V | 18:12:15 | 01:15:57 | 00:00:00 | |
| BIOWL1-15 | 2026-09-03 12:05:14 | 56.33526 | 4.80982 | 88° | 78km/h | 15268m | 4.6m/s | 0°C | 0% | 0hPa | 2.7V | 18:12:15 | 01:15:50 | 00:00:00 | |
| DL1XH-west | 2026-09-03 12:05:11 | 56.33523 | 4.80877 | 86° | 77km/h | 15255m | 3.6m/s | -50.4°C | 0.7% | 119.9hPa | 2.6V | 18:12:15 | 01:15:47 | 00:00:00 | |
| DL1XH-west | 2026-09-03 12:05:01 | 56.33514 | 4.80549 | 87° | 71km/h | 15213m | 3.9m/s | -50.3°C | 0.7% | 120.7hPa | 2.7V | 18:12:15 | 01:15:37 | 00:00:00 | |
| DL1XH-west | 2026-09-03 12:04:50 | 56.33497 | 4.80204 | 87° | 66km/h | 15168m | 2.6m/s | -50.3°C | 0.7% | 121.5hPa | 2.7V | 18:12:15 | 01:15:26 | 00:00:00 | |
| DL1XH-west | 2026-09-03 12:04:40 | 56.33482 | 4.79900 | 86° | 64km/h | 15127m | 4m/s | -50.1°C | 0.8% | 122.3hPa | 2.6V | 18:12:15 | 01:15:16 | 00:00:00 | |
| DL1XH-west | 2026-09-03 12:04:29 | 56.33483 | 4.79583 | 93° | 66km/h | 15079m | 5.4m/s | -49.9°C | 0.8% | 123.2hPa | 2.6V | 18:12:15 | 01:15:05 | 00:00:00 | |
| DJ2DS-15 | 2026-09-03 12:04:26 | 56.33487 | 4.79495 | 94° | 68km/h | 15067m | 3.8m/s | -49.8°C | 3.7% | 123.4hPa | 2.6V | 00:00:00 | 01:15:02 | 00:00:00 | |
| DM0DOS-11 | 2026-09-03 12:04:20 | 56.33493 | 4.79169 | 92° | 69km/h | 15020m | 3.6m/s | -49.8°C | 3.8% | 124.4hPa | 2.6V | 08:30:00 | 01:14:51 | 00:00:00 | |
| DL1XH-west | 2026-09-03 12:04:19 | 56.33489 | 4.79290 | 92° | 62km/h | 15037m | 4.8m/s | -49.9°C | 0.7% | 124hPa | 2.7V | 18:12:15 | 01:14:55 | 00:00:00 | |
| DL1XH-west | 2026-09-03 12:04:09 | 56.33500 | 4.78978 | 95° | 71km/h | 14993m | 4.7m/s | -49.9°C | 0.8% | 124.9hPa | 2.6V | 18:12:15 | 01:14:45 | 00:00:00 | |
| DL1XH-west | 2026-09-03 12:03:58 | 56.33518 | 4.78641 | 98° | 66km/h | 14943m | 5.1m/s | -50.2°C | 0.8% | 125.9hPa | 2.6V | 18:12:15 | 01:14:34 | 00:00:00 | |
| DM0DOS-11 | 2026-09-03 12:03:57 | 56.33526 | 4.78550 | 99° | 69km/h | 14928m | 4.9m/s | -50.1°C | 3.9% | 126.1hPa | 2.7V | 08:30:00 | 01:14:31 | 00:00:00 | |
| DL1XH-west | 2026-09-03 12:03:48 | 56.33546 | 4.78326 | 99° | 71km/h | 14894m | 4.5m/s | -50.2°C | 0.8% | 126.8hPa | 2.7V | 18:12:15 | 01:14:24 | 00:00:00 | |
| DL1XH-west | 2026-09-03 12:03:38 | 56.33572 | 4.77951 | 98° | 77km/h | 14844m | 4.7m/s | -50.1°C | 0.7% | 127.8hPa | 2.7V | 18:12:15 | 01:14:13 | 00:00:00 | |
| DM0DOS-11 | 2026-09-03 12:03:34 | 56.33590 | 4.77674 | 93° | 78km/h | 14807m | 5.1m/s | -50.2°C | 3.8% | 128.5hPa | 2.6V | 08:30:00 | 01:14:05 | 00:00:00 | |
| DL1XH-west | 2026-09-03 12:03:28 | 56.33594 | 4.77602 | 96° | 82km/h | 14798m | 3.9m/s | -50.3°C | 0.8% | 128.7hPa | 2.6V | 18:12:15 | 01:14:03 | 00:00:00 | |
| DJ2DS-15 | 2026-09-03 12:03:26 | 56.33596 | 4.77565 | 97° | 80km/h | 14793m | 3.8m/s | -50.3°C | 3.8% | 128.7hPa | 2.6V | 00:00:00 | 01:14:02 | 00:00:00 | |
| DM0DOS-11 | 2026-09-03 12:03:22 | 56.33613 | 4.77236 | 92° | 78km/h | 14751m | 5.3m/s | -50.6°C | 4% | 129.6hPa | 2.6V | 08:30:00 | 01:13:53 | 00:00:00 | |
| DL1XH-west | 2026-09-03 12:03:17 | 56.33613 | 4.77236 | 93° | 78km/h | 14751m | 5.3m/s | -50.7°C | 0.9% | 129.6hPa | 2.6V | 18:12:15 | 01:13:53 | 00:00:00 | |
| DJ2DS-15 | 2026-09-03 12:03:15 | 56.33616 | 4.77128 | 93° | 77km/h | 14737m | 4.1m/s | -50.7°C | 1.4% | 129.9hPa | 2.6V | 00:00:00 | 00:00:00 | 00:00:00 | |
| DM0DOS-11 | 2026-09-03 12:03:07 | 56.33631 | 4.76771 | 93° | 80km/h | 14688m | 5.2m/s | -50.9°C | 4.1% | 130.8hPa | 2.6V | 08:30:00 | 01:13:40 | 00:00:00 | |
| DL1XH-west | 2026-09-03 12:03:07 | 56.33628 | 4.76844 | 95° | 80km/h | 14698m | 5.4m/s | -50.9°C | 0.9% | 130.7hPa | 2.7V | 18:12:15 | 01:13:42 | 00:00:00 | |
| DJ2DS-15 | 2026-09-03 12:03:06 | 56.33628 | 4.76844 | 95° | 77km/h | 14699m | 5.3m/s | -50.8°C | 4.0% | 130.6hPa | 2.7V | 00:00:00 | 01:13:42 | 08:30:00 | |
| DM0DOS-11 | 2026-09-03 12:02:57 | 56.33642 | 4.76415 | 93° | 78km/h | 14639m | 4.7m/s | -50.6°C | 4% | 131.9hPa | 2.7V | 08:30:00 | 01:13:30 | 00:00:00 | |
| DL1XH-west | 2026-09-03 12:02:55 | 56.33641 | 4.76450 | 94° | 78km/h | 14644m | 4.9m/s | -50.7°C | 0.8% | 131.8hPa | 2.7V | 18:12:15 | 01:13:31 | 00:00:00 | |
| DM0DOS-11 | 2026-09-03 12:02:47 | 56.33666 | 4.76040 | 98° | 78km/h | 14586m | 5m/s | -50.3°C | 3.9% | 132.9hPa | 2.7V | 08:30:00 | 01:13:19 | 00:00:00 | |
| DL1XH-west | 2026-09-03 12:02:45 | 56.33663 | 4.76075 | 97° | 78km/h | 14590m | 3.7m/s | -50.3°C | 0.8% | 132.8hPa | 2.7V | 18:12:15 | 01:13:20 | 00:00:00 | |
| DM0DOS-11 | 2026-09-03 12:02:37 | 56.33699 | 4.75660 | 102° | 80km/h | 14532m | 5.1m/s | -50.4°C | 3.9% | 134hPa | 2.7V | 08:30:00 | 01:13:08 | 00:00:00 | |
| DL1XH-west | 2026-09-03 12:02:34 | 56.33695 | 4.75695 | 103° | 80km/h | 14537m | 4.2m/s | -50.4°C | 0.9% | 133.9hPa | 2.6V | 18:12:15 | 01:13:09 | 00:00:00 | |
| DL1XH-west | 2026-09-03 12:02:22 | 56.33737 | 4.75299 | 101° | 86km/h | 14486m | 4.8m/s | -50.5°C | 0.8% | 135hPa | 2.6V | 18:12:15 | 01:12:58 | 00:00:00 | |
| DM0DOS-11 | 2026-09-03 12:02:15 | 56.33773 | 4.74986 | 100° | 86km/h | 14450m | 4.1m/s | -50.5°C | 4% | 135.7hPa | 2.7V | 08:30:00 | 01:12:50 | 00:00:00 | |
| DL1XH-west | 2026-09-03 12:02:12 | 56.33781 | 4.74909 | 99° | 84km/h | 14440m | 5.3m/s | -50.6°C | 1% | 135.9hPa | 2.7V | 18:12:15 | 01:12:48 | 00:00:00 | |
| DM0DOS-11 | 2026-09-03 12:02:09 | 56.33811 | 4.74574 | 101° | 84km/h | 14398m | 5m/s | -50.5°C | 3.9% | 136.8hPa | 2.6V | 08:30:00 | 01:12:39 | 00:00:00 | |
| DL1XH-west | 2026-09-03 12:02:02 | 56.33820 | 4.74499 | 103° | 86km/h | 14388m | 4.2m/s | -50.5°C | 0.8% | 137hPa | 2.7V | 18:12:15 | 01:12:37 | 00:00:00 | |
| DM0DOS-11 | 2026-09-03 12:01:55 | 56.33854 | 4.74232 | 103° | 86km/h | 14356m | 3.7m/s | -50.5°C | 3.9% | 137.7hPa | 2.7V | 08:30:00 | 01:12:30 | 00:00:00 | |
| DL1XH-west | 2026-09-03 12:01:52 | 56.33871 | 4.74116 | 106° | 89km/h | 14342m | 3.2m/s | -50.5°C | 0.8% | 138hPa | 2.6V | 18:12:15 | 01:12:27 | 00:00:00 | |
| DJ2DS-15 | 2026-09-03 12:01:46 | 56.33904 | 4.73914 | 106° | 88km/h | 14320m | 4.2m/s | -50.5°C | 4.0% | 138.4hPa | 2.6V | 00:00:00 | 01:12:22 | 00:00:00 | |
| DM0DOS-11 | 2026-09-03 12:01:44 | 56.33943 | 4.73636 | 105° | 89km/h | 14289m | 4.3m/s | -50.6°C | 4% | 139.2hPa | 2.6V | 08:30:00 | 01:12:15 | 00:00:00 | |
| DL1XH-west | 2026-09-03 12:01:41 | 56.33937 | 4.73675 | 105° | 88km/h | 14294m | 3.3m/s | -50.6°C | 1% | 139.1hPa | 2.6V | 18:12:15 | 01:12:16 | 00:00:00 | |
| DM0DOS-11 | 2026-09-03 12:01:34 | 56.34005 | 4.73251 | 105° | 84km/h | 14245m | 4.8m/s | -50.5°C | 4% | 140.1hPa | 2.6V | 08:30:00 | 01:12:05 | 00:00:00 | |
| DL1XH-west | 2026-09-03 12:01:30 | 56.34005 | 4.73251 | 105° | 84km/h | 14245m | 4.8m/s | -50.5°C | 0.9% | 140.1hPa | 2.6V | 18:12:15 | 01:12:05 | 00:00:00 | |
| DJ2DS-15 | 2026-09-03 12:01:26 | 56.34022 | 4.73142 | 107° | 86km/h | 14232m | 2.5m/s | -50.4°C | 3.9% | 140.3hPa | 2.7V | 00:00:00 | 01:12:02 | 00:00:00 | |
| DM0DOS-11 | 2026-09-03 12:01:24 | 56.34058 | 4.72881 | 103° | 86km/h | 14201m | 4m/s | -50.3°C | 3.9% | 0hPa | 2.7V | 08:30:00 | 01:11:55 | 00:00:00 | |
| DL1XH-west | 2026-09-03 12:01:20 | 56.34058 | 4.72881 | 104° | 86km/h | 14201m | 4m/s | -50.3°C | 0.8% | 141hPa | 2.7V | 18:12:15 | 01:11:55 | 00:00:00 | |
| DL1XH-west | 2026-09-03 12:01:10 | 56.34102 | 4.72539 | 101° | 86km/h | 14161m | 3.2m/s | -50.3°C | 0.9% | 141.9hPa | 2.6V | 18:12:15 | 01:11:46 | 00:00:00 | |
| DJ2DS-15 | 2026-09-03 12:01:06 | 56.34121 | 4.72382 | 103° | 86km/h | 14145m | 3.6m/s | -50.3°C | 3.9% | 142.2hPa | 2.7V | 00:00:00 | 01:11:42 | 00:00:00 | |
| DM0DOS-11 | 2026-09-03 12:01:05 | 56.34137 | 4.72263 | 103° | 89km/h | 14132m | 3.8m/s | -50.3°C | 0% | 0hPa | 2.6V | 08:30:00 | 01:11:39 | 00:00:00 | |
| DL1XH-west | 2026-09-03 12:01:00 | 56.34156 | 4.72106 | 102° | 86km/h | 14114m | 4m/s | -50.2°C | 0.9% | 142.9hPa | 2.6V | 18:12:15 | 01:11:35 | 00:00:00 | |
| DM0DOS-11 | 2026-09-03 12:00:55 | 56.34183 | 4.71877 | 100° | 84km/h | 14088m | 3.9m/s | -50.3°C | 0% | 0hPa | 2.6V | 08:30:00 | 01:11:29 | 00:00:00 | |
| DL1XH-west | 2026-09-03 12:00:48 | 56.34206 | 4.71692 | 105° | 86km/h | 14068m | 3.3m/s | -50.5°C | 0.9% | 143.9hPa | 2.7V | 18:12:15 | 01:11:24 | 00:00:00 | |
| DL1XH-west | 2026-09-03 12:00:37 | 56.34274 | 4.71241 | 107° | 88km/h | 14019m | 3.4m/s | -50.8°C | 1% | 145hPa | 2.7V | 18:12:15 | 01:11:12 | 00:00:00 | |
| DM0DOS-11 | 2026-09-03 12:00:35 | 56.34294 | 4.71129 | 108° | 86km/h | 14006m | 3.7m/s | -50.9°C | 0% | 0hPa | 2.7V | 00:00:00 | 01:11:09 | 00:00:00 | |
| DL1XH-west | 2026-09-03 12:00:27 | 56.34334 | 4.70907 | 108° | 86km/h | 13982m | 4.1m/s | -51°C | 1.3% | 145.8hPa | 2.6V | 18:12:15 | 01:11:03 | 00:00:00 | |
| DL1XH-west | 2026-09-03 12:00:17 | 56.34408 | 4.70481 | 105° | 97km/h | 13937m | 3.5m/s | -51.5°C | 1.2% | 146.9hPa | 2.7V | 18:12:15 | 01:10:52 | 00:00:00 | |
| DM0DOS-11 | 2026-09-03 12:00:13 | 56.34441 | 4.70265 | 104° | 99km/h | 13917m | 3.8m/s | -51.6°C | 0% | 0hPa | 2.7V | 00:00:00 | 01:10:47 | 00:00:00 | |
| DL1XH-west | 2026-09-03 12:00:06 | 56.34476 | 4.70010 | 104° | 97km/h | 13894m | 4.2m/s | -52.2°C | 1.5% | 147.8hPa | 2.7V | 18:12:15 | 01:10:41 | 00:00:00 | |
| DJ2DS-15 | 2026-09-03 12:00:06 | 56.34471 | 4.70053 | 104° | 102km/h | 13898m | 2.6m/s | -52.0°C | 4.4% | 147.7hPa | 2.6V | 00:00:00 | 01:10:42 | 08:30:00 | |
| DM0DOS-11 | 2026-09-03 12:00:03 | 56.34499 | 4.69834 | 103° | 102km/h | 13878m | 2.8m/s | 0°C | 0% | 0hPa | 2.6V | 00:00:00 | 01:10:37 | 00:00:00 | |
| DL1XH-west | 2026-09-03 11:59:55 | 56.34545 | 4.69512 | 104° | 104km/h | 13850m | 3.7m/s | -52.4°C | 1.5% | 148.9hPa | 2.6V | 18:12:15 | 01:10:30 | 00:00:00 | |
| DL1XH-west | 2026-09-03 11:59:44 | 56.34610 | 4.69012 | 104° | 102km/h | 13807m | 3.9m/s | -52.4°C | 1.4% | 149.9hPa | 2.6V | 18:12:15 | 01:10:19 | 00:00:00 | |
| DL1XH-west | 2026-09-03 11:59:34 | 56.34669 | 4.68572 | 104° | 100km/h | 13765m | 4.4m/s | -52.4°C | 1.5% | 150.9hPa | 2.7V | 18:12:15 | 01:10:09 | 00:00:00 | |
| DL1XH-west | 2026-09-03 11:59:24 | 56.34722 | 4.68175 | 103° | 93km/h | 13728m | 4.4m/s | -52.3°C | 1.4% | 151.7hPa | 2.6V | 18:12:15 | 01:10:00 | 00:00:00 | |
| DL1XH-west | 2026-09-03 11:59:14 | 56.34779 | 4.67747 | 107° | 99km/h | 13686m | 3.7m/s | -52.5°C | 1.3% | 152.7hPa | 2.6V | 18:12:15 | 01:09:50 | 00:00:00 | |
| DL1XH-west | 2026-09-03 11:59:04 | 56.34848 | 4.67317 | 105° | 97km/h | 13645m | 3.7m/s | -52.7°C | 1.3% | 153.7hPa | 2.7V | 18:12:15 | 01:09:40 | 00:00:00 | |
| DM0DOS-11 | 2026-09-03 11:58:53 | 56.34923 | 4.66742 | 104° | 99km/h | 13591m | 4.3m/s | 0°C | 0% | 0hPa | 2.6V | 00:00:00 | 01:09:27 | 00:00:00 | |
| DL1XH-west | 2026-09-03 11:58:53 | 56.34911 | 4.66829 | 102° | 99km/h | 13599m | 3.7m/s | -52.6°C | 1.3% | 154.8hPa | 2.7V | 18:12:15 | 01:09:29 | 00:00:00 | |
| DL1XH-west | 2026-09-03 11:58:42 | 56.34983 | 4.66340 | 103° | 104km/h | 13553m | 3.4m/s | -52.6°C | 1.4% | 155.9hPa | 2.7V | 18:12:15 | 01:09:18 | 00:00:00 | |
| DL1XH-west | 2026-09-03 11:58:31 | 56.35048 | 4.65820 | 105° | 108km/h | 13507m | 3.9m/s | -52.7°C | 1.3% | 157.1hPa | 2.6V | 18:12:15 | 01:09:07 | 00:00:00 | |
| DL1XH-west | 2026-09-03 11:58:20 | 56.35121 | 4.65297 | 104° | 106km/h | 13461m | 4.6m/s | -52.5°C | 1.5% | 158.2hPa | 2.6V | 18:12:15 | 01:08:56 | 00:00:00 | |
| DL1XH-west | 2026-09-03 11:58:09 | 56.35192 | 4.64791 | 105° | 102km/h | 13413m | 4.6m/s | -52.2°C | 1.4% | 159.3hPa | 2.7V | 18:12:15 | 01:08:45 | 00:00:00 | |
| DJ2DS-15 | 2026-09-03 11:58:06 | 56.35210 | 4.64657 | 104° | 99km/h | 13400m | 4.0m/s | -52.1°C | 4.5% | 159.6hPa | 2.7V | 00:00:00 | 01:08:42 | 00:00:00 | |
| DM0DOS-11 | 2026-09-03 11:58:04 | 56.35249 | 4.64388 | 104° | 100km/h | 13373m | 3.8m/s | 0°C | 0% | 0hPa | 2.6V | 00:00:00 | 01:08:36 | 00:00:00 | |
| DL1XH-west | 2026-09-03 11:57:59 | 56.35255 | 4.64344 | 105° | 99km/h | 13369m | 4.7m/s | -52°C | 1.3% | 160.4hPa | 2.6V | 18:12:15 | 01:08:35 | 00:00:00 | |
| DL1XH-west | 2026-09-03 11:57:48 | 56.35325 | 4.63878 | 106° | 99km/h | 13322m | 4.8m/s | -51.8°C | 1.2% | 161.6hPa | 2.6V | 18:12:15 | 01:08:24 | 00:00:00 | |
| DL1XH-west | 2026-09-03 11:57:38 | 56.35395 | 4.63427 | 107° | 106km/h | 13276m | 3.4m/s | -52.2°C | 1.4% | 162.7hPa | 2.7V | 18:12:15 | 01:08:14 | 00:00:00 | |
| DL1XH-west | 2026-09-03 11:57:28 | 56.35473 | 4.62962 | 105° | 111km/h | 13232m | 4.4m/s | -51.9°C | 1.3% | 163.8hPa | 2.7V | 18:12:15 | 01:08:04 | 00:00:00 | |
| DM0DOS-11 | 2026-09-03 11:57:28 | 56.35487 | 4.62865 | 105° | 110km/h | 13223m | 4.2m/s | 0°C | 0% | 0hPa | 2.6V | 00:00:00 | 01:08:02 | 00:00:00 | |
| DL1XH-west | 2026-09-03 11:57:18 | 56.35547 | 4.62419 | 105° | 115km/h | 13184m | 4.3m/s | -51.6°C | 1.3% | 165.1hPa | 2.6V | 18:12:15 | 01:07:53 | 00:00:00 | |
| DL1XH-west | 2026-09-03 11:57:07 | 56.35635 | 4.61852 | 104° | 117km/h | 13137m | 3.9m/s | -51.4°C | 1.3% | 166.3hPa | 2.6V | 18:12:15 | 01:07:42 | 00:00:00 | |
| DL1XH-west | 2026-09-03 11:56:57 | 56.35716 | 4.61344 | 108° | 119km/h | 13094m | 3.9m/s | -51.5°C | 1.3% | 167.4hPa | 2.6V | 18:12:15 | 01:07:32 | 00:00:00 | |
| DL1XH-west | 2026-09-03 11:56:45 | 56.35796 | 4.60769 | 105° | 119km/h | 13047m | 4m/s | -51.2°C | 1.2% | 168.6hPa | 2.6V | 18:12:15 | 01:07:21 | 00:00:00 | |
| DL1XH-west | 2026-09-03 11:56:35 | 56.35867 | 4.60236 | 103° | 120km/h | 13003m | 4.1m/s | -50.9°C | 1.3% | 169.8hPa | 2.6V | 18:12:15 | 01:07:11 | 00:00:00 | |
| DL1XH-west | 2026-09-03 11:56:25 | 56.35938 | 4.59651 | 102° | 119km/h | 12955m | 5.1m/s | -50.7°C | 1.2% | 171.1hPa | 2.6V | 18:12:15 | 01:07:00 | 00:00:00 | |
| DM0DOS-11 | 2026-09-03 11:56:20 | 56.35993 | 4.59175 | 99° | 117km/h | 12915m | 4m/s | 0°C | 0% | 0hPa | 2.6V | 00:00:00 | 01:06:51 | 00:00:00 | |
| DL1XH-west | 2026-09-03 11:56:14 | 56.35998 | 4.59123 | 100° | 117km/h | 12910m | 3.9m/s | -50.4°C | 1.2% | 172.2hPa | 2.6V | 18:12:15 | 01:06:50 | 00:00:00 | |
| DL1XH-west | 2026-09-03 11:56:04 | 56.36052 | 4.58610 | 101° | 117km/h | 12865m | 5.2m/s | -50.3°C | 1.1% | 173.4hPa | 2.6V | 18:12:15 | 01:06:40 | 00:00:00 | |
| DM0DOS-11 | 2026-09-03 11:56:01 | 56.36072 | 4.58403 | 98° | 113km/h | 12848m | 3.7m/s | 0°C | 0% | 0hPa | 2.7V | 00:00:00 | 01:06:36 | 00:00:00 | |
| DL1XH-west | 2026-09-03 11:55:53 | 56.36106 | 4.58054 | 102° | 108km/h | 12817m | 3.5m/s | -50.1°C | 1.1% | 174.7hPa | 2.6V | 18:12:15 | 01:06:29 | 00:00:00 | |
| DM0DOS-11 | 2026-09-03 11:55:51 | 56.36144 | 4.57716 | 101° | 108km/h | 12787m | 3.1m/s | 0°C | 0% | 0hPa | 2.7V | 00:00:00 | 01:06:22 | 00:00:00 | |
| DL1XH-west | 2026-09-03 11:55:43 | 56.36162 | 4.57573 | 104° | 106km/h | 12774m | 3.6m/s | -49.9°C | 1% | 175.8hPa | 2.6V | 18:12:15 | 01:06:19 | 00:00:00 | |
| DL1XH-west | 2026-09-03 11:55:32 | 56.36233 | 4.57056 | 103° | 106km/h | 12727m | 3.7m/s | -49.5°C | 1% | 177.1hPa | 2.6V | 18:12:15 | 01:06:08 | 00:00:00 | |
| DL1XH-west | 2026-09-03 11:55:21 | 56.36311 | 4.56549 | 104° | 106km/h | 12681m | 3.7m/s | -49.3°C | 1% | 178.4hPa | 2.7V | 18:12:15 | 01:05:57 | 00:00:00 | |
| DL1XH-west | 2026-09-03 11:55:11 | 56.36376 | 4.56094 | 104° | 102km/h | 12638m | 3.6m/s | -49.5°C | 1% | 179.5hPa | 2.6V | 18:12:15 | 01:05:47 | 00:00:00 | |
| DL1XH-west | 2026-09-03 11:55:01 | 56.36448 | 4.55584 | 104° | 108km/h | 12590m | 4.8m/s | -49.8°C | 1.1% | 180.9hPa | 2.6V | 18:12:15 | 01:05:36 | 00:00:00 | |
| DL1XH-west | 2026-09-03 11:54:49 | 56.36530 | 4.55054 | 108° | 111km/h | 12544m | 3.5m/s | -50.4°C | 1.4% | 182.2hPa | 2.6V | 18:12:15 | 01:05:25 | 00:00:00 | |
| DL1XH-west | 2026-09-03 11:54:39 | 56.36598 | 4.54580 | 102° | 106km/h | 12502m | 4.8m/s | -50.5°C | 1.5% | 183.4hPa | 2.6V | 18:12:15 | 01:05:15 | 00:00:00 | |
| DL1XH-west | 2026-09-03 11:54:29 | 56.36662 | 4.54114 | 104° | 108km/h | 12458m | 3.6m/s | -50.3°C | 1.6% | 184.6hPa | 2.6V | 18:12:15 | 01:05:05 | 00:00:00 | |
| DL1XH-west | 2026-09-03 11:54:19 | 56.36744 | 4.53588 | 108° | 108km/h | 12413m | 4.3m/s | -50.4°C | 1.9% | 185.9hPa | 2.6V | 18:12:15 | 01:04:54 | 00:00:00 | |
| DL1XH-west | 2026-09-03 11:54:08 | 56.36832 | 4.53111 | 110° | 113km/h | 12373m | 4.2m/s | -50.6°C | 2.2% | 187hPa | 2.6V | 18:12:15 | 01:04:44 | 00:00:00 | |
| DL1XH-west | 2026-09-03 11:53:58 | 56.36927 | 4.52609 | 108° | 120km/h | 12333m | 4.5m/s | -51°C | 2.5% | 188.2hPa | 2.7V | 18:12:15 | 01:04:34 | 00:00:00 | |
| DL1XH-west | 2026-09-03 11:53:47 | 56.37041 | 4.52028 | 111° | 128km/h | 12290m | 3.7m/s | -51.6°C | 2.8% | 189.4hPa | 2.6V | 18:12:15 | 01:04:23 | 00:00:00 | |
| DL1XH-west | 2026-09-03 11:53:37 | 56.37135 | 4.51493 | 107° | 122km/h | 12253m | 3.5m/s | -51.8°C | 3.1% | 190.6hPa | 2.7V | 18:12:15 | 01:04:13 | 00:00:00 | |
| DL1XH-west | 2026-09-03 11:53:27 | 56.37223 | 4.50956 | 107° | 120km/h | 12217m | 3.1m/s | -52°C | 3.3% | 191.6hPa | 2.7V | 18:12:15 | 01:04:03 | 00:00:00 | |
| DL1XH-west | 2026-09-03 11:53:17 | 56.37320 | 4.50417 | 108° | 128km/h | 12180m | 4.2m/s | -52°C | 3.3% | 192.8hPa | 2.7V | 18:12:15 | 01:03:53 | 00:00:00 | |
| DL1XH-west | 2026-09-03 11:53:06 | 56.37437 | 4.49814 | 111° | 130km/h | 12138m | 4.5m/s | -51.8°C | 3.3% | 194hPa | 2.7V | 18:12:15 | 01:03:42 | 00:00:00 | |
| DL1XH-west | 2026-09-03 11:52:55 | 56.37564 | 4.49183 | 111° | 133km/h | 12094m | 3.4m/s | -51.8°C | 3.5% | 195.4hPa | 2.7V | 18:12:15 | 01:03:31 | 00:00:00 | |
| DL1XH-west | 2026-09-03 11:52:45 | 56.37695 | 4.48610 | 110° | 139km/h | 12056m | 2.8m/s | -52.8°C | 4% | 196.5hPa | 2.6V | 18:12:15 | 01:03:21 | 00:00:00 | |
| DL1XH-west | 2026-09-03 11:52:35 | 56.37824 | 4.48006 | 111° | 146km/h | 12017m | 4.6m/s | -53°C | 4.3% | 197.7hPa | 2.7V | 18:12:15 | 01:03:11 | 00:00:00 | |
| DL1XH-west | 2026-09-03 11:52:24 | 56.37983 | 4.47307 | 113° | 151km/h | 11969m | 3m/s | -52.9°C | 4.4% | 199.2hPa | 2.7V | 18:12:15 | 01:03:00 | 00:00:00 | |
| DL1XH-west | 2026-09-03 11:52:13 | 56.38152 | 4.46579 | 114° | 161km/h | 11921m | 2.6m/s | -52.6°C | 4.7% | 200.7hPa | 2.7V | 18:12:15 | 01:02:49 | 00:00:00 | |
| DL1XH-west | 2026-09-03 11:52:03 | 56.38313 | 4.45897 | 115° | 164km/h | 11879m | 3.4m/s | -52.3°C | 5.2% | 202hPa | 2.7V | 18:12:15 | 01:02:39 | 00:00:00 | |
| DL1XH-west | 2026-09-03 11:51:52 | 56.38495 | 4.45152 | 114° | 162km/h | 11831m | 4.3m/s | -52.2°C | 6% | 203.5hPa | 2.7V | 18:12:15 | 01:02:28 | 00:00:00 | |
| DJ2DS-15 | 2026-09-03 11:51:49 | 56.38544 | 4.44947 | 113° | 164km/h | 11817m | 4.1m/s | -52.1°C | 4.8% | 203.9hPa | 2.7V | 00:00:00 | 00:00:00 | 00:00:00 | |
| DL1XH-west | 2026-09-03 11:51:41 | 56.38681 | 4.44392 | 114° | 168km/h | 11782m | 4m/s | -52.3°C | 7.3% | 205hPa | 2.7V | 18:12:15 | 01:02:17 | 00:00:00 | |
| DL1XH-west | 2026-09-03 11:51:30 | 56.38870 | 4.43606 | 113° | 173km/h | 11734m | 3.8m/s | -53°C | 9.1% | 206.6hPa | 2.7V | 18:12:15 | 01:02:06 | 00:00:00 | |
| DL1XH-west | 2026-09-03 11:51:19 | 56.39049 | 4.42788 | 111° | 183km/h | 11686m | 4m/s | -53.9°C | 10.6% | 208.1hPa | 2.7V | 18:12:15 | 01:01:55 | 00:00:00 | |
| DL1XH-west | 2026-09-03 11:51:09 | 56.39214 | 4.41926 | 109° | 183km/h | 11636m | 5.5m/s | -53.9°C | 11.3% | 209.7hPa | 2.7V | 18:12:15 | 01:01:44 | 00:00:00 | |
| DL1XH-west | 2026-09-03 11:50:58 | 56.39373 | 4.41038 | 107° | 188km/h | 11588m | 4.4m/s | -53.6°C | 12.4% | 211.3hPa | 2.7V | 18:12:15 | 01:01:33 | 00:00:00 | |
| DL1XH-west | 2026-09-03 11:50:47 | 56.39514 | 4.40222 | 106° | 190km/h | 11543m | 4.3m/s | -53.7°C | 13.8% | 212.8hPa | 2.6V | 18:12:15 | 01:01:23 | 00:00:00 | |
| DL1XH-west | 2026-09-03 11:50:36 | 56.39677 | 4.39293 | 108° | 197km/h | 11496m | 3.2m/s | -54.2°C | 15.9% | 214.3hPa | 2.6V | 18:12:15 | 01:01:12 | 00:00:00 | |
| DL1XH-west | 2026-09-03 11:50:26 | 56.39834 | 4.38359 | 106° | 192km/h | 11452m | 3.5m/s | -54.3°C | 16.7% | 215.8hPa | 2.6V | 18:12:15 | 01:01:01 | 00:00:00 | |
| DL1XH-west | 2026-09-03 11:50:14 | 56.39983 | 4.37431 | 106° | 193km/h | 11410m | 4.2m/s | -54.2°C | 18.2% | 217.3hPa | 2.7V | 18:12:15 | 01:00:50 | 00:00:00 | |
| DL1XH-west | 2026-09-03 11:50:03 | 56.40132 | 4.36516 | 107° | 190km/h | 11369m | 3.5m/s | -54°C | 19.5% | 218.7hPa | 2.7V | 18:12:15 | 01:00:39 | 00:00:00 | |
| DL1XH-west | 2026-09-03 11:49:52 | 56.40286 | 4.35587 | 108° | 193km/h | 11322m | 2.9m/s | -53.8°C | 21.5% | 220.2hPa | 2.7V | 18:12:15 | 01:00:28 | 00:00:00 | |
| DL1XH-west | 2026-09-03 11:49:42 | 56.40432 | 4.34723 | 107° | 199km/h | 11280m | 5.2m/s | -53.4°C | 21.6% | 221.7hPa | 2.7V | 18:12:15 | 01:00:18 | 00:00:00 | |
| DL1XH-west | 2026-09-03 11:49:31 | 56.40612 | 4.33762 | 109° | 204km/h | 11239m | 4.6m/s | -53.1°C | 23% | 223.1hPa | 2.8V | 18:12:15 | 01:00:07 | 00:00:00 | |
| DL1XH-west | 2026-09-03 11:49:20 | 56.40788 | 4.32786 | 109° | 204km/h | 11192m | 4.1m/s | -52.6°C | 24.4% | 224.8hPa | 2.6V | 18:12:15 | 00:59:56 | 00:00:00 | |
| DL1XH-west | 2026-09-03 11:49:10 | 56.40953 | 4.31899 | 109° | 208km/h | 11149m | 4.4m/s | -53.1°C | 26.9% | 226.3hPa | 2.8V | 18:12:15 | 00:59:46 | 00:00:00 | |
| DL1XH-west | 2026-09-03 11:49:00 | 56.41151 | 4.30905 | 109° | 210km/h | 11104m | 3.7m/s | -52.8°C | 27% | 227.9hPa | 2.6V | 18:12:15 | 00:59:35 | 00:00:00 | |
| DL1XH-west | 2026-09-03 11:48:49 | 56.41346 | 4.29900 | 109° | 212km/h | 11063m | 3.2m/s | -52.6°C | 26.7% | 229.3hPa | 2.7V | 18:12:15 | 00:59:24 | 00:00:00 | |
| DL1XH-west | 2026-09-03 11:48:38 | 56.41522 | 4.28978 | 110° | 212km/h | 11026m | 4.1m/s | -52.8°C | 25.6% | 230.7hPa | 2.7V | 18:12:15 | 00:59:14 | 00:00:00 | |
| DL1XH-west | 2026-09-03 11:48:28 | 56.41695 | 4.28074 | 109° | 206km/h | 10988m | 3.5m/s | -52.6°C | 25% | 232hPa | 2.6V | 18:12:15 | 00:59:04 | 00:00:00 | |
| DL1XH-west | 2026-09-03 11:48:18 | 56.41874 | 4.27200 | 110° | 199km/h | 10946m | 4.1m/s | -52.4°C | 24.6% | 233.6hPa | 2.7V | 18:12:15 | 00:58:54 | 00:00:00 | |
| DL1XH-west | 2026-09-03 11:48:07 | 56.42065 | 4.26256 | 111° | 199km/h | 10897m | 3.6m/s | 0°C | 0% | 235.4hPa | 2.7V | 18:12:15 | 00:58:43 | 00:00:00 | |
| DL1XH-west | 2026-09-03 11:47:57 | 56.42230 | 4.25425 | 110° | 190km/h | 10848m | 4.2m/s | 0°C | 0% | 237.1hPa | 2.7V | 18:12:15 | 00:58:33 | 00:00:00 | |
| DL1XH-west | 2026-09-03 11:47:46 | 56.42416 | 4.24535 | 111° | 188km/h | 10801m | 4m/s | 0°C | 0% | 0hPa | 2.7V | 18:12:15 | 00:58:22 | 00:00:00 | |
| DJ2DS-15 | 2026-09-03 11:47:44 | 56.42449 | 4.24374 | 111° | 192km/h | 10794m | 4.5m/s | -51.9°C | 28.3% | 239.1hPa | 2.7V | 00:00:00 | 00:58:20 | 00:00:00 | |
| DJ2DS-15 | 2026-09-03 11:47:37 | 56.42586 | 4.23730 | 111° | 190km/h | 10762m | 3.5m/s | -51.9°C | 24.2% | 240.3hPa | 2.7V | 00:00:00 | 00:00:00 | 00:00:00 | |
| DJ2DS-15 | 2026-09-03 11:47:24 | 56.42812 | 4.22762 | 114° | 192km/h | 10703m | 4.3m/s | -51.7°C | 33.2% | 242.6hPa | 2.7V | 00:00:00 | 00:58:00 | 00:00:00 | |
| DJ2DS-15 | 2026-09-03 11:47:04 | 56.43215 | 4.21173 | 114° | 201km/h | 10612m | 4.7m/s | -51.1°C | 43.8% | 245.7hPa | 2.7V | 00:00:00 | 00:57:40 | 00:00:00 | |
| DJ2DS-15 | 2026-09-03 11:46:44 | 56.43677 | 4.19534 | 117° | 208km/h | 10513m | 4.4m/s | -50.5°C | 48.0% | 249.5hPa | 2.7V | 00:00:00 | 00:57:20 | 00:00:00 | |
| DJ2DS-15 | 2026-09-03 11:46:24 | 56.44147 | 4.17825 | 116° | 210km/h | 10433m | 4.3m/s | -49.8°C | 44.6% | 252.6hPa | 2.7V | 00:00:00 | 00:57:00 | 00:00:00 | |
| DJ2DS-15 | 2026-09-03 11:46:04 | 56.44623 | 4.16102 | 118° | 214km/h | 10357m | 2.8m/s | -49.4°C | 48.3% | 255.5hPa | 2.7V | 00:00:00 | 00:56:40 | 00:00:00 | |
| DJ2DS-15 | 2026-09-03 11:45:44 | 56.45110 | 4.14355 | 118° | 215km/h | 10280m | 3.8m/s | -48.7°C | 46.7% | 258.5hPa | 2.7V | 00:00:00 | 00:56:20 | 00:00:00 | |
| DJ2DS-15 | 2026-09-03 11:45:24 | 56.45598 | 4.12595 | 117° | 217km/h | 10194m | 4.1m/s | -47.9°C | 47.8% | 261.9hPa | 2.7V | 00:00:00 | 00:56:00 | 00:00:00 | |
| DJ2DS-15 | 2026-09-03 11:45:04 | 56.46088 | 4.10817 | 116° | 219km/h | 10106m | 4.1m/s | -47.1°C | 54.0% | 265.4hPa | 2.7V | 00:00:00 | 00:55:40 | 08:30:00 | |
| DJ2DS-15 | 2026-09-03 11:44:44 | 56.46578 | 4.09022 | 117° | 221km/h | 10017m | 3.4m/s | -46.4°C | 61.9% | 269.0hPa | 2.7V | 00:00:00 | 00:55:20 | 00:00:00 | |
| DJ2DS-15 | 2026-09-03 11:44:36 | 56.46776 | 4.08299 | 116° | 217km/h | 9979m | 4.2m/s | -46.1°C | 53.2% | 270.6hPa | 2.7V | 00:00:00 | 00:00:00 | 00:00:00 | |
| DJ2DS-15 | 2026-09-03 11:44:24 | 56.47075 | 4.07210 | 117° | 223km/h | 9919m | 5.1m/s | -45.4°C | 57.8% | 273.0hPa | 2.7V | 00:00:00 | 00:55:00 | 00:00:00 | |
| DJ2DS-15 | 2026-09-03 11:44:04 | 56.47569 | 4.05373 | 117° | 219km/h | 9820m | 4.2m/s | -44.8°C | 55.9% | 277.2hPa | 2.7V | 00:00:00 | 00:54:40 | 00:00:00 | |
| DJ2DS-15 | 2026-09-03 11:44:00 | 56.47670 | 4.05011 | 116° | 217km/h | 9799m | 5.8m/s | -44.6°C | 47.6% | 278.1hPa | 0V | 00:00:00 | 00:00:00 | 00:00:00 | |
| DJ2DS-15 | 2026-09-03 11:43:44 | 56.48057 | 4.03583 | 117° | 212km/h | 9712m | 5.1m/s | 0°C | 0% | 0hPa | 0V | 00:00:00 | 00:54:20 | 00:00:00 | |
| DJ2DS-15 | 2026-09-03 11:43:24 | 56.48520 | 4.01845 | 116° | 204km/h | 9595m | 7.1m/s | 0°C | 0% | 0hPa | 0V | 00:00:00 | 00:54:00 | 00:00:00 | |
| DJ2DS-15 | 2026-09-03 11:43:04 | 56.48974 | 4.00170 | 118° | 203km/h | 9457m | 5.0m/s | 0°C | 0% | 0hPa | 0V | 00:00:00 | 00:53:40 | 00:00:00 | |
| DJ2DS-15 | 2026-09-03 11:42:44 | 56.49397 | 3.98485 | 121° | 197km/h | 9342m | 9.0m/s | 0°C | 0% | 0hPa | 0V | 00:00:00 | 00:53:20 | 00:00:00 | |
| DJ2DS-15 | 2026-09-03 11:42:24 | 56.49825 | 3.96898 | 115° | 179km/h | 9213m | 6.1m/s | 0°C | 0% | 0hPa | 0V | 00:00:00 | 00:53:00 | 00:00:00 |